<?xml version="1.0" encoding="UTF-8" standalone="no" ?>
<gpx xmlns="http://www.topografix.com/GPX/1/1" xmlns:xsi="http://www.w3.org/2001/XMLSchema-instance" xsi:schemaLocation="http://www.topografix.com/GPX/1/1 http://www.topografix.com/GPX/1/1/gpx.xsd" version="1.1" creator="VisuGPX - https://www.visugpx.com">
  <metadata>
    <name>16.05.2022 -étape 5 Valdrôme la batie des fonds col du charron</name>
    <desc><![CDATA[Du col de carabès au col des combes, montée sur 1 km à 50 % de dénivelé, trés dur ; passage obligé pour rejoindre st pierre d'argençon.<br /> Pour le reste, belles descentes, montées roulables. ]]></desc>
  </metadata>
  <trk>
    <name><![CDATA[14797664-étape 5 Valdrôme la batie des fonds col du charron]]></name>
    <extensions>
      <line xmlns="http://www.topografix.com/GPX/gpx_style/0/2">
        <color>0000FF</color>
        <width>4</width>
      </line>
    </extensions>
    <trkseg>
      <trkpt lat="44.50455" lon="5.57271">
        <ele>800</ele>
        <time>2022-06-09T20:39:44Z</time>
      </trkpt>
      <trkpt lat="44.50445" lon="5.57258">
        <ele>800</ele>
        <time>2022-06-09T20:39:47Z</time>
      </trkpt>
      <trkpt lat="44.50443" lon="5.57247">
        <ele>800</ele>
        <time>2022-06-09T20:39:49Z</time>
      </trkpt>
      <trkpt lat="44.50448" lon="5.57257">
        <ele>800</ele>
        <time>2022-06-09T20:39:51Z</time>
      </trkpt>
      <trkpt lat="44.50443" lon="5.57282">
        <ele>801</ele>
        <time>2022-06-09T20:39:55Z</time>
      </trkpt>
      <trkpt lat="44.50445" lon="5.5729">
        <ele>802</ele>
        <time>2022-06-09T20:39:57Z</time>
      </trkpt>
      <trkpt lat="44.50445" lon="5.5733">
        <ele>804</ele>
        <time>2022-06-09T20:40:04Z</time>
      </trkpt>
      <trkpt lat="44.50432" lon="5.57373">
        <ele>801</ele>
        <time>2022-06-09T20:40:11Z</time>
      </trkpt>
      <trkpt lat="44.50428" lon="5.57409">
        <ele>799</ele>
        <time>2022-06-09T20:40:17Z</time>
      </trkpt>
      <trkpt lat="44.5043" lon="5.57406">
        <ele>799</ele>
        <time>2022-06-09T20:40:18Z</time>
      </trkpt>
      <trkpt lat="44.50427" lon="5.57405">
        <ele>799</ele>
        <time>2022-06-09T20:40:19Z</time>
      </trkpt>
      <trkpt lat="44.50426" lon="5.57413">
        <ele>799</ele>
        <time>2022-06-09T20:40:20Z</time>
      </trkpt>
      <trkpt lat="44.50437" lon="5.57447">
        <ele>797</ele>
        <time>2022-06-09T20:40:26Z</time>
      </trkpt>
      <trkpt lat="44.50463" lon="5.57501">
        <ele>792</ele>
        <time>2022-06-09T20:40:37Z</time>
      </trkpt>
      <trkpt lat="44.50459" lon="5.57504">
        <ele>792</ele>
        <time>2022-06-09T20:40:38Z</time>
      </trkpt>
      <trkpt lat="44.5046" lon="5.57502">
        <ele>792</ele>
        <time>2022-06-09T20:40:39Z</time>
      </trkpt>
      <trkpt lat="44.50465" lon="5.57506">
        <ele>792</ele>
        <time>2022-06-09T20:40:40Z</time>
      </trkpt>
      <trkpt lat="44.50477" lon="5.57522">
        <ele>790</ele>
        <time>2022-06-09T20:40:44Z</time>
      </trkpt>
      <trkpt lat="44.50482" lon="5.57538">
        <ele>789</ele>
        <time>2022-06-09T20:40:47Z</time>
      </trkpt>
      <trkpt lat="44.5048" lon="5.57547">
        <ele>789</ele>
        <time>2022-06-09T20:40:48Z</time>
      </trkpt>
      <trkpt lat="44.50469" lon="5.57566">
        <ele>789</ele>
        <time>2022-06-09T20:40:52Z</time>
      </trkpt>
      <trkpt lat="44.5047" lon="5.57568">
        <ele>789</ele>
        <time>2022-06-09T20:40:53Z</time>
      </trkpt>
      <trkpt lat="44.50461" lon="5.57577">
        <ele>790</ele>
        <time>2022-06-09T20:40:55Z</time>
      </trkpt>
      <trkpt lat="44.5044" lon="5.57614">
        <ele>791</ele>
        <time>2022-06-09T20:41:03Z</time>
      </trkpt>
      <trkpt lat="44.50419" lon="5.57637">
        <ele>792</ele>
        <time>2022-06-09T20:41:10Z</time>
      </trkpt>
      <trkpt lat="44.50421" lon="5.57638">
        <ele>791</ele>
        <time>2022-06-09T20:41:10Z</time>
      </trkpt>
      <trkpt lat="44.50438" lon="5.57618">
        <ele>791</ele>
        <time>2022-06-09T20:41:15Z</time>
      </trkpt>
      <trkpt lat="44.50468" lon="5.57568">
        <ele>789</ele>
        <time>2022-06-09T20:41:26Z</time>
      </trkpt>
      <trkpt lat="44.50472" lon="5.5757">
        <ele>789</ele>
        <time>2022-06-09T20:41:27Z</time>
      </trkpt>
      <trkpt lat="44.50474" lon="5.57577">
        <ele>788</ele>
        <time>2022-06-09T20:41:28Z</time>
      </trkpt>
      <trkpt lat="44.50463" lon="5.57615">
        <ele>789</ele>
        <time>2022-06-09T20:41:35Z</time>
      </trkpt>
      <trkpt lat="44.50462" lon="5.5763">
        <ele>788</ele>
        <time>2022-06-09T20:41:38Z</time>
      </trkpt>
      <trkpt lat="44.50468" lon="5.57669">
        <ele>787</ele>
        <time>2022-06-09T20:41:44Z</time>
      </trkpt>
      <trkpt lat="44.50463" lon="5.57703">
        <ele>788</ele>
        <time>2022-06-09T20:41:50Z</time>
      </trkpt>
      <trkpt lat="44.50463" lon="5.57711">
        <ele>788</ele>
        <time>2022-06-09T20:41:51Z</time>
      </trkpt>
      <trkpt lat="44.5047" lon="5.57737">
        <ele>788</ele>
        <time>2022-06-09T20:41:56Z</time>
      </trkpt>
      <trkpt lat="44.50467" lon="5.57766">
        <ele>791</ele>
        <time>2022-06-09T20:42:01Z</time>
      </trkpt>
      <trkpt lat="44.50463" lon="5.57781">
        <ele>792</ele>
        <time>2022-06-09T20:42:04Z</time>
      </trkpt>
      <trkpt lat="44.50452" lon="5.57798">
        <ele>794</ele>
        <time>2022-06-09T20:42:07Z</time>
      </trkpt>
      <trkpt lat="44.50431" lon="5.57825">
        <ele>795</ele>
        <time>2022-06-09T20:42:14Z</time>
      </trkpt>
      <trkpt lat="44.50397" lon="5.57861">
        <ele>798</ele>
        <time>2022-06-09T20:42:24Z</time>
      </trkpt>
      <trkpt lat="44.50377" lon="5.57892">
        <ele>802</ele>
        <time>2022-06-09T20:42:31Z</time>
      </trkpt>
      <trkpt lat="44.50365" lon="5.57899">
        <ele>801</ele>
        <time>2022-06-09T20:42:34Z</time>
      </trkpt>
      <trkpt lat="44.50331" lon="5.5794">
        <ele>803</ele>
        <time>2022-06-09T20:42:44Z</time>
      </trkpt>
      <trkpt lat="44.50314" lon="5.57949">
        <ele>803</ele>
        <time>2022-06-09T20:42:49Z</time>
      </trkpt>
      <trkpt lat="44.50292" lon="5.5797">
        <ele>805</ele>
        <time>2022-06-09T20:42:55Z</time>
      </trkpt>
      <trkpt lat="44.50276" lon="5.57993">
        <ele>806</ele>
        <time>2022-06-09T20:43:00Z</time>
      </trkpt>
      <trkpt lat="44.50255" lon="5.58004">
        <ele>803</ele>
        <time>2022-06-09T20:43:06Z</time>
      </trkpt>
      <trkpt lat="44.50231" lon="5.58034">
        <ele>805</ele>
        <time>2022-06-09T20:43:13Z</time>
      </trkpt>
      <trkpt lat="44.50213" lon="5.58098">
        <ele>807</ele>
        <time>2022-06-09T20:43:24Z</time>
      </trkpt>
      <trkpt lat="44.50207" lon="5.58128">
        <ele>807</ele>
        <time>2022-06-09T20:43:30Z</time>
      </trkpt>
      <trkpt lat="44.50206" lon="5.58146">
        <ele>808</ele>
        <time>2022-06-09T20:43:33Z</time>
      </trkpt>
      <trkpt lat="44.50206" lon="5.58242">
        <ele>809</ele>
        <time>2022-06-09T20:43:49Z</time>
      </trkpt>
      <trkpt lat="44.50208" lon="5.58263">
        <ele>809</ele>
        <time>2022-06-09T20:43:52Z</time>
      </trkpt>
      <trkpt lat="44.50215" lon="5.58295">
        <ele>809</ele>
        <time>2022-06-09T20:43:58Z</time>
      </trkpt>
      <trkpt lat="44.50239" lon="5.58342">
        <ele>811</ele>
        <time>2022-06-09T20:44:07Z</time>
      </trkpt>
      <trkpt lat="44.50246" lon="5.58364">
        <ele>811</ele>
        <time>2022-06-09T20:44:11Z</time>
      </trkpt>
      <trkpt lat="44.50245" lon="5.58382">
        <ele>809</ele>
        <time>2022-06-09T20:44:14Z</time>
      </trkpt>
      <trkpt lat="44.5024" lon="5.5839">
        <ele>808</ele>
        <time>2022-06-09T20:44:16Z</time>
      </trkpt>
      <trkpt lat="44.5023" lon="5.58419">
        <ele>805</ele>
        <time>2022-06-09T20:44:22Z</time>
      </trkpt>
      <trkpt lat="44.50228" lon="5.58419">
        <ele>805</ele>
        <time>2022-06-09T20:44:22Z</time>
      </trkpt>
      <trkpt lat="44.50227" lon="5.58417">
        <ele>805</ele>
        <time>2022-06-09T20:44:22Z</time>
      </trkpt>
      <trkpt lat="44.50236" lon="5.58393">
        <ele>807</ele>
        <time>2022-06-09T20:44:27Z</time>
      </trkpt>
      <trkpt lat="44.50244" lon="5.58378">
        <ele>809</ele>
        <time>2022-06-09T20:44:30Z</time>
      </trkpt>
      <trkpt lat="44.50247" lon="5.58377">
        <ele>810</ele>
        <time>2022-06-09T20:44:31Z</time>
      </trkpt>
      <trkpt lat="44.50244" lon="5.58378">
        <ele>809</ele>
        <time>2022-06-09T20:44:32Z</time>
      </trkpt>
      <trkpt lat="44.50247" lon="5.58361">
        <ele>811</ele>
        <time>2022-06-09T20:44:34Z</time>
      </trkpt>
      <trkpt lat="44.50246" lon="5.58354">
        <ele>812</ele>
        <time>2022-06-09T20:44:36Z</time>
      </trkpt>
      <trkpt lat="44.50227" lon="5.58318">
        <ele>810</ele>
        <time>2022-06-09T20:44:43Z</time>
      </trkpt>
      <trkpt lat="44.50222" lon="5.58296">
        <ele>811</ele>
        <time>2022-06-09T20:44:47Z</time>
      </trkpt>
      <trkpt lat="44.50223" lon="5.58253">
        <ele>813</ele>
        <time>2022-06-09T20:44:54Z</time>
      </trkpt>
      <trkpt lat="44.50227" lon="5.58241">
        <ele>814</ele>
        <time>2022-06-09T20:44:56Z</time>
      </trkpt>
      <trkpt lat="44.50225" lon="5.58224">
        <ele>813</ele>
        <time>2022-06-09T20:44:59Z</time>
      </trkpt>
      <trkpt lat="44.50228" lon="5.58197">
        <ele>814</ele>
        <time>2022-06-09T20:45:04Z</time>
      </trkpt>
      <trkpt lat="44.50232" lon="5.58183">
        <ele>815</ele>
        <time>2022-06-09T20:45:06Z</time>
      </trkpt>
      <trkpt lat="44.50231" lon="5.58165">
        <ele>814</ele>
        <time>2022-06-09T20:45:09Z</time>
      </trkpt>
      <trkpt lat="44.50235" lon="5.58138">
        <ele>814</ele>
        <time>2022-06-09T20:45:14Z</time>
      </trkpt>
      <trkpt lat="44.50242" lon="5.58128">
        <ele>815</ele>
        <time>2022-06-09T20:45:16Z</time>
      </trkpt>
      <trkpt lat="44.50247" lon="5.58126">
        <ele>816</ele>
        <time>2022-06-09T20:45:17Z</time>
      </trkpt>
      <trkpt lat="44.5025" lon="5.58129">
        <ele>817</ele>
        <time>2022-06-09T20:45:18Z</time>
      </trkpt>
      <trkpt lat="44.50252" lon="5.58136">
        <ele>818</ele>
        <time>2022-06-09T20:45:20Z</time>
      </trkpt>
      <trkpt lat="44.50248" lon="5.58149">
        <ele>817</ele>
        <time>2022-06-09T20:45:22Z</time>
      </trkpt>
      <trkpt lat="44.50248" lon="5.58162">
        <ele>818</ele>
        <time>2022-06-09T20:45:24Z</time>
      </trkpt>
      <trkpt lat="44.50251" lon="5.58178">
        <ele>819</ele>
        <time>2022-06-09T20:45:27Z</time>
      </trkpt>
      <trkpt lat="44.50247" lon="5.582">
        <ele>819</ele>
        <time>2022-06-09T20:45:31Z</time>
      </trkpt>
      <trkpt lat="44.50246" lon="5.58248">
        <ele>819</ele>
        <time>2022-06-09T20:45:39Z</time>
      </trkpt>
      <trkpt lat="44.5025" lon="5.58263">
        <ele>819</ele>
        <time>2022-06-09T20:45:41Z</time>
      </trkpt>
      <trkpt lat="44.50276" lon="5.5831">
        <ele>823</ele>
        <time>2022-06-09T20:45:51Z</time>
      </trkpt>
      <trkpt lat="44.5028" lon="5.58306">
        <ele>825</ele>
        <time>2022-06-09T20:45:52Z</time>
      </trkpt>
      <trkpt lat="44.50282" lon="5.58296">
        <ele>826</ele>
        <time>2022-06-09T20:45:54Z</time>
      </trkpt>
      <trkpt lat="44.50278" lon="5.58264">
        <ele>827</ele>
        <time>2022-06-09T20:45:59Z</time>
      </trkpt>
      <trkpt lat="44.5029" lon="5.58243">
        <ele>831</ele>
        <time>2022-06-09T20:46:04Z</time>
      </trkpt>
      <trkpt lat="44.50287" lon="5.58214">
        <ele>830</ele>
        <time>2022-06-09T20:46:09Z</time>
      </trkpt>
      <trkpt lat="44.50306" lon="5.58177">
        <ele>834</ele>
        <time>2022-06-09T20:46:16Z</time>
      </trkpt>
      <trkpt lat="44.50309" lon="5.58126">
        <ele>832</ele>
        <time>2022-06-09T20:46:25Z</time>
      </trkpt>
      <trkpt lat="44.50312" lon="5.5811">
        <ele>832</ele>
        <time>2022-06-09T20:46:28Z</time>
      </trkpt>
      <trkpt lat="44.5032" lon="5.58095">
        <ele>833</ele>
        <time>2022-06-09T20:46:31Z</time>
      </trkpt>
      <trkpt lat="44.50328" lon="5.58088">
        <ele>835</ele>
        <time>2022-06-09T20:46:33Z</time>
      </trkpt>
      <trkpt lat="44.50368" lon="5.58074">
        <ele>839</ele>
        <time>2022-06-09T20:46:43Z</time>
      </trkpt>
      <trkpt lat="44.50399" lon="5.58085">
        <ele>845</ele>
        <time>2022-06-09T20:46:50Z</time>
      </trkpt>
      <trkpt lat="44.50421" lon="5.58083">
        <ele>847</ele>
        <time>2022-06-09T20:46:55Z</time>
      </trkpt>
      <trkpt lat="44.50428" lon="5.5808">
        <ele>847</ele>
        <time>2022-06-09T20:46:57Z</time>
      </trkpt>
      <trkpt lat="44.50445" lon="5.58066">
        <ele>846</ele>
        <time>2022-06-09T20:47:02Z</time>
      </trkpt>
      <trkpt lat="44.50461" lon="5.58061">
        <ele>846</ele>
        <time>2022-06-09T20:47:05Z</time>
      </trkpt>
      <trkpt lat="44.50486" lon="5.58081">
        <ele>850</ele>
        <time>2022-06-09T20:47:12Z</time>
      </trkpt>
      <trkpt lat="44.50495" lon="5.58096">
        <ele>852</ele>
        <time>2022-06-09T20:47:15Z</time>
      </trkpt>
      <trkpt lat="44.50507" lon="5.58127">
        <ele>854</ele>
        <time>2022-06-09T20:47:21Z</time>
      </trkpt>
      <trkpt lat="44.5052" lon="5.58142">
        <ele>856</ele>
        <time>2022-06-09T20:47:25Z</time>
      </trkpt>
      <trkpt lat="44.5053" lon="5.58142">
        <ele>857</ele>
        <time>2022-06-09T20:47:27Z</time>
      </trkpt>
      <trkpt lat="44.50542" lon="5.58152">
        <ele>859</ele>
        <time>2022-06-09T20:47:31Z</time>
      </trkpt>
      <trkpt lat="44.50561" lon="5.58185">
        <ele>863</ele>
        <time>2022-06-09T20:47:38Z</time>
      </trkpt>
      <trkpt lat="44.50567" lon="5.5821">
        <ele>866</ele>
        <time>2022-06-09T20:47:42Z</time>
      </trkpt>
      <trkpt lat="44.50574" lon="5.58222">
        <ele>868</ele>
        <time>2022-06-09T20:47:45Z</time>
      </trkpt>
      <trkpt lat="44.50575" lon="5.58232">
        <ele>869</ele>
        <time>2022-06-09T20:47:46Z</time>
      </trkpt>
      <trkpt lat="44.50585" lon="5.58242">
        <ele>871</ele>
        <time>2022-06-09T20:47:49Z</time>
      </trkpt>
      <trkpt lat="44.50594" lon="5.58271">
        <ele>876</ele>
        <time>2022-06-09T20:47:55Z</time>
      </trkpt>
      <trkpt lat="44.5062" lon="5.58313">
        <ele>884</ele>
        <time>2022-06-09T20:48:04Z</time>
      </trkpt>
      <trkpt lat="44.50628" lon="5.58321">
        <ele>886</ele>
        <time>2022-06-09T20:48:06Z</time>
      </trkpt>
      <trkpt lat="44.50635" lon="5.58321">
        <ele>887</ele>
        <time>2022-06-09T20:48:08Z</time>
      </trkpt>
      <trkpt lat="44.50647" lon="5.58329">
        <ele>889</ele>
        <time>2022-06-09T20:48:11Z</time>
      </trkpt>
      <trkpt lat="44.50648" lon="5.58334">
        <ele>890</ele>
        <time>2022-06-09T20:48:12Z</time>
      </trkpt>
      <trkpt lat="44.50653" lon="5.58337">
        <ele>891</ele>
        <time>2022-06-09T20:48:13Z</time>
      </trkpt>
      <trkpt lat="44.50669" lon="5.58362">
        <ele>896</ele>
        <time>2022-06-09T20:48:19Z</time>
      </trkpt>
      <trkpt lat="44.50683" lon="5.5837">
        <ele>898</ele>
        <time>2022-06-09T20:48:22Z</time>
      </trkpt>
      <trkpt lat="44.50692" lon="5.5838">
        <ele>901</ele>
        <time>2022-06-09T20:48:25Z</time>
      </trkpt>
      <trkpt lat="44.50707" lon="5.58384">
        <ele>903</ele>
        <time>2022-06-09T20:48:28Z</time>
      </trkpt>
      <trkpt lat="44.5072" lon="5.58391">
        <ele>906</ele>
        <time>2022-06-09T20:48:32Z</time>
      </trkpt>
      <trkpt lat="44.50732" lon="5.58414">
        <ele>910</ele>
        <time>2022-06-09T20:48:36Z</time>
      </trkpt>
      <trkpt lat="44.50743" lon="5.58423">
        <ele>913</ele>
        <time>2022-06-09T20:48:39Z</time>
      </trkpt>
      <trkpt lat="44.50753" lon="5.58438">
        <ele>914</ele>
        <time>2022-06-09T20:48:43Z</time>
      </trkpt>
      <trkpt lat="44.5076" lon="5.58444">
        <ele>914</ele>
        <time>2022-06-09T20:48:45Z</time>
      </trkpt>
      <trkpt lat="44.50779" lon="5.58476">
        <ele>914</ele>
        <time>2022-06-09T20:48:52Z</time>
      </trkpt>
      <trkpt lat="44.50788" lon="5.5848">
        <ele>913</ele>
        <time>2022-06-09T20:48:54Z</time>
      </trkpt>
      <trkpt lat="44.50804" lon="5.58496">
        <ele>913</ele>
        <time>2022-06-09T20:48:58Z</time>
      </trkpt>
      <trkpt lat="44.50801" lon="5.58524">
        <ele>918</ele>
        <time>2022-06-09T20:49:03Z</time>
      </trkpt>
      <trkpt lat="44.50803" lon="5.58546">
        <ele>921</ele>
        <time>2022-06-09T20:49:07Z</time>
      </trkpt>
      <trkpt lat="44.50815" lon="5.58568">
        <ele>924</ele>
        <time>2022-06-09T20:49:11Z</time>
      </trkpt>
      <trkpt lat="44.50836" lon="5.58632">
        <ele>936</ele>
        <time>2022-06-09T20:49:23Z</time>
      </trkpt>
      <trkpt lat="44.50855" lon="5.58674">
        <ele>937</ele>
        <time>2022-06-09T20:49:31Z</time>
      </trkpt>
      <trkpt lat="44.50874" lon="5.58728">
        <ele>941</ele>
        <time>2022-06-09T20:49:42Z</time>
      </trkpt>
      <trkpt lat="44.50881" lon="5.58769">
        <ele>948</ele>
        <time>2022-06-09T20:49:49Z</time>
      </trkpt>
      <trkpt lat="44.5089" lon="5.58793">
        <ele>952</ele>
        <time>2022-06-09T20:49:53Z</time>
      </trkpt>
      <trkpt lat="44.50893" lon="5.58811">
        <ele>956</ele>
        <time>2022-06-09T20:49:56Z</time>
      </trkpt>
      <trkpt lat="44.50917" lon="5.58862">
        <ele>968</ele>
        <time>2022-06-09T20:50:06Z</time>
      </trkpt>
      <trkpt lat="44.50931" lon="5.58867">
        <ele>965</ele>
        <time>2022-06-09T20:50:10Z</time>
      </trkpt>
      <trkpt lat="44.50937" lon="5.58876">
        <ele>965</ele>
        <time>2022-06-09T20:50:12Z</time>
      </trkpt>
      <trkpt lat="44.50965" lon="5.58905">
        <ele>966</ele>
        <time>2022-06-09T20:50:20Z</time>
      </trkpt>
      <trkpt lat="44.50986" lon="5.58934">
        <ele>970</ele>
        <time>2022-06-09T20:50:27Z</time>
      </trkpt>
      <trkpt lat="44.50999" lon="5.58937">
        <ele>971</ele>
        <time>2022-06-09T20:50:30Z</time>
      </trkpt>
      <trkpt lat="44.5101" lon="5.58944">
        <ele>968</ele>
        <time>2022-06-09T20:50:33Z</time>
      </trkpt>
      <trkpt lat="44.51055" lon="5.58984">
        <ele>961</ele>
        <time>2022-06-09T20:50:45Z</time>
      </trkpt>
      <trkpt lat="44.511" lon="5.59041">
        <ele>958</ele>
        <time>2022-06-09T20:50:59Z</time>
      </trkpt>
      <trkpt lat="44.5111" lon="5.59072">
        <ele>961</ele>
        <time>2022-06-09T20:51:05Z</time>
      </trkpt>
      <trkpt lat="44.51119" lon="5.59088">
        <ele>960</ele>
        <time>2022-06-09T20:51:08Z</time>
      </trkpt>
      <trkpt lat="44.51136" lon="5.59104">
        <ele>956</ele>
        <time>2022-06-09T20:51:13Z</time>
      </trkpt>
      <trkpt lat="44.51156" lon="5.59115">
        <ele>953</ele>
        <time>2022-06-09T20:51:18Z</time>
      </trkpt>
      <trkpt lat="44.51178" lon="5.59147">
        <ele>958</ele>
        <time>2022-06-09T20:51:26Z</time>
      </trkpt>
      <trkpt lat="44.51187" lon="5.59147">
        <ele>956</ele>
        <time>2022-06-09T20:51:28Z</time>
      </trkpt>
      <trkpt lat="44.51184" lon="5.59153">
        <ele>959</ele>
        <time>2022-06-09T20:51:29Z</time>
      </trkpt>
      <trkpt lat="44.51173" lon="5.59142">
        <ele>957</ele>
        <time>2022-06-09T20:51:32Z</time>
      </trkpt>
      <trkpt lat="44.51166" lon="5.59125">
        <ele>954</ele>
        <time>2022-06-09T20:51:35Z</time>
      </trkpt>
      <trkpt lat="44.51159" lon="5.59115">
        <ele>952</ele>
        <time>2022-06-09T20:51:38Z</time>
      </trkpt>
      <trkpt lat="44.51135" lon="5.59101">
        <ele>956</ele>
        <time>2022-06-09T20:51:44Z</time>
      </trkpt>
      <trkpt lat="44.51121" lon="5.59079">
        <ele>958</ele>
        <time>2022-06-09T20:51:49Z</time>
      </trkpt>
      <trkpt lat="44.51107" lon="5.59044">
        <ele>956</ele>
        <time>2022-06-09T20:51:55Z</time>
      </trkpt>
      <trkpt lat="44.51102" lon="5.59042">
        <ele>958</ele>
        <time>2022-06-09T20:51:56Z</time>
      </trkpt>
      <trkpt lat="44.51084" lon="5.59017">
        <ele>961</ele>
        <time>2022-06-09T20:52:02Z</time>
      </trkpt>
      <trkpt lat="44.51082" lon="5.59009">
        <ele>960</ele>
        <time>2022-06-09T20:52:04Z</time>
      </trkpt>
      <trkpt lat="44.51069" lon="5.58992">
        <ele>959</ele>
        <time>2022-06-09T20:52:08Z</time>
      </trkpt>
      <trkpt lat="44.51049" lon="5.58974">
        <ele>960</ele>
        <time>2022-06-09T20:52:13Z</time>
      </trkpt>
      <trkpt lat="44.5104" lon="5.58958">
        <ele>959</ele>
        <time>2022-06-09T20:52:17Z</time>
      </trkpt>
      <trkpt lat="44.5103" lon="5.58947">
        <ele>960</ele>
        <time>2022-06-09T20:52:20Z</time>
      </trkpt>
      <trkpt lat="44.51016" lon="5.58934">
        <ele>964</ele>
        <time>2022-06-09T20:52:24Z</time>
      </trkpt>
      <trkpt lat="44.50999" lon="5.58934">
        <ele>970</ele>
        <time>2022-06-09T20:52:28Z</time>
      </trkpt>
      <trkpt lat="44.50977" lon="5.58908">
        <ele>966</ele>
        <time>2022-06-09T20:52:34Z</time>
      </trkpt>
      <trkpt lat="44.50964" lon="5.58896">
        <ele>964</ele>
        <time>2022-06-09T20:52:38Z</time>
      </trkpt>
      <trkpt lat="44.50945" lon="5.58885">
        <ele>965</ele>
        <time>2022-06-09T20:52:43Z</time>
      </trkpt>
      <trkpt lat="44.50921" lon="5.58862">
        <ele>967</ele>
        <time>2022-06-09T20:52:50Z</time>
      </trkpt>
      <trkpt lat="44.50923" lon="5.5888">
        <ele>968</ele>
        <time>2022-06-09T20:52:53Z</time>
      </trkpt>
      <trkpt lat="44.50928" lon="5.58891">
        <ele>968</ele>
        <time>2022-06-09T20:52:55Z</time>
      </trkpt>
      <trkpt lat="44.5094" lon="5.58902">
        <ele>968</ele>
        <time>2022-06-09T20:52:58Z</time>
      </trkpt>
      <trkpt lat="44.50946" lon="5.58915">
        <ele>970</ele>
        <time>2022-06-09T20:53:01Z</time>
      </trkpt>
      <trkpt lat="44.50956" lon="5.58927">
        <ele>969</ele>
        <time>2022-06-09T20:53:04Z</time>
      </trkpt>
      <trkpt lat="44.50968" lon="5.58951">
        <ele>969</ele>
        <time>2022-06-09T20:53:09Z</time>
      </trkpt>
      <trkpt lat="44.50982" lon="5.58972">
        <ele>972</ele>
        <time>2022-06-09T20:53:14Z</time>
      </trkpt>
      <trkpt lat="44.51022" lon="5.59018">
        <ele>972</ele>
        <time>2022-06-09T20:53:26Z</time>
      </trkpt>
      <trkpt lat="44.51044" lon="5.59047">
        <ele>968</ele>
        <time>2022-06-09T20:53:33Z</time>
      </trkpt>
      <trkpt lat="44.51047" lon="5.59053">
        <ele>968</ele>
        <time>2022-06-09T20:53:34Z</time>
      </trkpt>
      <trkpt lat="44.51047" lon="5.5906">
        <ele>968</ele>
        <time>2022-06-09T20:53:35Z</time>
      </trkpt>
      <trkpt lat="44.5106" lon="5.59082">
        <ele>970</ele>
        <time>2022-06-09T20:53:40Z</time>
      </trkpt>
      <trkpt lat="44.51068" lon="5.59103">
        <ele>968</ele>
        <time>2022-06-09T20:53:44Z</time>
      </trkpt>
      <trkpt lat="44.51083" lon="5.59125">
        <ele>967</ele>
        <time>2022-06-09T20:53:49Z</time>
      </trkpt>
      <trkpt lat="44.51092" lon="5.59133">
        <ele>965</ele>
        <time>2022-06-09T20:53:51Z</time>
      </trkpt>
      <trkpt lat="44.5111" lon="5.5916">
        <ele>963</ele>
        <time>2022-06-09T20:53:58Z</time>
      </trkpt>
      <trkpt lat="44.51121" lon="5.59172">
        <ele>963</ele>
        <time>2022-06-09T20:54:01Z</time>
      </trkpt>
      <trkpt lat="44.51132" lon="5.59207">
        <ele>965</ele>
        <time>2022-06-09T20:54:07Z</time>
      </trkpt>
      <trkpt lat="44.5114" lon="5.5922">
        <ele>967</ele>
        <time>2022-06-09T20:54:10Z</time>
      </trkpt>
      <trkpt lat="44.51142" lon="5.59234">
        <ele>969</ele>
        <time>2022-06-09T20:54:12Z</time>
      </trkpt>
      <trkpt lat="44.51146" lon="5.59243">
        <ele>971</ele>
        <time>2022-06-09T20:54:14Z</time>
      </trkpt>
      <trkpt lat="44.5115" lon="5.59248">
        <ele>973</ele>
        <time>2022-06-09T20:54:15Z</time>
      </trkpt>
      <trkpt lat="44.5116" lon="5.59251">
        <ele>977</ele>
        <time>2022-06-09T20:54:18Z</time>
      </trkpt>
      <trkpt lat="44.51168" lon="5.5925">
        <ele>979</ele>
        <time>2022-06-09T20:54:20Z</time>
      </trkpt>
      <trkpt lat="44.51172" lon="5.59253">
        <ele>980</ele>
        <time>2022-06-09T20:54:21Z</time>
      </trkpt>
      <trkpt lat="44.51181" lon="5.59252">
        <ele>980</ele>
        <time>2022-06-09T20:54:23Z</time>
      </trkpt>
      <trkpt lat="44.51209" lon="5.59258">
        <ele>983</ele>
        <time>2022-06-09T20:54:29Z</time>
      </trkpt>
      <trkpt lat="44.51227" lon="5.59268">
        <ele>986</ele>
        <time>2022-06-09T20:54:34Z</time>
      </trkpt>
      <trkpt lat="44.51236" lon="5.59288">
        <ele>992</ele>
        <time>2022-06-09T20:54:38Z</time>
      </trkpt>
      <trkpt lat="44.51255" lon="5.593">
        <ele>997</ele>
        <time>2022-06-09T20:54:43Z</time>
      </trkpt>
      <trkpt lat="44.51263" lon="5.59303">
        <ele>998</ele>
        <time>2022-06-09T20:54:45Z</time>
      </trkpt>
      <trkpt lat="44.51266" lon="5.59299">
        <ele>996</ele>
        <time>2022-06-09T20:54:46Z</time>
      </trkpt>
      <trkpt lat="44.51275" lon="5.59298">
        <ele>995</ele>
        <time>2022-06-09T20:54:48Z</time>
      </trkpt>
      <trkpt lat="44.51303" lon="5.5932">
        <ele>1002</ele>
        <time>2022-06-09T20:54:55Z</time>
      </trkpt>
      <trkpt lat="44.51326" lon="5.59329">
        <ele>1004</ele>
        <time>2022-06-09T20:55:01Z</time>
      </trkpt>
      <trkpt lat="44.51338" lon="5.59336">
        <ele>1006</ele>
        <time>2022-06-09T20:55:04Z</time>
      </trkpt>
      <trkpt lat="44.51344" lon="5.59343">
        <ele>1006</ele>
        <time>2022-06-09T20:55:06Z</time>
      </trkpt>
      <trkpt lat="44.51348" lon="5.5934">
        <ele>1004</ele>
        <time>2022-06-09T20:55:07Z</time>
      </trkpt>
      <trkpt lat="44.51354" lon="5.59341">
        <ele>1003</ele>
        <time>2022-06-09T20:55:08Z</time>
      </trkpt>
      <trkpt lat="44.51363" lon="5.5935">
        <ele>1003</ele>
        <time>2022-06-09T20:55:11Z</time>
      </trkpt>
      <trkpt lat="44.51376" lon="5.59356">
        <ele>1002</ele>
        <time>2022-06-09T20:55:14Z</time>
      </trkpt>
      <trkpt lat="44.51395" lon="5.5938">
        <ele>1005</ele>
        <time>2022-06-09T20:55:20Z</time>
      </trkpt>
      <trkpt lat="44.51401" lon="5.59394">
        <ele>1008</ele>
        <time>2022-06-09T20:55:23Z</time>
      </trkpt>
      <trkpt lat="44.51406" lon="5.59413">
        <ele>1014</ele>
        <time>2022-06-09T20:55:26Z</time>
      </trkpt>
      <trkpt lat="44.51405" lon="5.59434">
        <ele>1017</ele>
        <time>2022-06-09T20:55:30Z</time>
      </trkpt>
      <trkpt lat="44.5141" lon="5.59453">
        <ele>1019</ele>
        <time>2022-06-09T20:55:33Z</time>
      </trkpt>
      <trkpt lat="44.51408" lon="5.59463">
        <ele>1021</ele>
        <time>2022-06-09T20:55:35Z</time>
      </trkpt>
      <trkpt lat="44.5141" lon="5.59476">
        <ele>1023</ele>
        <time>2022-06-09T20:55:37Z</time>
      </trkpt>
      <trkpt lat="44.51423" lon="5.59508">
        <ele>1024</ele>
        <time>2022-06-09T20:55:43Z</time>
      </trkpt>
      <trkpt lat="44.5143" lon="5.59541">
        <ele>1028</ele>
        <time>2022-06-09T20:55:49Z</time>
      </trkpt>
      <trkpt lat="44.51439" lon="5.59556">
        <ele>1028</ele>
        <time>2022-06-09T20:55:52Z</time>
      </trkpt>
      <trkpt lat="44.51439" lon="5.59561">
        <ele>1029</ele>
        <time>2022-06-09T20:55:53Z</time>
      </trkpt>
      <trkpt lat="44.51446" lon="5.59568">
        <ele>1028</ele>
        <time>2022-06-09T20:55:55Z</time>
      </trkpt>
      <trkpt lat="44.51448" lon="5.59579">
        <ele>1030</ele>
        <time>2022-06-09T20:55:57Z</time>
      </trkpt>
      <trkpt lat="44.51454" lon="5.5959">
        <ele>1031</ele>
        <time>2022-06-09T20:55:59Z</time>
      </trkpt>
      <trkpt lat="44.51491" lon="5.59622">
        <ele>1032</ele>
        <time>2022-06-09T20:56:09Z</time>
      </trkpt>
      <trkpt lat="44.51502" lon="5.59627">
        <ele>1031</ele>
        <time>2022-06-09T20:56:12Z</time>
      </trkpt>
      <trkpt lat="44.51515" lon="5.59644">
        <ele>1035</ele>
        <time>2022-06-09T20:56:16Z</time>
      </trkpt>
      <trkpt lat="44.51533" lon="5.59658">
        <ele>1038</ele>
        <time>2022-06-09T20:56:21Z</time>
      </trkpt>
      <trkpt lat="44.51535" lon="5.59664">
        <ele>1039</ele>
        <time>2022-06-09T20:56:22Z</time>
      </trkpt>
      <trkpt lat="44.51543" lon="5.59665">
        <ele>1039</ele>
        <time>2022-06-09T20:56:24Z</time>
      </trkpt>
      <trkpt lat="44.5156" lon="5.5968">
        <ele>1041</ele>
        <time>2022-06-09T20:56:28Z</time>
      </trkpt>
      <trkpt lat="44.51567" lon="5.5969">
        <ele>1044</ele>
        <time>2022-06-09T20:56:31Z</time>
      </trkpt>
      <trkpt lat="44.51575" lon="5.59695">
        <ele>1045</ele>
        <time>2022-06-09T20:56:33Z</time>
      </trkpt>
      <trkpt lat="44.5159" lon="5.59698">
        <ele>1043</ele>
        <time>2022-06-09T20:56:36Z</time>
      </trkpt>
      <trkpt lat="44.51596" lon="5.59709">
        <ele>1046</ele>
        <time>2022-06-09T20:56:39Z</time>
      </trkpt>
      <trkpt lat="44.51632" lon="5.59746">
        <ele>1048</ele>
        <time>2022-06-09T20:56:49Z</time>
      </trkpt>
      <trkpt lat="44.51634" lon="5.59749">
        <ele>1048</ele>
        <time>2022-06-09T20:56:50Z</time>
      </trkpt>
      <trkpt lat="44.51634" lon="5.59759">
        <ele>1051</ele>
        <time>2022-06-09T20:56:51Z</time>
      </trkpt>
      <trkpt lat="44.5164" lon="5.59769">
        <ele>1051</ele>
        <time>2022-06-09T20:56:54Z</time>
      </trkpt>
      <trkpt lat="44.51647" lon="5.5979">
        <ele>1054</ele>
        <time>2022-06-09T20:56:58Z</time>
      </trkpt>
      <trkpt lat="44.5165" lon="5.59821">
        <ele>1060</ele>
        <time>2022-06-09T20:57:03Z</time>
      </trkpt>
      <trkpt lat="44.51654" lon="5.59833">
        <ele>1062</ele>
        <time>2022-06-09T20:57:05Z</time>
      </trkpt>
      <trkpt lat="44.51658" lon="5.5986">
        <ele>1068</ele>
        <time>2022-06-09T20:57:10Z</time>
      </trkpt>
      <trkpt lat="44.51667" lon="5.5988">
        <ele>1072</ele>
        <time>2022-06-09T20:57:13Z</time>
      </trkpt>
      <trkpt lat="44.51693" lon="5.599">
        <ele>1071</ele>
        <time>2022-06-09T20:57:20Z</time>
      </trkpt>
      <trkpt lat="44.51699" lon="5.59902">
        <ele>1070</ele>
        <time>2022-06-09T20:57:22Z</time>
      </trkpt>
      <trkpt lat="44.51726" lon="5.59931">
        <ele>1072</ele>
        <time>2022-06-09T20:57:30Z</time>
      </trkpt>
      <trkpt lat="44.51763" lon="5.59965">
        <ele>1076</ele>
        <time>2022-06-09T20:57:40Z</time>
      </trkpt>
      <trkpt lat="44.51773" lon="5.59969">
        <ele>1075</ele>
        <time>2022-06-09T20:57:43Z</time>
      </trkpt>
      <trkpt lat="44.5179" lon="5.59985">
        <ele>1078</ele>
        <time>2022-06-09T20:57:47Z</time>
      </trkpt>
      <trkpt lat="44.518" lon="5.59987">
        <ele>1077</ele>
        <time>2022-06-09T20:57:50Z</time>
      </trkpt>
      <trkpt lat="44.51818" lon="5.60002">
        <ele>1080</ele>
        <time>2022-06-09T20:57:55Z</time>
      </trkpt>
      <trkpt lat="44.51832" lon="5.6001">
        <ele>1080</ele>
        <time>2022-06-09T20:57:58Z</time>
      </trkpt>
      <trkpt lat="44.51831" lon="5.60014">
        <ele>1082</ele>
        <time>2022-06-09T20:57:59Z</time>
      </trkpt>
      <trkpt lat="44.51828" lon="5.60015">
        <ele>1083</ele>
        <time>2022-06-09T20:58:00Z</time>
      </trkpt>
      <trkpt lat="44.51809" lon="5.60014">
        <ele>1086</ele>
        <time>2022-06-09T20:58:04Z</time>
      </trkpt>
      <trkpt lat="44.51804" lon="5.60016">
        <ele>1088</ele>
        <time>2022-06-09T20:58:05Z</time>
      </trkpt>
      <trkpt lat="44.51798" lon="5.60012">
        <ele>1087</ele>
        <time>2022-06-09T20:58:07Z</time>
      </trkpt>
      <trkpt lat="44.51793" lon="5.60013">
        <ele>1088</ele>
        <time>2022-06-09T20:58:08Z</time>
      </trkpt>
      <trkpt lat="44.51785" lon="5.60009">
        <ele>1088</ele>
        <time>2022-06-09T20:58:10Z</time>
      </trkpt>
      <trkpt lat="44.51772" lon="5.60008">
        <ele>1090</ele>
        <time>2022-06-09T20:58:13Z</time>
      </trkpt>
      <trkpt lat="44.51764" lon="5.60003">
        <ele>1090</ele>
        <time>2022-06-09T20:58:15Z</time>
      </trkpt>
      <trkpt lat="44.51757" lon="5.60004">
        <ele>1091</ele>
        <time>2022-06-09T20:58:17Z</time>
      </trkpt>
      <trkpt lat="44.51747" lon="5.60003">
        <ele>1093</ele>
        <time>2022-06-09T20:58:19Z</time>
      </trkpt>
      <trkpt lat="44.51743" lon="5.6">
        <ele>1092</ele>
        <time>2022-06-09T20:58:20Z</time>
      </trkpt>
      <trkpt lat="44.51737" lon="5.60001">
        <ele>1094</ele>
        <time>2022-06-09T20:58:21Z</time>
      </trkpt>
      <trkpt lat="44.51715" lon="5.59992">
        <ele>1095</ele>
        <time>2022-06-09T20:58:27Z</time>
      </trkpt>
      <trkpt lat="44.51702" lon="5.59991">
        <ele>1097</ele>
        <time>2022-06-09T20:58:30Z</time>
      </trkpt>
      <trkpt lat="44.51696" lon="5.59986">
        <ele>1096</ele>
        <time>2022-06-09T20:58:31Z</time>
      </trkpt>
      <trkpt lat="44.51648" lon="5.59976">
        <ele>1100</ele>
        <time>2022-06-09T20:58:43Z</time>
      </trkpt>
      <trkpt lat="44.51639" lon="5.59975">
        <ele>1100</ele>
        <time>2022-06-09T20:58:45Z</time>
      </trkpt>
      <trkpt lat="44.51638" lon="5.59979">
        <ele>1101</ele>
        <time>2022-06-09T20:58:46Z</time>
      </trkpt>
      <trkpt lat="44.51634" lon="5.59976">
        <ele>1100</ele>
        <time>2022-06-09T20:58:47Z</time>
      </trkpt>
      <trkpt lat="44.51617" lon="5.59975">
        <ele>1100</ele>
        <time>2022-06-09T20:58:51Z</time>
      </trkpt>
      <trkpt lat="44.51602" lon="5.59978">
        <ele>1101</ele>
        <time>2022-06-09T20:58:54Z</time>
      </trkpt>
      <trkpt lat="44.51591" lon="5.59983">
        <ele>1102</ele>
        <time>2022-06-09T20:58:57Z</time>
      </trkpt>
      <trkpt lat="44.51591" lon="5.59993">
        <ele>1103</ele>
        <time>2022-06-09T20:58:59Z</time>
      </trkpt>
      <trkpt lat="44.51603" lon="5.60013">
        <ele>1106</ele>
        <time>2022-06-09T20:59:03Z</time>
      </trkpt>
      <trkpt lat="44.51619" lon="5.60034">
        <ele>1110</ele>
        <time>2022-06-09T20:59:08Z</time>
      </trkpt>
      <trkpt lat="44.51626" lon="5.60038">
        <ele>1111</ele>
        <time>2022-06-09T20:59:10Z</time>
      </trkpt>
      <trkpt lat="44.51639" lon="5.60064">
        <ele>1117</ele>
        <time>2022-06-09T20:59:15Z</time>
      </trkpt>
      <trkpt lat="44.51659" lon="5.60089">
        <ele>1123</ele>
        <time>2022-06-09T20:59:21Z</time>
      </trkpt>
      <trkpt lat="44.51661" lon="5.60097">
        <ele>1124</ele>
        <time>2022-06-09T20:59:23Z</time>
      </trkpt>
      <trkpt lat="44.51678" lon="5.60114">
        <ele>1126</ele>
        <time>2022-06-09T20:59:28Z</time>
      </trkpt>
      <trkpt lat="44.51696" lon="5.60139">
        <ele>1130</ele>
        <time>2022-06-09T20:59:34Z</time>
      </trkpt>
      <trkpt lat="44.51723" lon="5.60166">
        <ele>1136</ele>
        <time>2022-06-09T20:59:41Z</time>
      </trkpt>
      <trkpt lat="44.51736" lon="5.60169">
        <ele>1137</ele>
        <time>2022-06-09T20:59:44Z</time>
      </trkpt>
      <trkpt lat="44.5174" lon="5.60159">
        <ele>1137</ele>
        <time>2022-06-09T20:59:46Z</time>
      </trkpt>
      <trkpt lat="44.51745" lon="5.60158">
        <ele>1137</ele>
        <time>2022-06-09T20:59:47Z</time>
      </trkpt>
      <trkpt lat="44.51775" lon="5.6017">
        <ele>1139</ele>
        <time>2022-06-09T20:59:55Z</time>
      </trkpt>
      <trkpt lat="44.51787" lon="5.6017">
        <ele>1139</ele>
        <time>2022-06-09T20:59:58Z</time>
      </trkpt>
      <trkpt lat="44.51796" lon="5.60174">
        <ele>1139</ele>
        <time>2022-06-09T21:00:00Z</time>
      </trkpt>
      <trkpt lat="44.51805" lon="5.60183">
        <ele>1138</ele>
        <time>2022-06-09T21:00:02Z</time>
      </trkpt>
      <trkpt lat="44.51826" lon="5.6019">
        <ele>1139</ele>
        <time>2022-06-09T21:00:07Z</time>
      </trkpt>
      <trkpt lat="44.51848" lon="5.60194">
        <ele>1139</ele>
        <time>2022-06-09T21:00:13Z</time>
      </trkpt>
      <trkpt lat="44.51852" lon="5.60198">
        <ele>1139</ele>
        <time>2022-06-09T21:00:14Z</time>
      </trkpt>
      <trkpt lat="44.51864" lon="5.60203">
        <ele>1139</ele>
        <time>2022-06-09T21:00:17Z</time>
      </trkpt>
      <trkpt lat="44.51876" lon="5.60215">
        <ele>1140</ele>
        <time>2022-06-09T21:00:20Z</time>
      </trkpt>
      <trkpt lat="44.51885" lon="5.60216">
        <ele>1141</ele>
        <time>2022-06-09T21:00:22Z</time>
      </trkpt>
      <trkpt lat="44.519" lon="5.60222">
        <ele>1143</ele>
        <time>2022-06-09T21:00:26Z</time>
      </trkpt>
      <trkpt lat="44.5191" lon="5.60222">
        <ele>1144</ele>
        <time>2022-06-09T21:00:28Z</time>
      </trkpt>
      <trkpt lat="44.51925" lon="5.6023">
        <ele>1146</ele>
        <time>2022-06-09T21:00:32Z</time>
      </trkpt>
      <trkpt lat="44.51934" lon="5.6024">
        <ele>1149</ele>
        <time>2022-06-09T21:00:35Z</time>
      </trkpt>
      <trkpt lat="44.51961" lon="5.60248">
        <ele>1153</ele>
        <time>2022-06-09T21:00:41Z</time>
      </trkpt>
      <trkpt lat="44.51972" lon="5.60258">
        <ele>1153</ele>
        <time>2022-06-09T21:00:44Z</time>
      </trkpt>
      <trkpt lat="44.51994" lon="5.60268">
        <ele>1155</ele>
        <time>2022-06-09T21:00:49Z</time>
      </trkpt>
      <trkpt lat="44.52001" lon="5.60276">
        <ele>1155</ele>
        <time>2022-06-09T21:00:52Z</time>
      </trkpt>
      <trkpt lat="44.52009" lon="5.60281">
        <ele>1155</ele>
        <time>2022-06-09T21:00:54Z</time>
      </trkpt>
      <trkpt lat="44.52013" lon="5.60281">
        <ele>1155</ele>
        <time>2022-06-09T21:00:55Z</time>
      </trkpt>
      <trkpt lat="44.52021" lon="5.60289">
        <ele>1155</ele>
        <time>2022-06-09T21:00:57Z</time>
      </trkpt>
      <trkpt lat="44.52045" lon="5.60298">
        <ele>1158</ele>
        <time>2022-06-09T21:01:03Z</time>
      </trkpt>
      <trkpt lat="44.52063" lon="5.60316">
        <ele>1162</ele>
        <time>2022-06-09T21:01:08Z</time>
      </trkpt>
      <trkpt lat="44.52092" lon="5.60337">
        <ele>1168</ele>
        <time>2022-06-09T21:01:15Z</time>
      </trkpt>
      <trkpt lat="44.52112" lon="5.60347">
        <ele>1168</ele>
        <time>2022-06-09T21:01:20Z</time>
      </trkpt>
      <trkpt lat="44.52122" lon="5.60349">
        <ele>1168</ele>
        <time>2022-06-09T21:01:23Z</time>
      </trkpt>
      <trkpt lat="44.52171" lon="5.60377">
        <ele>1173</ele>
        <time>2022-06-09T21:01:35Z</time>
      </trkpt>
      <trkpt lat="44.52192" lon="5.60382">
        <ele>1175</ele>
        <time>2022-06-09T21:01:40Z</time>
      </trkpt>
      <trkpt lat="44.52202" lon="5.6039">
        <ele>1177</ele>
        <time>2022-06-09T21:01:43Z</time>
      </trkpt>
      <trkpt lat="44.52221" lon="5.60388">
        <ele>1179</ele>
        <time>2022-06-09T21:01:47Z</time>
      </trkpt>
      <trkpt lat="44.52246" lon="5.60379">
        <ele>1181</ele>
        <time>2022-06-09T21:01:53Z</time>
      </trkpt>
      <trkpt lat="44.52255" lon="5.60373">
        <ele>1180</ele>
        <time>2022-06-09T21:01:56Z</time>
      </trkpt>
      <trkpt lat="44.5227" lon="5.60373">
        <ele>1178</ele>
        <time>2022-06-09T21:01:59Z</time>
      </trkpt>
      <trkpt lat="44.52274" lon="5.60368">
        <ele>1177</ele>
        <time>2022-06-09T21:02:00Z</time>
      </trkpt>
      <trkpt lat="44.52285" lon="5.60365">
        <ele>1175</ele>
        <time>2022-06-09T21:02:03Z</time>
      </trkpt>
      <trkpt lat="44.52308" lon="5.60386">
        <ele>1176</ele>
        <time>2022-06-09T21:02:09Z</time>
      </trkpt>
      <trkpt lat="44.52331" lon="5.60414">
        <ele>1180</ele>
        <time>2022-06-09T21:02:16Z</time>
      </trkpt>
      <trkpt lat="44.52358" lon="5.6044">
        <ele>1175</ele>
        <time>2022-06-09T21:02:24Z</time>
      </trkpt>
      <trkpt lat="44.52372" lon="5.60447">
        <ele>1174</ele>
        <time>2022-06-09T21:02:28Z</time>
      </trkpt>
      <trkpt lat="44.52391" lon="5.60448">
        <ele>1173</ele>
        <time>2022-06-09T21:02:32Z</time>
      </trkpt>
      <trkpt lat="44.52394" lon="5.60451">
        <ele>1173</ele>
        <time>2022-06-09T21:02:33Z</time>
      </trkpt>
      <trkpt lat="44.52411" lon="5.60454">
        <ele>1172</ele>
        <time>2022-06-09T21:02:37Z</time>
      </trkpt>
      <trkpt lat="44.52421" lon="5.6045">
        <ele>1172</ele>
        <time>2022-06-09T21:02:39Z</time>
      </trkpt>
      <trkpt lat="44.52435" lon="5.60449">
        <ele>1172</ele>
        <time>2022-06-09T21:02:43Z</time>
      </trkpt>
      <trkpt lat="44.52459" lon="5.60467">
        <ele>1174</ele>
        <time>2022-06-09T21:02:49Z</time>
      </trkpt>
      <trkpt lat="44.52476" lon="5.6049">
        <ele>1179</ele>
        <time>2022-06-09T21:02:54Z</time>
      </trkpt>
      <trkpt lat="44.52484" lon="5.60493">
        <ele>1181</ele>
        <time>2022-06-09T21:02:56Z</time>
      </trkpt>
      <trkpt lat="44.52499" lon="5.60491">
        <ele>1182</ele>
        <time>2022-06-09T21:03:00Z</time>
      </trkpt>
      <trkpt lat="44.52501" lon="5.60496">
        <ele>1183</ele>
        <time>2022-06-09T21:03:01Z</time>
      </trkpt>
      <trkpt lat="44.52498" lon="5.60511">
        <ele>1184</ele>
        <time>2022-06-09T21:03:03Z</time>
      </trkpt>
      <trkpt lat="44.525" lon="5.60563">
        <ele>1187</ele>
        <time>2022-06-09T21:03:12Z</time>
      </trkpt>
      <trkpt lat="44.52511" lon="5.60584">
        <ele>1191</ele>
        <time>2022-06-09T21:03:16Z</time>
      </trkpt>
      <trkpt lat="44.52515" lon="5.60598">
        <ele>1191</ele>
        <time>2022-06-09T21:03:19Z</time>
      </trkpt>
      <trkpt lat="44.52514" lon="5.60653">
        <ele>1188</ele>
        <time>2022-06-09T21:03:28Z</time>
      </trkpt>
      <trkpt lat="44.52517" lon="5.60673">
        <ele>1187</ele>
        <time>2022-06-09T21:03:32Z</time>
      </trkpt>
      <trkpt lat="44.52523" lon="5.60684">
        <ele>1188</ele>
        <time>2022-06-09T21:03:34Z</time>
      </trkpt>
      <trkpt lat="44.52536" lon="5.60691">
        <ele>1190</ele>
        <time>2022-06-09T21:03:37Z</time>
      </trkpt>
      <trkpt lat="44.52562" lon="5.60717">
        <ele>1195</ele>
        <time>2022-06-09T21:03:45Z</time>
      </trkpt>
      <trkpt lat="44.52577" lon="5.6074">
        <ele>1198</ele>
        <time>2022-06-09T21:03:50Z</time>
      </trkpt>
      <trkpt lat="44.52584" lon="5.60762">
        <ele>1196</ele>
        <time>2022-06-09T21:03:54Z</time>
      </trkpt>
      <trkpt lat="44.5259" lon="5.60766">
        <ele>1197</ele>
        <time>2022-06-09T21:03:55Z</time>
      </trkpt>
      <trkpt lat="44.52601" lon="5.60783">
        <ele>1197</ele>
        <time>2022-06-09T21:03:59Z</time>
      </trkpt>
      <trkpt lat="44.5263" lon="5.60807">
        <ele>1201</ele>
        <time>2022-06-09T21:04:07Z</time>
      </trkpt>
      <trkpt lat="44.52633" lon="5.60813">
        <ele>1201</ele>
        <time>2022-06-09T21:04:08Z</time>
      </trkpt>
      <trkpt lat="44.52635" lon="5.60845">
        <ele>1196</ele>
        <time>2022-06-09T21:04:14Z</time>
      </trkpt>
      <trkpt lat="44.52652" lon="5.60876">
        <ele>1198</ele>
        <time>2022-06-09T21:04:20Z</time>
      </trkpt>
      <trkpt lat="44.52673" lon="5.60895">
        <ele>1202</ele>
        <time>2022-06-09T21:04:26Z</time>
      </trkpt>
      <trkpt lat="44.52678" lon="5.60903">
        <ele>1203</ele>
        <time>2022-06-09T21:04:28Z</time>
      </trkpt>
      <trkpt lat="44.52685" lon="5.60919">
        <ele>1203</ele>
        <time>2022-06-09T21:04:31Z</time>
      </trkpt>
      <trkpt lat="44.52696" lon="5.60958">
        <ele>1202</ele>
        <time>2022-06-09T21:04:38Z</time>
      </trkpt>
      <trkpt lat="44.52704" lon="5.60975">
        <ele>1203</ele>
        <time>2022-06-09T21:04:41Z</time>
      </trkpt>
      <trkpt lat="44.52703" lon="5.60995">
        <ele>1200</ele>
        <time>2022-06-09T21:04:45Z</time>
      </trkpt>
      <trkpt lat="44.52711" lon="5.61006">
        <ele>1202</ele>
        <time>2022-06-09T21:04:47Z</time>
      </trkpt>
      <trkpt lat="44.52724" lon="5.61036">
        <ele>1205</ele>
        <time>2022-06-09T21:04:53Z</time>
      </trkpt>
      <trkpt lat="44.52727" lon="5.61059">
        <ele>1204</ele>
        <time>2022-06-09T21:04:57Z</time>
      </trkpt>
      <trkpt lat="44.52725" lon="5.61098">
        <ele>1204</ele>
        <time>2022-06-09T21:05:03Z</time>
      </trkpt>
      <trkpt lat="44.52733" lon="5.61132">
        <ele>1209</ele>
        <time>2022-06-09T21:05:09Z</time>
      </trkpt>
      <trkpt lat="44.5273" lon="5.61143">
        <ele>1210</ele>
        <time>2022-06-09T21:05:11Z</time>
      </trkpt>
      <trkpt lat="44.52717" lon="5.61153">
        <ele>1209</ele>
        <time>2022-06-09T21:05:15Z</time>
      </trkpt>
      <trkpt lat="44.52704" lon="5.61172">
        <ele>1210</ele>
        <time>2022-06-09T21:05:19Z</time>
      </trkpt>
      <trkpt lat="44.52696" lon="5.61171">
        <ele>1209</ele>
        <time>2022-06-09T21:05:21Z</time>
      </trkpt>
      <trkpt lat="44.5269" lon="5.61173">
        <ele>1209</ele>
        <time>2022-06-09T21:05:22Z</time>
      </trkpt>
      <trkpt lat="44.52673" lon="5.61194">
        <ele>1212</ele>
        <time>2022-06-09T21:05:28Z</time>
      </trkpt>
      <trkpt lat="44.52654" lon="5.61197">
        <ele>1212</ele>
        <time>2022-06-09T21:05:32Z</time>
      </trkpt>
      <trkpt lat="44.52651" lon="5.61195">
        <ele>1211</ele>
        <time>2022-06-09T21:05:33Z</time>
      </trkpt>
      <trkpt lat="44.52642" lon="5.61201">
        <ele>1212</ele>
        <time>2022-06-09T21:05:35Z</time>
      </trkpt>
      <trkpt lat="44.5264" lon="5.61211">
        <ele>1214</ele>
        <time>2022-06-09T21:05:37Z</time>
      </trkpt>
      <trkpt lat="44.52634" lon="5.61218">
        <ele>1215</ele>
        <time>2022-06-09T21:05:39Z</time>
      </trkpt>
      <trkpt lat="44.52619" lon="5.61263">
        <ele>1220</ele>
        <time>2022-06-09T21:05:47Z</time>
      </trkpt>
      <trkpt lat="44.52597" lon="5.61298">
        <ele>1220</ele>
        <time>2022-06-09T21:05:55Z</time>
      </trkpt>
      <trkpt lat="44.52587" lon="5.61323">
        <ele>1221</ele>
        <time>2022-06-09T21:06:00Z</time>
      </trkpt>
      <trkpt lat="44.52569" lon="5.61349">
        <ele>1220</ele>
        <time>2022-06-09T21:06:06Z</time>
      </trkpt>
      <trkpt lat="44.52561" lon="5.61369">
        <ele>1220</ele>
        <time>2022-06-09T21:06:10Z</time>
      </trkpt>
      <trkpt lat="44.5256" lon="5.61375">
        <ele>1220</ele>
        <time>2022-06-09T21:06:11Z</time>
      </trkpt>
      <trkpt lat="44.52562" lon="5.61374">
        <ele>1220</ele>
        <time>2022-06-09T21:06:11Z</time>
      </trkpt>
      <trkpt lat="44.52562" lon="5.61372">
        <ele>1220</ele>
        <time>2022-06-09T21:06:11Z</time>
      </trkpt>
      <trkpt lat="44.52556" lon="5.61395">
        <ele>1221</ele>
        <time>2022-06-09T21:06:15Z</time>
      </trkpt>
      <trkpt lat="44.52559" lon="5.61429">
        <ele>1224</ele>
        <time>2022-06-09T21:06:21Z</time>
      </trkpt>
      <trkpt lat="44.52556" lon="5.61451">
        <ele>1227</ele>
        <time>2022-06-09T21:06:25Z</time>
      </trkpt>
      <trkpt lat="44.52558" lon="5.61468">
        <ele>1229</ele>
        <time>2022-06-09T21:06:28Z</time>
      </trkpt>
      <trkpt lat="44.52553" lon="5.61479">
        <ele>1230</ele>
        <time>2022-06-09T21:06:30Z</time>
      </trkpt>
      <trkpt lat="44.5255" lon="5.61498">
        <ele>1232</ele>
        <time>2022-06-09T21:06:33Z</time>
      </trkpt>
      <trkpt lat="44.52556" lon="5.61509">
        <ele>1235</ele>
        <time>2022-06-09T21:06:35Z</time>
      </trkpt>
      <trkpt lat="44.52559" lon="5.61511">
        <ele>1235</ele>
        <time>2022-06-09T21:06:36Z</time>
      </trkpt>
      <trkpt lat="44.52563" lon="5.61508">
        <ele>1236</ele>
        <time>2022-06-09T21:06:37Z</time>
      </trkpt>
      <trkpt lat="44.52589" lon="5.61473">
        <ele>1235</ele>
        <time>2022-06-09T21:06:46Z</time>
      </trkpt>
      <trkpt lat="44.52608" lon="5.6144">
        <ele>1236</ele>
        <time>2022-06-09T21:06:53Z</time>
      </trkpt>
      <trkpt lat="44.52615" lon="5.61433">
        <ele>1237</ele>
        <time>2022-06-09T21:06:55Z</time>
      </trkpt>
      <trkpt lat="44.52642" lon="5.61414">
        <ele>1241</ele>
        <time>2022-06-09T21:07:02Z</time>
      </trkpt>
      <trkpt lat="44.52681" lon="5.61372">
        <ele>1246</ele>
        <time>2022-06-09T21:07:13Z</time>
      </trkpt>
      <trkpt lat="44.52693" lon="5.61367">
        <ele>1249</ele>
        <time>2022-06-09T21:07:16Z</time>
      </trkpt>
      <trkpt lat="44.52703" lon="5.61357">
        <ele>1250</ele>
        <time>2022-06-09T21:07:19Z</time>
      </trkpt>
      <trkpt lat="44.5272" lon="5.61353">
        <ele>1253</ele>
        <time>2022-06-09T21:07:23Z</time>
      </trkpt>
      <trkpt lat="44.52727" lon="5.61348">
        <ele>1254</ele>
        <time>2022-06-09T21:07:25Z</time>
      </trkpt>
      <trkpt lat="44.52738" lon="5.61345">
        <ele>1256</ele>
        <time>2022-06-09T21:07:28Z</time>
      </trkpt>
      <trkpt lat="44.5276" lon="5.61316">
        <ele>1254</ele>
        <time>2022-06-09T21:07:35Z</time>
      </trkpt>
      <trkpt lat="44.52763" lon="5.61308">
        <ele>1252</ele>
        <time>2022-06-09T21:07:36Z</time>
      </trkpt>
      <trkpt lat="44.52766" lon="5.61305">
        <ele>1252</ele>
        <time>2022-06-09T21:07:37Z</time>
      </trkpt>
      <trkpt lat="44.52771" lon="5.61306">
        <ele>1253</ele>
        <time>2022-06-09T21:07:38Z</time>
      </trkpt>
      <trkpt lat="44.52771" lon="5.61311">
        <ele>1254</ele>
        <time>2022-06-09T21:07:39Z</time>
      </trkpt>
      <trkpt lat="44.52764" lon="5.61318">
        <ele>1255</ele>
        <time>2022-06-09T21:07:41Z</time>
      </trkpt>
      <trkpt lat="44.5276" lon="5.61327">
        <ele>1257</ele>
        <time>2022-06-09T21:07:43Z</time>
      </trkpt>
      <trkpt lat="44.52756" lon="5.61349">
        <ele>1261</ele>
        <time>2022-06-09T21:07:47Z</time>
      </trkpt>
      <trkpt lat="44.52755" lon="5.61381">
        <ele>1268</ele>
        <time>2022-06-09T21:07:52Z</time>
      </trkpt>
      <trkpt lat="44.52745" lon="5.614">
        <ele>1269</ele>
        <time>2022-06-09T21:07:56Z</time>
      </trkpt>
      <trkpt lat="44.52733" lon="5.61439">
        <ele>1274</ele>
        <time>2022-06-09T21:08:03Z</time>
      </trkpt>
      <trkpt lat="44.52723" lon="5.61458">
        <ele>1274</ele>
        <time>2022-06-09T21:08:07Z</time>
      </trkpt>
      <trkpt lat="44.52708" lon="5.61525">
        <ele>1283</ele>
        <time>2022-06-09T21:08:19Z</time>
      </trkpt>
      <trkpt lat="44.52702" lon="5.61535">
        <ele>1283</ele>
        <time>2022-06-09T21:08:21Z</time>
      </trkpt>
      <trkpt lat="44.52684" lon="5.61588">
        <ele>1288</ele>
        <time>2022-06-09T21:08:31Z</time>
      </trkpt>
      <trkpt lat="44.52663" lon="5.61621">
        <ele>1289</ele>
        <time>2022-06-09T21:08:38Z</time>
      </trkpt>
      <trkpt lat="44.52651" lon="5.61649">
        <ele>1292</ele>
        <time>2022-06-09T21:08:43Z</time>
      </trkpt>
      <trkpt lat="44.52649" lon="5.61665">
        <ele>1295</ele>
        <time>2022-06-09T21:08:46Z</time>
      </trkpt>
      <trkpt lat="44.52645" lon="5.61673">
        <ele>1295</ele>
        <time>2022-06-09T21:08:48Z</time>
      </trkpt>
      <trkpt lat="44.52643" lon="5.61685">
        <ele>1297</ele>
        <time>2022-06-09T21:08:50Z</time>
      </trkpt>
      <trkpt lat="44.52643" lon="5.61723">
        <ele>1302</ele>
        <time>2022-06-09T21:08:56Z</time>
      </trkpt>
      <trkpt lat="44.52646" lon="5.61746">
        <ele>1307</ele>
        <time>2022-06-09T21:09:00Z</time>
      </trkpt>
      <trkpt lat="44.52637" lon="5.61785">
        <ele>1308</ele>
        <time>2022-06-09T21:09:07Z</time>
      </trkpt>
      <trkpt lat="44.52635" lon="5.61837">
        <ele>1311</ele>
        <time>2022-06-09T21:09:15Z</time>
      </trkpt>
      <trkpt lat="44.52642" lon="5.61854">
        <ele>1312</ele>
        <time>2022-06-09T21:09:19Z</time>
      </trkpt>
      <trkpt lat="44.52657" lon="5.61869">
        <ele>1316</ele>
        <time>2022-06-09T21:09:23Z</time>
      </trkpt>
      <trkpt lat="44.52672" lon="5.619">
        <ele>1319</ele>
        <time>2022-06-09T21:09:29Z</time>
      </trkpt>
      <trkpt lat="44.5271" lon="5.6196">
        <ele>1330</ele>
        <time>2022-06-09T21:09:43Z</time>
      </trkpt>
      <trkpt lat="44.52725" lon="5.62013">
        <ele>1329</ele>
        <time>2022-06-09T21:09:52Z</time>
      </trkpt>
      <trkpt lat="44.52724" lon="5.62037">
        <ele>1324</ele>
        <time>2022-06-09T21:09:56Z</time>
      </trkpt>
      <trkpt lat="44.52726" lon="5.62049">
        <ele>1323</ele>
        <time>2022-06-09T21:09:58Z</time>
      </trkpt>
      <trkpt lat="44.52744" lon="5.62082">
        <ele>1332</ele>
        <time>2022-06-09T21:10:05Z</time>
      </trkpt>
      <trkpt lat="44.52754" lon="5.6214">
        <ele>1324</ele>
        <time>2022-06-09T21:10:15Z</time>
      </trkpt>
      <trkpt lat="44.52771" lon="5.62184">
        <ele>1325</ele>
        <time>2022-06-09T21:10:23Z</time>
      </trkpt>
      <trkpt lat="44.52779" lon="5.62255">
        <ele>1315</ele>
        <time>2022-06-09T21:10:35Z</time>
      </trkpt>
      <trkpt lat="44.52788" lon="5.62267">
        <ele>1319</ele>
        <time>2022-06-09T21:10:38Z</time>
      </trkpt>
      <trkpt lat="44.52793" lon="5.62267">
        <ele>1322</ele>
        <time>2022-06-09T21:10:39Z</time>
      </trkpt>
      <trkpt lat="44.52805" lon="5.62275">
        <ele>1328</ele>
        <time>2022-06-09T21:10:42Z</time>
      </trkpt>
      <trkpt lat="44.52832" lon="5.62305">
        <ele>1337</ele>
        <time>2022-06-09T21:10:50Z</time>
      </trkpt>
      <trkpt lat="44.52837" lon="5.62319">
        <ele>1337</ele>
        <time>2022-06-09T21:10:53Z</time>
      </trkpt>
      <trkpt lat="44.52837" lon="5.62347">
        <ele>1335</ele>
        <time>2022-06-09T21:10:58Z</time>
      </trkpt>
      <trkpt lat="44.52845" lon="5.62362">
        <ele>1338</ele>
        <time>2022-06-09T21:11:01Z</time>
      </trkpt>
      <trkpt lat="44.52844" lon="5.62365">
        <ele>1338</ele>
        <time>2022-06-09T21:11:01Z</time>
      </trkpt>
      <trkpt lat="44.52843" lon="5.62358">
        <ele>1337</ele>
        <time>2022-06-09T21:11:03Z</time>
      </trkpt>
      <trkpt lat="44.52845" lon="5.62366">
        <ele>1338</ele>
        <time>2022-06-09T21:11:04Z</time>
      </trkpt>
      <trkpt lat="44.52845" lon="5.62351">
        <ele>1338</ele>
        <time>2022-06-09T21:11:07Z</time>
      </trkpt>
      <trkpt lat="44.52842" lon="5.62347">
        <ele>1336</ele>
        <time>2022-06-09T21:11:07Z</time>
      </trkpt>
      <trkpt lat="44.52826" lon="5.62341">
        <ele>1330</ele>
        <time>2022-06-09T21:11:11Z</time>
      </trkpt>
      <trkpt lat="44.52803" lon="5.62326">
        <ele>1321</ele>
        <time>2022-06-09T21:11:17Z</time>
      </trkpt>
      <trkpt lat="44.52799" lon="5.62325">
        <ele>1320</ele>
        <time>2022-06-09T21:11:18Z</time>
      </trkpt>
      <trkpt lat="44.52793" lon="5.62328">
        <ele>1317</ele>
        <time>2022-06-09T21:11:20Z</time>
      </trkpt>
      <trkpt lat="44.5279" lon="5.62325">
        <ele>1316</ele>
        <time>2022-06-09T21:11:21Z</time>
      </trkpt>
      <trkpt lat="44.52786" lon="5.62334">
        <ele>1314</ele>
        <time>2022-06-09T21:11:22Z</time>
      </trkpt>
      <trkpt lat="44.52751" lon="5.62353">
        <ele>1311</ele>
        <time>2022-06-09T21:11:31Z</time>
      </trkpt>
      <trkpt lat="44.52741" lon="5.62355">
        <ele>1310</ele>
        <time>2022-06-09T21:11:33Z</time>
      </trkpt>
      <trkpt lat="44.52721" lon="5.62353">
        <ele>1306</ele>
        <time>2022-06-09T21:11:38Z</time>
      </trkpt>
      <trkpt lat="44.52711" lon="5.62349">
        <ele>1302</ele>
        <time>2022-06-09T21:11:41Z</time>
      </trkpt>
      <trkpt lat="44.52692" lon="5.62355">
        <ele>1301</ele>
        <time>2022-06-09T21:11:45Z</time>
      </trkpt>
      <trkpt lat="44.52685" lon="5.62364">
        <ele>1304</ele>
        <time>2022-06-09T21:11:47Z</time>
      </trkpt>
      <trkpt lat="44.52681" lon="5.62364">
        <ele>1303</ele>
        <time>2022-06-09T21:11:48Z</time>
      </trkpt>
      <trkpt lat="44.52679" lon="5.62361">
        <ele>1301</ele>
        <time>2022-06-09T21:11:49Z</time>
      </trkpt>
      <trkpt lat="44.52651" lon="5.6237">
        <ele>1297</ele>
        <time>2022-06-09T21:11:56Z</time>
      </trkpt>
      <trkpt lat="44.52646" lon="5.62375">
        <ele>1297</ele>
        <time>2022-06-09T21:11:57Z</time>
      </trkpt>
      <trkpt lat="44.52625" lon="5.62384">
        <ele>1291</ele>
        <time>2022-06-09T21:12:02Z</time>
      </trkpt>
      <trkpt lat="44.5259" lon="5.62409">
        <ele>1285</ele>
        <time>2022-06-09T21:12:11Z</time>
      </trkpt>
      <trkpt lat="44.5258" lon="5.62419">
        <ele>1284</ele>
        <time>2022-06-09T21:12:14Z</time>
      </trkpt>
      <trkpt lat="44.52548" lon="5.62436">
        <ele>1274</ele>
        <time>2022-06-09T21:12:22Z</time>
      </trkpt>
      <trkpt lat="44.52543" lon="5.62436">
        <ele>1272</ele>
        <time>2022-06-09T21:12:23Z</time>
      </trkpt>
      <trkpt lat="44.52533" lon="5.62431">
        <ele>1266</ele>
        <time>2022-06-09T21:12:26Z</time>
      </trkpt>
      <trkpt lat="44.52502" lon="5.62426">
        <ele>1252</ele>
        <time>2022-06-09T21:12:33Z</time>
      </trkpt>
      <trkpt lat="44.52475" lon="5.6241">
        <ele>1239</ele>
        <time>2022-06-09T21:12:40Z</time>
      </trkpt>
      <trkpt lat="44.5245" lon="5.62407">
        <ele>1231</ele>
        <time>2022-06-09T21:12:46Z</time>
      </trkpt>
      <trkpt lat="44.52422" lon="5.62395">
        <ele>1220</ele>
        <time>2022-06-09T21:12:53Z</time>
      </trkpt>
      <trkpt lat="44.5241" lon="5.62393">
        <ele>1218</ele>
        <time>2022-06-09T21:12:56Z</time>
      </trkpt>
      <trkpt lat="44.52413" lon="5.62397">
        <ele>1219</ele>
        <time>2022-06-09T21:12:57Z</time>
      </trkpt>
      <trkpt lat="44.52395" lon="5.62393">
        <ele>1216</ele>
        <time>2022-06-09T21:13:01Z</time>
      </trkpt>
      <trkpt lat="44.52384" lon="5.62395">
        <ele>1215</ele>
        <time>2022-06-09T21:13:03Z</time>
      </trkpt>
      <trkpt lat="44.52381" lon="5.62398">
        <ele>1215</ele>
        <time>2022-06-09T21:13:04Z</time>
      </trkpt>
      <trkpt lat="44.52381" lon="5.62407">
        <ele>1216</ele>
        <time>2022-06-09T21:13:06Z</time>
      </trkpt>
      <trkpt lat="44.52381" lon="5.62405">
        <ele>1215</ele>
        <time>2022-06-09T21:13:06Z</time>
      </trkpt>
      <trkpt lat="44.52384" lon="5.62405">
        <ele>1216</ele>
        <time>2022-06-09T21:13:07Z</time>
      </trkpt>
      <trkpt lat="44.52385" lon="5.62389">
        <ele>1215</ele>
        <time>2022-06-09T21:13:09Z</time>
      </trkpt>
      <trkpt lat="44.52383" lon="5.62385">
        <ele>1214</ele>
        <time>2022-06-09T21:13:10Z</time>
      </trkpt>
      <trkpt lat="44.52366" lon="5.62373">
        <ele>1212</ele>
        <time>2022-06-09T21:13:15Z</time>
      </trkpt>
      <trkpt lat="44.52349" lon="5.62356">
        <ele>1210</ele>
        <time>2022-06-09T21:13:20Z</time>
      </trkpt>
      <trkpt lat="44.52345" lon="5.62358">
        <ele>1210</ele>
        <time>2022-06-09T21:13:21Z</time>
      </trkpt>
      <trkpt lat="44.52343" lon="5.62364">
        <ele>1210</ele>
        <time>2022-06-09T21:13:22Z</time>
      </trkpt>
      <trkpt lat="44.52336" lon="5.62368">
        <ele>1210</ele>
        <time>2022-06-09T21:13:23Z</time>
      </trkpt>
      <trkpt lat="44.52327" lon="5.62367">
        <ele>1209</ele>
        <time>2022-06-09T21:13:26Z</time>
      </trkpt>
      <trkpt lat="44.5232" lon="5.62363">
        <ele>1208</ele>
        <time>2022-06-09T21:13:27Z</time>
      </trkpt>
      <trkpt lat="44.52308" lon="5.6235">
        <ele>1207</ele>
        <time>2022-06-09T21:13:31Z</time>
      </trkpt>
      <trkpt lat="44.52297" lon="5.62331">
        <ele>1207</ele>
        <time>2022-06-09T21:13:35Z</time>
      </trkpt>
      <trkpt lat="44.52275" lon="5.62309">
        <ele>1203</ele>
        <time>2022-06-09T21:13:41Z</time>
      </trkpt>
      <trkpt lat="44.52236" lon="5.62276">
        <ele>1198</ele>
        <time>2022-06-09T21:13:52Z</time>
      </trkpt>
      <trkpt lat="44.52207" lon="5.62261">
        <ele>1196</ele>
        <time>2022-06-09T21:13:59Z</time>
      </trkpt>
      <trkpt lat="44.52173" lon="5.62229">
        <ele>1192</ele>
        <time>2022-06-09T21:14:09Z</time>
      </trkpt>
      <trkpt lat="44.52138" lon="5.6219">
        <ele>1186</ele>
        <time>2022-06-09T21:14:19Z</time>
      </trkpt>
      <trkpt lat="44.52089" lon="5.62146">
        <ele>1181</ele>
        <time>2022-06-09T21:14:33Z</time>
      </trkpt>
      <trkpt lat="44.52071" lon="5.62134">
        <ele>1178</ele>
        <time>2022-06-09T21:14:37Z</time>
      </trkpt>
      <trkpt lat="44.52048" lon="5.62127">
        <ele>1174</ele>
        <time>2022-06-09T21:14:43Z</time>
      </trkpt>
      <trkpt lat="44.51965" lon="5.62118">
        <ele>1163</ele>
        <time>2022-06-09T21:15:02Z</time>
      </trkpt>
      <trkpt lat="44.51926" lon="5.62108">
        <ele>1159</ele>
        <time>2022-06-09T21:15:12Z</time>
      </trkpt>
      <trkpt lat="44.51888" lon="5.62113">
        <ele>1153</ele>
        <time>2022-06-09T21:15:20Z</time>
      </trkpt>
      <trkpt lat="44.5187" lon="5.62111">
        <ele>1151</ele>
        <time>2022-06-09T21:15:25Z</time>
      </trkpt>
      <trkpt lat="44.51844" lon="5.62099">
        <ele>1150</ele>
        <time>2022-06-09T21:15:31Z</time>
      </trkpt>
      <trkpt lat="44.51832" lon="5.62089">
        <ele>1151</ele>
        <time>2022-06-09T21:15:34Z</time>
      </trkpt>
      <trkpt lat="44.51824" lon="5.62079">
        <ele>1151</ele>
        <time>2022-06-09T21:15:37Z</time>
      </trkpt>
      <trkpt lat="44.51812" lon="5.62054">
        <ele>1150</ele>
        <time>2022-06-09T21:15:42Z</time>
      </trkpt>
      <trkpt lat="44.51774" lon="5.62072">
        <ele>1138</ele>
        <time>2022-06-09T21:15:51Z</time>
      </trkpt>
      <trkpt lat="44.51758" lon="5.62067">
        <ele>1135</ele>
        <time>2022-06-09T21:15:55Z</time>
      </trkpt>
      <trkpt lat="44.51732" lon="5.62036">
        <ele>1133</ele>
        <time>2022-06-09T21:16:03Z</time>
      </trkpt>
      <trkpt lat="44.51688" lon="5.61951">
        <ele>1124</ele>
        <time>2022-06-09T21:16:20Z</time>
      </trkpt>
      <trkpt lat="44.51677" lon="5.61941">
        <ele>1122</ele>
        <time>2022-06-09T21:16:24Z</time>
      </trkpt>
      <trkpt lat="44.51666" lon="5.61922">
        <ele>1121</ele>
        <time>2022-06-09T21:16:28Z</time>
      </trkpt>
      <trkpt lat="44.51656" lon="5.6187">
        <ele>1116</ele>
        <time>2022-06-09T21:16:37Z</time>
      </trkpt>
      <trkpt lat="44.51638" lon="5.61816">
        <ele>1106</ele>
        <time>2022-06-09T21:16:47Z</time>
      </trkpt>
      <trkpt lat="44.51627" lon="5.61796">
        <ele>1101</ele>
        <time>2022-06-09T21:16:51Z</time>
      </trkpt>
      <trkpt lat="44.51618" lon="5.61773">
        <ele>1097</ele>
        <time>2022-06-09T21:16:55Z</time>
      </trkpt>
      <trkpt lat="44.51611" lon="5.61732">
        <ele>1088</ele>
        <time>2022-06-09T21:17:02Z</time>
      </trkpt>
      <trkpt lat="44.51607" lon="5.6173">
        <ele>1087</ele>
        <time>2022-06-09T21:17:03Z</time>
      </trkpt>
      <trkpt lat="44.516" lon="5.61733">
        <ele>1088</ele>
        <time>2022-06-09T21:17:05Z</time>
      </trkpt>
      <trkpt lat="44.51593" lon="5.61732">
        <ele>1087</ele>
        <time>2022-06-09T21:17:06Z</time>
      </trkpt>
      <trkpt lat="44.51561" lon="5.61698">
        <ele>1075</ele>
        <time>2022-06-09T21:17:16Z</time>
      </trkpt>
      <trkpt lat="44.51521" lon="5.61643">
        <ele>1060</ele>
        <time>2022-06-09T21:17:29Z</time>
      </trkpt>
      <trkpt lat="44.51514" lon="5.61619">
        <ele>1056</ele>
        <time>2022-06-09T21:17:33Z</time>
      </trkpt>
      <trkpt lat="44.51494" lon="5.61568">
        <ele>1050</ele>
        <time>2022-06-09T21:17:43Z</time>
      </trkpt>
      <trkpt lat="44.51473" lon="5.61498">
        <ele>1042</ele>
        <time>2022-06-09T21:17:56Z</time>
      </trkpt>
      <trkpt lat="44.51462" lon="5.61475">
        <ele>1042</ele>
        <time>2022-06-09T21:18:00Z</time>
      </trkpt>
      <trkpt lat="44.51455" lon="5.61437">
        <ele>1045</ele>
        <time>2022-06-09T21:18:07Z</time>
      </trkpt>
      <trkpt lat="44.51439" lon="5.61409">
        <ele>1050</ele>
        <time>2022-06-09T21:18:13Z</time>
      </trkpt>
      <trkpt lat="44.51434" lon="5.61384">
        <ele>1054</ele>
        <time>2022-06-09T21:18:17Z</time>
      </trkpt>
      <trkpt lat="44.5142" lon="5.61352">
        <ele>1062</ele>
        <time>2022-06-09T21:18:23Z</time>
      </trkpt>
      <trkpt lat="44.514" lon="5.61328">
        <ele>1060</ele>
        <time>2022-06-09T21:18:29Z</time>
      </trkpt>
      <trkpt lat="44.51394" lon="5.61312">
        <ele>1060</ele>
        <time>2022-06-09T21:18:32Z</time>
      </trkpt>
      <trkpt lat="44.5139" lon="5.61285">
        <ele>1061</ele>
        <time>2022-06-09T21:18:37Z</time>
      </trkpt>
      <trkpt lat="44.51368" lon="5.61247">
        <ele>1059</ele>
        <time>2022-06-09T21:18:45Z</time>
      </trkpt>
      <trkpt lat="44.51363" lon="5.61225">
        <ele>1059</ele>
        <time>2022-06-09T21:18:49Z</time>
      </trkpt>
      <trkpt lat="44.51356" lon="5.61209">
        <ele>1059</ele>
        <time>2022-06-09T21:18:52Z</time>
      </trkpt>
      <trkpt lat="44.51354" lon="5.61159">
        <ele>1061</ele>
        <time>2022-06-09T21:19:00Z</time>
      </trkpt>
      <trkpt lat="44.51347" lon="5.61129">
        <ele>1058</ele>
        <time>2022-06-09T21:19:06Z</time>
      </trkpt>
      <trkpt lat="44.51348" lon="5.61099">
        <ele>1056</ele>
        <time>2022-06-09T21:19:11Z</time>
      </trkpt>
      <trkpt lat="44.51341" lon="5.61069">
        <ele>1052</ele>
        <time>2022-06-09T21:19:16Z</time>
      </trkpt>
      <trkpt lat="44.51341" lon="5.61057">
        <ele>1050</ele>
        <time>2022-06-09T21:19:18Z</time>
      </trkpt>
      <trkpt lat="44.51332" lon="5.61034">
        <ele>1047</ele>
        <time>2022-06-09T21:19:22Z</time>
      </trkpt>
      <trkpt lat="44.51318" lon="5.61009">
        <ele>1037</ele>
        <time>2022-06-09T21:19:28Z</time>
      </trkpt>
      <trkpt lat="44.51284" lon="5.60923">
        <ele>1023</ele>
        <time>2022-06-09T21:19:44Z</time>
      </trkpt>
      <trkpt lat="44.51267" lon="5.60903">
        <ele>1022</ele>
        <time>2022-06-09T21:19:49Z</time>
      </trkpt>
      <trkpt lat="44.51248" lon="5.60862">
        <ele>1022</ele>
        <time>2022-06-09T21:19:57Z</time>
      </trkpt>
      <trkpt lat="44.51235" lon="5.60843">
        <ele>1016</ele>
        <time>2022-06-09T21:20:02Z</time>
      </trkpt>
      <trkpt lat="44.51222" lon="5.60809">
        <ele>1007</ele>
        <time>2022-06-09T21:20:08Z</time>
      </trkpt>
      <trkpt lat="44.5122" lon="5.60792">
        <ele>1005</ele>
        <time>2022-06-09T21:20:11Z</time>
      </trkpt>
      <trkpt lat="44.51191" lon="5.60741">
        <ele>990</ele>
        <time>2022-06-09T21:20:22Z</time>
      </trkpt>
      <trkpt lat="44.5118" lon="5.6069">
        <ele>985</ele>
        <time>2022-06-09T21:20:31Z</time>
      </trkpt>
      <trkpt lat="44.51163" lon="5.60649">
        <ele>979</ele>
        <time>2022-06-09T21:20:39Z</time>
      </trkpt>
      <trkpt lat="44.51152" lon="5.60612">
        <ele>970</ele>
        <time>2022-06-09T21:20:45Z</time>
      </trkpt>
      <trkpt lat="44.51141" lon="5.60585">
        <ele>964</ele>
        <time>2022-06-09T21:20:51Z</time>
      </trkpt>
      <trkpt lat="44.51121" lon="5.60551">
        <ele>955</ele>
        <time>2022-06-09T21:20:58Z</time>
      </trkpt>
      <trkpt lat="44.51093" lon="5.60493">
        <ele>951</ele>
        <time>2022-06-09T21:21:10Z</time>
      </trkpt>
      <trkpt lat="44.5109" lon="5.60482">
        <ele>949</ele>
        <time>2022-06-09T21:21:11Z</time>
      </trkpt>
      <trkpt lat="44.51072" lon="5.60449">
        <ele>939</ele>
        <time>2022-06-09T21:21:18Z</time>
      </trkpt>
      <trkpt lat="44.51047" lon="5.6039">
        <ele>924</ele>
        <time>2022-06-09T21:21:30Z</time>
      </trkpt>
      <trkpt lat="44.5103" lon="5.60344">
        <ele>921</ele>
        <time>2022-06-09T21:21:38Z</time>
      </trkpt>
      <trkpt lat="44.51009" lon="5.60273">
        <ele>919</ele>
        <time>2022-06-09T21:21:51Z</time>
      </trkpt>
      <trkpt lat="44.50998" lon="5.60257">
        <ele>919</ele>
        <time>2022-06-09T21:21:55Z</time>
      </trkpt>
      <trkpt lat="44.50971" lon="5.60206">
        <ele>905</ele>
        <time>2022-06-09T21:22:06Z</time>
      </trkpt>
      <trkpt lat="44.50942" lon="5.60164">
        <ele>899</ele>
        <time>2022-06-09T21:22:15Z</time>
      </trkpt>
      <trkpt lat="44.50936" lon="5.60151">
        <ele>897</ele>
        <time>2022-06-09T21:22:18Z</time>
      </trkpt>
      <trkpt lat="44.50927" lon="5.60128">
        <ele>896</ele>
        <time>2022-06-09T21:22:22Z</time>
      </trkpt>
      <trkpt lat="44.50903" lon="5.60038">
        <ele>884</ele>
        <time>2022-06-09T21:22:38Z</time>
      </trkpt>
      <trkpt lat="44.50885" lon="5.6">
        <ele>877</ele>
        <time>2022-06-09T21:22:46Z</time>
      </trkpt>
      <trkpt lat="44.50887" lon="5.59997">
        <ele>877</ele>
        <time>2022-06-09T21:22:47Z</time>
      </trkpt>
      <trkpt lat="44.50859" lon="5.5995">
        <ele>871</ele>
        <time>2022-06-09T21:22:57Z</time>
      </trkpt>
      <trkpt lat="44.5084" lon="5.59908">
        <ele>868</ele>
        <time>2022-06-09T21:23:05Z</time>
      </trkpt>
      <trkpt lat="44.50834" lon="5.59859">
        <ele>869</ele>
        <time>2022-06-09T21:23:13Z</time>
      </trkpt>
      <trkpt lat="44.50829" lon="5.59837">
        <ele>869</ele>
        <time>2022-06-09T21:23:17Z</time>
      </trkpt>
      <trkpt lat="44.50824" lon="5.59831">
        <ele>868</ele>
        <time>2022-06-09T21:23:19Z</time>
      </trkpt>
      <trkpt lat="44.50817" lon="5.59831">
        <ele>866</ele>
        <time>2022-06-09T21:23:20Z</time>
      </trkpt>
      <trkpt lat="44.50809" lon="5.59837">
        <ele>863</ele>
        <time>2022-06-09T21:23:22Z</time>
      </trkpt>
      <trkpt lat="44.50806" lon="5.59852">
        <ele>862</ele>
        <time>2022-06-09T21:23:25Z</time>
      </trkpt>
      <trkpt lat="44.50813" lon="5.59919">
        <ele>862</ele>
        <time>2022-06-09T21:23:36Z</time>
      </trkpt>
      <trkpt lat="44.50808" lon="5.59931">
        <ele>860</ele>
        <time>2022-06-09T21:23:39Z</time>
      </trkpt>
      <trkpt lat="44.50807" lon="5.59951">
        <ele>860</ele>
        <time>2022-06-09T21:23:42Z</time>
      </trkpt>
      <trkpt lat="44.50813" lon="5.59961">
        <ele>861</ele>
        <time>2022-06-09T21:23:44Z</time>
      </trkpt>
      <trkpt lat="44.50816" lon="5.59974">
        <ele>861</ele>
        <time>2022-06-09T21:23:46Z</time>
      </trkpt>
      <trkpt lat="44.50845" lon="5.60025">
        <ele>866</ele>
        <time>2022-06-09T21:23:57Z</time>
      </trkpt>
      <trkpt lat="44.50853" lon="5.60108">
        <ele>868</ele>
        <time>2022-06-09T21:24:11Z</time>
      </trkpt>
      <trkpt lat="44.50863" lon="5.60133">
        <ele>872</ele>
        <time>2022-06-09T21:24:16Z</time>
      </trkpt>
      <trkpt lat="44.50868" lon="5.60153">
        <ele>874</ele>
        <time>2022-06-09T21:24:20Z</time>
      </trkpt>
      <trkpt lat="44.50867" lon="5.60158">
        <ele>874</ele>
        <time>2022-06-09T21:24:20Z</time>
      </trkpt>
      <trkpt lat="44.50905" lon="5.6026">
        <ele>882</ele>
        <time>2022-06-09T21:24:40Z</time>
      </trkpt>
      <trkpt lat="44.5091" lon="5.60289">
        <ele>879</ele>
        <time>2022-06-09T21:24:45Z</time>
      </trkpt>
      <trkpt lat="44.50926" lon="5.60339">
        <ele>878</ele>
        <time>2022-06-09T21:24:54Z</time>
      </trkpt>
      <trkpt lat="44.50941" lon="5.60432">
        <ele>878</ele>
        <time>2022-06-09T21:25:10Z</time>
      </trkpt>
      <trkpt lat="44.50953" lon="5.60475">
        <ele>883</ele>
        <time>2022-06-09T21:25:17Z</time>
      </trkpt>
      <trkpt lat="44.50959" lon="5.60513">
        <ele>883</ele>
        <time>2022-06-09T21:25:24Z</time>
      </trkpt>
      <trkpt lat="44.50961" lon="5.60578">
        <ele>879</ele>
        <time>2022-06-09T21:25:35Z</time>
      </trkpt>
      <trkpt lat="44.50965" lon="5.60597">
        <ele>880</ele>
        <time>2022-06-09T21:25:38Z</time>
      </trkpt>
      <trkpt lat="44.50965" lon="5.60634">
        <ele>878</ele>
        <time>2022-06-09T21:25:44Z</time>
      </trkpt>
      <trkpt lat="44.50978" lon="5.60666">
        <ele>880</ele>
        <time>2022-06-09T21:25:50Z</time>
      </trkpt>
      <trkpt lat="44.50981" lon="5.6068">
        <ele>881</ele>
        <time>2022-06-09T21:25:53Z</time>
      </trkpt>
      <trkpt lat="44.50985" lon="5.60737">
        <ele>880</ele>
        <time>2022-06-09T21:26:02Z</time>
      </trkpt>
      <trkpt lat="44.50981" lon="5.60751">
        <ele>879</ele>
        <time>2022-06-09T21:26:05Z</time>
      </trkpt>
      <trkpt lat="44.50974" lon="5.60811">
        <ele>876</ele>
        <time>2022-06-09T21:26:15Z</time>
      </trkpt>
      <trkpt lat="44.50976" lon="5.60834">
        <ele>875</ele>
        <time>2022-06-09T21:26:19Z</time>
      </trkpt>
      <trkpt lat="44.50975" lon="5.60828">
        <ele>875</ele>
        <time>2022-06-09T21:26:20Z</time>
      </trkpt>
      <trkpt lat="44.50977" lon="5.60829">
        <ele>876</ele>
        <time>2022-06-09T21:26:20Z</time>
      </trkpt>
      <trkpt lat="44.50977" lon="5.60858">
        <ele>875</ele>
        <time>2022-06-09T21:26:25Z</time>
      </trkpt>
      <trkpt lat="44.50973" lon="5.60864">
        <ele>875</ele>
        <time>2022-06-09T21:26:26Z</time>
      </trkpt>
      <trkpt lat="44.50962" lon="5.60869">
        <ele>873</ele>
        <time>2022-06-09T21:26:29Z</time>
      </trkpt>
      <trkpt lat="44.50973" lon="5.6091">
        <ele>874</ele>
        <time>2022-06-09T21:26:36Z</time>
      </trkpt>
      <trkpt lat="44.50973" lon="5.60918">
        <ele>874</ele>
        <time>2022-06-09T21:26:38Z</time>
      </trkpt>
      <trkpt lat="44.50969" lon="5.60929">
        <ele>874</ele>
        <time>2022-06-09T21:26:40Z</time>
      </trkpt>
      <trkpt lat="44.50957" lon="5.60946">
        <ele>873</ele>
        <time>2022-06-09T21:26:44Z</time>
      </trkpt>
      <trkpt lat="44.50958" lon="5.60975">
        <ele>873</ele>
        <time>2022-06-09T21:26:49Z</time>
      </trkpt>
      <trkpt lat="44.50954" lon="5.6101">
        <ele>873</ele>
        <time>2022-06-09T21:26:54Z</time>
      </trkpt>
      <trkpt lat="44.50951" lon="5.6102">
        <ele>874</ele>
        <time>2022-06-09T21:26:56Z</time>
      </trkpt>
      <trkpt lat="44.50941" lon="5.61034">
        <ele>875</ele>
        <time>2022-06-09T21:27:00Z</time>
      </trkpt>
      <trkpt lat="44.50947" lon="5.6106">
        <ele>876</ele>
        <time>2022-06-09T21:27:04Z</time>
      </trkpt>
      <trkpt lat="44.50948" lon="5.61087">
        <ele>877</ele>
        <time>2022-06-09T21:27:09Z</time>
      </trkpt>
      <trkpt lat="44.50954" lon="5.61094">
        <ele>878</ele>
        <time>2022-06-09T21:27:10Z</time>
      </trkpt>
      <trkpt lat="44.5098" lon="5.61102">
        <ele>876</ele>
        <time>2022-06-09T21:27:17Z</time>
      </trkpt>
      <trkpt lat="44.5099" lon="5.6111">
        <ele>875</ele>
        <time>2022-06-09T21:27:19Z</time>
      </trkpt>
      <trkpt lat="44.50996" lon="5.61157">
        <ele>876</ele>
        <time>2022-06-09T21:27:27Z</time>
      </trkpt>
      <trkpt lat="44.50999" lon="5.61165">
        <ele>875</ele>
        <time>2022-06-09T21:27:29Z</time>
      </trkpt>
      <trkpt lat="44.51" lon="5.61199">
        <ele>877</ele>
        <time>2022-06-09T21:27:34Z</time>
      </trkpt>
      <trkpt lat="44.51011" lon="5.6123">
        <ele>880</ele>
        <time>2022-06-09T21:27:40Z</time>
      </trkpt>
      <trkpt lat="44.51015" lon="5.61249">
        <ele>881</ele>
        <time>2022-06-09T21:27:43Z</time>
      </trkpt>
      <trkpt lat="44.51009" lon="5.61267">
        <ele>881</ele>
        <time>2022-06-09T21:27:47Z</time>
      </trkpt>
      <trkpt lat="44.51019" lon="5.61287">
        <ele>882</ele>
        <time>2022-06-09T21:27:51Z</time>
      </trkpt>
      <trkpt lat="44.51006" lon="5.61326">
        <ele>883</ele>
        <time>2022-06-09T21:27:58Z</time>
      </trkpt>
      <trkpt lat="44.51005" lon="5.61344">
        <ele>883</ele>
        <time>2022-06-09T21:28:01Z</time>
      </trkpt>
      <trkpt lat="44.51009" lon="5.61354">
        <ele>884</ele>
        <time>2022-06-09T21:28:03Z</time>
      </trkpt>
      <trkpt lat="44.51017" lon="5.61362">
        <ele>884</ele>
        <time>2022-06-09T21:28:05Z</time>
      </trkpt>
      <trkpt lat="44.51029" lon="5.61385">
        <ele>885</ele>
        <time>2022-06-09T21:28:10Z</time>
      </trkpt>
      <trkpt lat="44.51058" lon="5.61407">
        <ele>885</ele>
        <time>2022-06-09T21:28:18Z</time>
      </trkpt>
      <trkpt lat="44.51077" lon="5.61431">
        <ele>886</ele>
        <time>2022-06-09T21:28:24Z</time>
      </trkpt>
      <trkpt lat="44.51087" lon="5.61461">
        <ele>888</ele>
        <time>2022-06-09T21:28:29Z</time>
      </trkpt>
      <trkpt lat="44.51089" lon="5.61487">
        <ele>890</ele>
        <time>2022-06-09T21:28:34Z</time>
      </trkpt>
      <trkpt lat="44.51087" lon="5.61516">
        <ele>893</ele>
        <time>2022-06-09T21:28:38Z</time>
      </trkpt>
      <trkpt lat="44.51091" lon="5.6152">
        <ele>894</ele>
        <time>2022-06-09T21:28:40Z</time>
      </trkpt>
      <trkpt lat="44.51095" lon="5.61519">
        <ele>894</ele>
        <time>2022-06-09T21:28:40Z</time>
      </trkpt>
      <trkpt lat="44.51104" lon="5.61533">
        <ele>897</ele>
        <time>2022-06-09T21:28:44Z</time>
      </trkpt>
      <trkpt lat="44.5111" lon="5.61556">
        <ele>899</ele>
        <time>2022-06-09T21:28:48Z</time>
      </trkpt>
      <trkpt lat="44.51115" lon="5.61597">
        <ele>903</ele>
        <time>2022-06-09T21:28:55Z</time>
      </trkpt>
      <trkpt lat="44.5113" lon="5.61629">
        <ele>904</ele>
        <time>2022-06-09T21:29:01Z</time>
      </trkpt>
      <trkpt lat="44.51147" lon="5.61682">
        <ele>906</ele>
        <time>2022-06-09T21:29:11Z</time>
      </trkpt>
      <trkpt lat="44.51152" lon="5.61708">
        <ele>907</ele>
        <time>2022-06-09T21:29:15Z</time>
      </trkpt>
      <trkpt lat="44.51165" lon="5.61736">
        <ele>906</ele>
        <time>2022-06-09T21:29:21Z</time>
      </trkpt>
      <trkpt lat="44.51165" lon="5.61756">
        <ele>907</ele>
        <time>2022-06-09T21:29:24Z</time>
      </trkpt>
      <trkpt lat="44.51152" lon="5.61772">
        <ele>912</ele>
        <time>2022-06-09T21:29:28Z</time>
      </trkpt>
      <trkpt lat="44.51148" lon="5.61786">
        <ele>915</ele>
        <time>2022-06-09T21:29:31Z</time>
      </trkpt>
      <trkpt lat="44.51155" lon="5.61805">
        <ele>914</ele>
        <time>2022-06-09T21:29:34Z</time>
      </trkpt>
      <trkpt lat="44.5116" lon="5.6183">
        <ele>915</ele>
        <time>2022-06-09T21:29:38Z</time>
      </trkpt>
      <trkpt lat="44.51157" lon="5.61855">
        <ele>917</ele>
        <time>2022-06-09T21:29:43Z</time>
      </trkpt>
      <trkpt lat="44.51168" lon="5.61901">
        <ele>915</ele>
        <time>2022-06-09T21:29:51Z</time>
      </trkpt>
      <trkpt lat="44.5118" lon="5.61977">
        <ele>917</ele>
        <time>2022-06-09T21:30:04Z</time>
      </trkpt>
      <trkpt lat="44.51176" lon="5.62001">
        <ele>918</ele>
        <time>2022-06-09T21:30:08Z</time>
      </trkpt>
      <trkpt lat="44.51171" lon="5.62013">
        <ele>919</ele>
        <time>2022-06-09T21:30:10Z</time>
      </trkpt>
      <trkpt lat="44.5117" lon="5.62079">
        <ele>921</ele>
        <time>2022-06-09T21:30:21Z</time>
      </trkpt>
      <trkpt lat="44.51168" lon="5.62092">
        <ele>922</ele>
        <time>2022-06-09T21:30:23Z</time>
      </trkpt>
      <trkpt lat="44.51172" lon="5.62112">
        <ele>923</ele>
        <time>2022-06-09T21:30:27Z</time>
      </trkpt>
      <trkpt lat="44.51178" lon="5.62122">
        <ele>923</ele>
        <time>2022-06-09T21:30:29Z</time>
      </trkpt>
      <trkpt lat="44.51187" lon="5.62124">
        <ele>921</ele>
        <time>2022-06-09T21:30:31Z</time>
      </trkpt>
      <trkpt lat="44.51202" lon="5.62149">
        <ele>921</ele>
        <time>2022-06-09T21:30:37Z</time>
      </trkpt>
      <trkpt lat="44.51211" lon="5.62155">
        <ele>919</ele>
        <time>2022-06-09T21:30:39Z</time>
      </trkpt>
      <trkpt lat="44.51218" lon="5.62156">
        <ele>918</ele>
        <time>2022-06-09T21:30:41Z</time>
      </trkpt>
      <trkpt lat="44.51227" lon="5.62161">
        <ele>917</ele>
        <time>2022-06-09T21:30:43Z</time>
      </trkpt>
      <trkpt lat="44.51232" lon="5.6216">
        <ele>916</ele>
        <time>2022-06-09T21:30:44Z</time>
      </trkpt>
      <trkpt lat="44.51226" lon="5.62169">
        <ele>917</ele>
        <time>2022-06-09T21:30:46Z</time>
      </trkpt>
      <trkpt lat="44.51229" lon="5.62182">
        <ele>918</ele>
        <time>2022-06-09T21:30:48Z</time>
      </trkpt>
      <trkpt lat="44.51234" lon="5.62185">
        <ele>917</ele>
        <time>2022-06-09T21:30:50Z</time>
      </trkpt>
      <trkpt lat="44.51258" lon="5.62183">
        <ele>915</ele>
        <time>2022-06-09T21:30:55Z</time>
      </trkpt>
      <trkpt lat="44.51281" lon="5.62194">
        <ele>918</ele>
        <time>2022-06-09T21:31:01Z</time>
      </trkpt>
      <trkpt lat="44.51284" lon="5.62202">
        <ele>918</ele>
        <time>2022-06-09T21:31:02Z</time>
      </trkpt>
      <trkpt lat="44.51285" lon="5.62216">
        <ele>919</ele>
        <time>2022-06-09T21:31:05Z</time>
      </trkpt>
      <trkpt lat="44.51291" lon="5.62227">
        <ele>920</ele>
        <time>2022-06-09T21:31:07Z</time>
      </trkpt>
      <trkpt lat="44.5129" lon="5.6225">
        <ele>920</ele>
        <time>2022-06-09T21:31:11Z</time>
      </trkpt>
      <trkpt lat="44.51293" lon="5.62268">
        <ele>921</ele>
        <time>2022-06-09T21:31:14Z</time>
      </trkpt>
      <trkpt lat="44.51282" lon="5.62317">
        <ele>923</ele>
        <time>2022-06-09T21:31:23Z</time>
      </trkpt>
      <trkpt lat="44.51278" lon="5.62351">
        <ele>925</ele>
        <time>2022-06-09T21:31:28Z</time>
      </trkpt>
      <trkpt lat="44.51267" lon="5.62403">
        <ele>928</ele>
        <time>2022-06-09T21:31:37Z</time>
      </trkpt>
      <trkpt lat="44.5126" lon="5.62493">
        <ele>934</ele>
        <time>2022-06-09T21:31:52Z</time>
      </trkpt>
      <trkpt lat="44.5125" lon="5.62531">
        <ele>933</ele>
        <time>2022-06-09T21:31:59Z</time>
      </trkpt>
      <trkpt lat="44.51239" lon="5.62553">
        <ele>935</ele>
        <time>2022-06-09T21:32:04Z</time>
      </trkpt>
      <trkpt lat="44.51231" lon="5.62587">
        <ele>937</ele>
        <time>2022-06-09T21:32:10Z</time>
      </trkpt>
      <trkpt lat="44.51218" lon="5.62609">
        <ele>939</ele>
        <time>2022-06-09T21:32:14Z</time>
      </trkpt>
      <trkpt lat="44.51202" lon="5.6262">
        <ele>940</ele>
        <time>2022-06-09T21:32:18Z</time>
      </trkpt>
      <trkpt lat="44.51195" lon="5.62633">
        <ele>941</ele>
        <time>2022-06-09T21:32:21Z</time>
      </trkpt>
      <trkpt lat="44.51191" lon="5.62665">
        <ele>942</ele>
        <time>2022-06-09T21:32:27Z</time>
      </trkpt>
      <trkpt lat="44.51178" lon="5.62715">
        <ele>946</ele>
        <time>2022-06-09T21:32:35Z</time>
      </trkpt>
      <trkpt lat="44.51178" lon="5.62732">
        <ele>948</ele>
        <time>2022-06-09T21:32:38Z</time>
      </trkpt>
      <trkpt lat="44.51181" lon="5.62742">
        <ele>949</ele>
        <time>2022-06-09T21:32:40Z</time>
      </trkpt>
      <trkpt lat="44.51187" lon="5.62748">
        <ele>950</ele>
        <time>2022-06-09T21:32:42Z</time>
      </trkpt>
      <trkpt lat="44.51176" lon="5.62788">
        <ele>951</ele>
        <time>2022-06-09T21:32:49Z</time>
      </trkpt>
      <trkpt lat="44.51172" lon="5.62839">
        <ele>952</ele>
        <time>2022-06-09T21:32:57Z</time>
      </trkpt>
      <trkpt lat="44.51162" lon="5.62874">
        <ele>955</ele>
        <time>2022-06-09T21:33:04Z</time>
      </trkpt>
      <trkpt lat="44.51163" lon="5.62891">
        <ele>956</ele>
        <time>2022-06-09T21:33:07Z</time>
      </trkpt>
      <trkpt lat="44.51158" lon="5.62897">
        <ele>958</ele>
        <time>2022-06-09T21:33:08Z</time>
      </trkpt>
      <trkpt lat="44.51163" lon="5.62943">
        <ele>959</ele>
        <time>2022-06-09T21:33:16Z</time>
      </trkpt>
      <trkpt lat="44.5116" lon="5.62948">
        <ele>960</ele>
        <time>2022-06-09T21:33:17Z</time>
      </trkpt>
      <trkpt lat="44.51155" lon="5.6295">
        <ele>961</ele>
        <time>2022-06-09T21:33:18Z</time>
      </trkpt>
      <trkpt lat="44.5115" lon="5.62961">
        <ele>963</ele>
        <time>2022-06-09T21:33:20Z</time>
      </trkpt>
      <trkpt lat="44.51142" lon="5.62964">
        <ele>965</ele>
        <time>2022-06-09T21:33:22Z</time>
      </trkpt>
      <trkpt lat="44.51133" lon="5.62972">
        <ele>967</ele>
        <time>2022-06-09T21:33:25Z</time>
      </trkpt>
      <trkpt lat="44.51136" lon="5.62961">
        <ele>966</ele>
        <time>2022-06-09T21:33:27Z</time>
      </trkpt>
      <trkpt lat="44.51133" lon="5.62972">
        <ele>967</ele>
        <time>2022-06-09T21:33:29Z</time>
      </trkpt>
      <trkpt lat="44.51133" lon="5.62988">
        <ele>966</ele>
        <time>2022-06-09T21:33:31Z</time>
      </trkpt>
      <trkpt lat="44.51124" lon="5.63011">
        <ele>968</ele>
        <time>2022-06-09T21:33:36Z</time>
      </trkpt>
      <trkpt lat="44.5112" lon="5.63035">
        <ele>970</ele>
        <time>2022-06-09T21:33:40Z</time>
      </trkpt>
      <trkpt lat="44.51123" lon="5.6306">
        <ele>971</ele>
        <time>2022-06-09T21:33:44Z</time>
      </trkpt>
      <trkpt lat="44.51135" lon="5.63068">
        <ele>970</ele>
        <time>2022-06-09T21:33:47Z</time>
      </trkpt>
      <trkpt lat="44.51133" lon="5.63088">
        <ele>971</ele>
        <time>2022-06-09T21:33:51Z</time>
      </trkpt>
      <trkpt lat="44.5113" lon="5.6309">
        <ele>972</ele>
        <time>2022-06-09T21:33:51Z</time>
      </trkpt>
      <trkpt lat="44.51127" lon="5.63098">
        <ele>973</ele>
        <time>2022-06-09T21:33:53Z</time>
      </trkpt>
      <trkpt lat="44.51127" lon="5.63115">
        <ele>975</ele>
        <time>2022-06-09T21:33:56Z</time>
      </trkpt>
      <trkpt lat="44.51125" lon="5.63115">
        <ele>975</ele>
        <time>2022-06-09T21:33:56Z</time>
      </trkpt>
      <trkpt lat="44.51126" lon="5.63135">
        <ele>976</ele>
        <time>2022-06-09T21:33:59Z</time>
      </trkpt>
      <trkpt lat="44.51129" lon="5.63144">
        <ele>977</ele>
        <time>2022-06-09T21:34:01Z</time>
      </trkpt>
      <trkpt lat="44.51127" lon="5.63151">
        <ele>978</ele>
        <time>2022-06-09T21:34:02Z</time>
      </trkpt>
      <trkpt lat="44.51134" lon="5.63173">
        <ele>978</ele>
        <time>2022-06-09T21:34:06Z</time>
      </trkpt>
      <trkpt lat="44.51143" lon="5.6319">
        <ele>978</ele>
        <time>2022-06-09T21:34:10Z</time>
      </trkpt>
      <trkpt lat="44.51147" lon="5.6319">
        <ele>977</ele>
        <time>2022-06-09T21:34:11Z</time>
      </trkpt>
      <trkpt lat="44.51158" lon="5.632">
        <ele>976</ele>
        <time>2022-06-09T21:34:14Z</time>
      </trkpt>
      <trkpt lat="44.51168" lon="5.63205">
        <ele>975</ele>
        <time>2022-06-09T21:34:16Z</time>
      </trkpt>
      <trkpt lat="44.51181" lon="5.63218">
        <ele>979</ele>
        <time>2022-06-09T21:34:20Z</time>
      </trkpt>
      <trkpt lat="44.51184" lon="5.63235">
        <ele>981</ele>
        <time>2022-06-09T21:34:23Z</time>
      </trkpt>
      <trkpt lat="44.51184" lon="5.63255">
        <ele>982</ele>
        <time>2022-06-09T21:34:26Z</time>
      </trkpt>
      <trkpt lat="44.51189" lon="5.63282">
        <ele>984</ele>
        <time>2022-06-09T21:34:31Z</time>
      </trkpt>
      <trkpt lat="44.51215" lon="5.63294">
        <ele>987</ele>
        <time>2022-06-09T21:34:37Z</time>
      </trkpt>
      <trkpt lat="44.51227" lon="5.63307">
        <ele>988</ele>
        <time>2022-06-09T21:34:41Z</time>
      </trkpt>
      <trkpt lat="44.51215" lon="5.63335">
        <ele>988</ele>
        <time>2022-06-09T21:34:46Z</time>
      </trkpt>
      <trkpt lat="44.51221" lon="5.63344">
        <ele>989</ele>
        <time>2022-06-09T21:34:48Z</time>
      </trkpt>
      <trkpt lat="44.51219" lon="5.634">
        <ele>997</ele>
        <time>2022-06-09T21:34:58Z</time>
      </trkpt>
      <trkpt lat="44.51222" lon="5.63416">
        <ele>999</ele>
        <time>2022-06-09T21:35:01Z</time>
      </trkpt>
      <trkpt lat="44.51222" lon="5.63434">
        <ele>1002</ele>
        <time>2022-06-09T21:35:04Z</time>
      </trkpt>
      <trkpt lat="44.51229" lon="5.63444">
        <ele>1003</ele>
        <time>2022-06-09T21:35:06Z</time>
      </trkpt>
      <trkpt lat="44.51236" lon="5.63448">
        <ele>1003</ele>
        <time>2022-06-09T21:35:08Z</time>
      </trkpt>
      <trkpt lat="44.5125" lon="5.63468">
        <ele>1006</ele>
        <time>2022-06-09T21:35:12Z</time>
      </trkpt>
      <trkpt lat="44.51258" lon="5.63473">
        <ele>1007</ele>
        <time>2022-06-09T21:35:14Z</time>
      </trkpt>
      <trkpt lat="44.51282" lon="5.63473">
        <ele>1007</ele>
        <time>2022-06-09T21:35:20Z</time>
      </trkpt>
      <trkpt lat="44.5129" lon="5.63477">
        <ele>1007</ele>
        <time>2022-06-09T21:35:22Z</time>
      </trkpt>
      <trkpt lat="44.51303" lon="5.63501">
        <ele>1009</ele>
        <time>2022-06-09T21:35:27Z</time>
      </trkpt>
      <trkpt lat="44.51301" lon="5.63511">
        <ele>1010</ele>
        <time>2022-06-09T21:35:29Z</time>
      </trkpt>
      <trkpt lat="44.51292" lon="5.63526">
        <ele>1012</ele>
        <time>2022-06-09T21:35:32Z</time>
      </trkpt>
      <trkpt lat="44.51284" lon="5.63557">
        <ele>1016</ele>
        <time>2022-06-09T21:35:37Z</time>
      </trkpt>
      <trkpt lat="44.51282" lon="5.63588">
        <ele>1019</ele>
        <time>2022-06-09T21:35:43Z</time>
      </trkpt>
      <trkpt lat="44.51278" lon="5.63603">
        <ele>1022</ele>
        <time>2022-06-09T21:35:45Z</time>
      </trkpt>
      <trkpt lat="44.51281" lon="5.63637">
        <ele>1026</ele>
        <time>2022-06-09T21:35:51Z</time>
      </trkpt>
      <trkpt lat="44.51272" lon="5.63666">
        <ele>1031</ele>
        <time>2022-06-09T21:35:56Z</time>
      </trkpt>
      <trkpt lat="44.51277" lon="5.63727">
        <ele>1035</ele>
        <time>2022-06-09T21:36:06Z</time>
      </trkpt>
      <trkpt lat="44.51273" lon="5.63785">
        <ele>1041</ele>
        <time>2022-06-09T21:36:16Z</time>
      </trkpt>
      <trkpt lat="44.51274" lon="5.6381">
        <ele>1043</ele>
        <time>2022-06-09T21:36:20Z</time>
      </trkpt>
      <trkpt lat="44.51272" lon="5.6381">
        <ele>1044</ele>
        <time>2022-06-09T21:36:21Z</time>
      </trkpt>
      <trkpt lat="44.51281" lon="5.638">
        <ele>1041</ele>
        <time>2022-06-09T21:36:23Z</time>
      </trkpt>
      <trkpt lat="44.51288" lon="5.63809">
        <ele>1041</ele>
        <time>2022-06-09T21:36:26Z</time>
      </trkpt>
      <trkpt lat="44.51275" lon="5.63808">
        <ele>1043</ele>
        <time>2022-06-09T21:36:29Z</time>
      </trkpt>
      <trkpt lat="44.51269" lon="5.63804">
        <ele>1044</ele>
        <time>2022-06-09T21:36:30Z</time>
      </trkpt>
      <trkpt lat="44.51263" lon="5.63795">
        <ele>1044</ele>
        <time>2022-06-09T21:36:32Z</time>
      </trkpt>
      <trkpt lat="44.51251" lon="5.63756">
        <ele>1042</ele>
        <time>2022-06-09T21:36:39Z</time>
      </trkpt>
      <trkpt lat="44.51242" lon="5.63686">
        <ele>1039</ele>
        <time>2022-06-09T21:36:51Z</time>
      </trkpt>
      <trkpt lat="44.51223" lon="5.63632">
        <ele>1036</ele>
        <time>2022-06-09T21:37:01Z</time>
      </trkpt>
      <trkpt lat="44.51199" lon="5.63582">
        <ele>1032</ele>
        <time>2022-06-09T21:37:11Z</time>
      </trkpt>
      <trkpt lat="44.51192" lon="5.63579">
        <ele>1033</ele>
        <time>2022-06-09T21:37:13Z</time>
      </trkpt>
      <trkpt lat="44.51189" lon="5.63581">
        <ele>1034</ele>
        <time>2022-06-09T21:37:14Z</time>
      </trkpt>
      <trkpt lat="44.51184" lon="5.63589">
        <ele>1036</ele>
        <time>2022-06-09T21:37:16Z</time>
      </trkpt>
      <trkpt lat="44.51182" lon="5.636">
        <ele>1038</ele>
        <time>2022-06-09T21:37:17Z</time>
      </trkpt>
      <trkpt lat="44.51168" lon="5.63632">
        <ele>1048</ele>
        <time>2022-06-09T21:37:24Z</time>
      </trkpt>
      <trkpt lat="44.51154" lon="5.63655">
        <ele>1054</ele>
        <time>2022-06-09T21:37:29Z</time>
      </trkpt>
      <trkpt lat="44.51148" lon="5.63661">
        <ele>1056</ele>
        <time>2022-06-09T21:37:30Z</time>
      </trkpt>
      <trkpt lat="44.51138" lon="5.63666">
        <ele>1059</ele>
        <time>2022-06-09T21:37:33Z</time>
      </trkpt>
      <trkpt lat="44.51117" lon="5.63655">
        <ele>1059</ele>
        <time>2022-06-09T21:37:38Z</time>
      </trkpt>
      <trkpt lat="44.51099" lon="5.63638">
        <ele>1058</ele>
        <time>2022-06-09T21:37:43Z</time>
      </trkpt>
      <trkpt lat="44.51084" lon="5.63621">
        <ele>1055</ele>
        <time>2022-06-09T21:37:48Z</time>
      </trkpt>
      <trkpt lat="44.51079" lon="5.63611">
        <ele>1054</ele>
        <time>2022-06-09T21:37:50Z</time>
      </trkpt>
      <trkpt lat="44.51069" lon="5.63602">
        <ele>1053</ele>
        <time>2022-06-09T21:37:53Z</time>
      </trkpt>
      <trkpt lat="44.51043" lon="5.63609">
        <ele>1059</ele>
        <time>2022-06-09T21:37:59Z</time>
      </trkpt>
      <trkpt lat="44.51035" lon="5.63608">
        <ele>1060</ele>
        <time>2022-06-09T21:38:01Z</time>
      </trkpt>
      <trkpt lat="44.51017" lon="5.63596">
        <ele>1060</ele>
        <time>2022-06-09T21:38:05Z</time>
      </trkpt>
      <trkpt lat="44.5098" lon="5.63595">
        <ele>1066</ele>
        <time>2022-06-09T21:38:14Z</time>
      </trkpt>
      <trkpt lat="44.50968" lon="5.63597">
        <ele>1069</ele>
        <time>2022-06-09T21:38:17Z</time>
      </trkpt>
      <trkpt lat="44.50926" lon="5.63594">
        <ele>1077</ele>
        <time>2022-06-09T21:38:27Z</time>
      </trkpt>
      <trkpt lat="44.50909" lon="5.63608">
        <ele>1085</ele>
        <time>2022-06-09T21:38:31Z</time>
      </trkpt>
      <trkpt lat="44.50906" lon="5.63608">
        <ele>1086</ele>
        <time>2022-06-09T21:38:32Z</time>
      </trkpt>
      <trkpt lat="44.50902" lon="5.63602">
        <ele>1086</ele>
        <time>2022-06-09T21:38:33Z</time>
      </trkpt>
      <trkpt lat="44.50901" lon="5.63551">
        <ele>1078</ele>
        <time>2022-06-09T21:38:42Z</time>
      </trkpt>
      <trkpt lat="44.5091" lon="5.63525">
        <ele>1070</ele>
        <time>2022-06-09T21:38:47Z</time>
      </trkpt>
      <trkpt lat="44.50908" lon="5.63508">
        <ele>1068</ele>
        <time>2022-06-09T21:38:49Z</time>
      </trkpt>
      <trkpt lat="44.509" lon="5.63502">
        <ele>1070</ele>
        <time>2022-06-09T21:38:52Z</time>
      </trkpt>
      <trkpt lat="44.50849" lon="5.63486">
        <ele>1087</ele>
        <time>2022-06-09T21:39:04Z</time>
      </trkpt>
      <trkpt lat="44.50835" lon="5.63477">
        <ele>1091</ele>
        <time>2022-06-09T21:39:07Z</time>
      </trkpt>
      <trkpt lat="44.50797" lon="5.63471">
        <ele>1102</ele>
        <time>2022-06-09T21:39:16Z</time>
      </trkpt>
      <trkpt lat="44.5079" lon="5.63465">
        <ele>1103</ele>
        <time>2022-06-09T21:39:18Z</time>
      </trkpt>
      <trkpt lat="44.50784" lon="5.63447">
        <ele>1104</ele>
        <time>2022-06-09T21:39:22Z</time>
      </trkpt>
      <trkpt lat="44.50792" lon="5.63411">
        <ele>1100</ele>
        <time>2022-06-09T21:39:28Z</time>
      </trkpt>
      <trkpt lat="44.50795" lon="5.63405">
        <ele>1100</ele>
        <time>2022-06-09T21:39:29Z</time>
      </trkpt>
      <trkpt lat="44.50799" lon="5.63408">
        <ele>1098</ele>
        <time>2022-06-09T21:39:30Z</time>
      </trkpt>
      <trkpt lat="44.50793" lon="5.63412">
        <ele>1100</ele>
        <time>2022-06-09T21:39:32Z</time>
      </trkpt>
      <trkpt lat="44.50802" lon="5.63397">
        <ele>1097</ele>
        <time>2022-06-09T21:39:35Z</time>
      </trkpt>
      <trkpt lat="44.50803" lon="5.63371">
        <ele>1098</ele>
        <time>2022-06-09T21:39:39Z</time>
      </trkpt>
      <trkpt lat="44.50807" lon="5.63352">
        <ele>1098</ele>
        <time>2022-06-09T21:39:43Z</time>
      </trkpt>
      <trkpt lat="44.50817" lon="5.63339">
        <ele>1096</ele>
        <time>2022-06-09T21:39:46Z</time>
      </trkpt>
      <trkpt lat="44.50843" lon="5.63324">
        <ele>1089</ele>
        <time>2022-06-09T21:39:52Z</time>
      </trkpt>
      <trkpt lat="44.5086" lon="5.6331">
        <ele>1082</ele>
        <time>2022-06-09T21:39:57Z</time>
      </trkpt>
      <trkpt lat="44.50863" lon="5.63305">
        <ele>1080</ele>
        <time>2022-06-09T21:39:58Z</time>
      </trkpt>
      <trkpt lat="44.50861" lon="5.63293">
        <ele>1080</ele>
        <time>2022-06-09T21:40:00Z</time>
      </trkpt>
      <trkpt lat="44.50846" lon="5.6329">
        <ele>1083</ele>
        <time>2022-06-09T21:40:04Z</time>
      </trkpt>
      <trkpt lat="44.50831" lon="5.63299">
        <ele>1088</ele>
        <time>2022-06-09T21:40:07Z</time>
      </trkpt>
      <trkpt lat="44.50822" lon="5.633">
        <ele>1090</ele>
        <time>2022-06-09T21:40:09Z</time>
      </trkpt>
      <trkpt lat="44.50812" lon="5.63305">
        <ele>1093</ele>
        <time>2022-06-09T21:40:12Z</time>
      </trkpt>
      <trkpt lat="44.50808" lon="5.63302">
        <ele>1093</ele>
        <time>2022-06-09T21:40:13Z</time>
      </trkpt>
      <trkpt lat="44.508" lon="5.63301">
        <ele>1094</ele>
        <time>2022-06-09T21:40:15Z</time>
      </trkpt>
      <trkpt lat="44.50772" lon="5.63317">
        <ele>1103</ele>
        <time>2022-06-09T21:40:22Z</time>
      </trkpt>
      <trkpt lat="44.50743" lon="5.63316">
        <ele>1109</ele>
        <time>2022-06-09T21:40:29Z</time>
      </trkpt>
      <trkpt lat="44.50713" lon="5.63331">
        <ele>1121</ele>
        <time>2022-06-09T21:40:36Z</time>
      </trkpt>
      <trkpt lat="44.50699" lon="5.63333">
        <ele>1125</ele>
        <time>2022-06-09T21:40:39Z</time>
      </trkpt>
      <trkpt lat="44.50684" lon="5.63331">
        <ele>1129</ele>
        <time>2022-06-09T21:40:43Z</time>
      </trkpt>
      <trkpt lat="44.50679" lon="5.63328">
        <ele>1130</ele>
        <time>2022-06-09T21:40:44Z</time>
      </trkpt>
      <trkpt lat="44.50677" lon="5.63322">
        <ele>1129</ele>
        <time>2022-06-09T21:40:45Z</time>
      </trkpt>
      <trkpt lat="44.50669" lon="5.63269">
        <ele>1122</ele>
        <time>2022-06-09T21:40:54Z</time>
      </trkpt>
      <trkpt lat="44.50658" lon="5.63254">
        <ele>1125</ele>
        <time>2022-06-09T21:40:58Z</time>
      </trkpt>
      <trkpt lat="44.50649" lon="5.63229">
        <ele>1131</ele>
        <time>2022-06-09T21:41:03Z</time>
      </trkpt>
      <trkpt lat="44.50642" lon="5.63233">
        <ele>1135</ele>
        <time>2022-06-09T21:41:04Z</time>
      </trkpt>
      <trkpt lat="44.50643" lon="5.63255">
        <ele>1133</ele>
        <time>2022-06-09T21:41:08Z</time>
      </trkpt>
      <trkpt lat="44.50662" lon="5.63283">
        <ele>1127</ele>
        <time>2022-06-09T21:41:14Z</time>
      </trkpt>
      <trkpt lat="44.50662" lon="5.63296">
        <ele>1130</ele>
        <time>2022-06-09T21:41:17Z</time>
      </trkpt>
      <trkpt lat="44.50655" lon="5.63324">
        <ele>1138</ele>
        <time>2022-06-09T21:41:22Z</time>
      </trkpt>
      <trkpt lat="44.50656" lon="5.63338">
        <ele>1139</ele>
        <time>2022-06-09T21:41:24Z</time>
      </trkpt>
      <trkpt lat="44.50662" lon="5.63346">
        <ele>1138</ele>
        <time>2022-06-09T21:41:26Z</time>
      </trkpt>
      <trkpt lat="44.50673" lon="5.63352">
        <ele>1135</ele>
        <time>2022-06-09T21:41:29Z</time>
      </trkpt>
      <trkpt lat="44.50674" lon="5.6335">
        <ele>1135</ele>
        <time>2022-06-09T21:41:29Z</time>
      </trkpt>
      <trkpt lat="44.50671" lon="5.6335">
        <ele>1136</ele>
        <time>2022-06-09T21:41:30Z</time>
      </trkpt>
      <trkpt lat="44.50671" lon="5.63353">
        <ele>1136</ele>
        <time>2022-06-09T21:41:30Z</time>
      </trkpt>
      <trkpt lat="44.50679" lon="5.63353">
        <ele>1134</ele>
        <time>2022-06-09T21:41:32Z</time>
      </trkpt>
      <trkpt lat="44.50686" lon="5.63362">
        <ele>1133</ele>
        <time>2022-06-09T21:41:34Z</time>
      </trkpt>
      <trkpt lat="44.50701" lon="5.63373">
        <ele>1129</ele>
        <time>2022-06-09T21:41:38Z</time>
      </trkpt>
      <trkpt lat="44.50707" lon="5.63387">
        <ele>1129</ele>
        <time>2022-06-09T21:41:41Z</time>
      </trkpt>
      <trkpt lat="44.50682" lon="5.63426">
        <ele>1142</ele>
        <time>2022-06-09T21:41:50Z</time>
      </trkpt>
      <trkpt lat="44.50677" lon="5.63442">
        <ele>1143</ele>
        <time>2022-06-09T21:41:53Z</time>
      </trkpt>
      <trkpt lat="44.50676" lon="5.63486">
        <ele>1142</ele>
        <time>2022-06-09T21:42:00Z</time>
      </trkpt>
      <trkpt lat="44.5067" lon="5.63493">
        <ele>1144</ele>
        <time>2022-06-09T21:42:02Z</time>
      </trkpt>
      <trkpt lat="44.50653" lon="5.63502">
        <ele>1151</ele>
        <time>2022-06-09T21:42:06Z</time>
      </trkpt>
      <trkpt lat="44.50643" lon="5.63512">
        <ele>1154</ele>
        <time>2022-06-09T21:42:09Z</time>
      </trkpt>
      <trkpt lat="44.50623" lon="5.63556">
        <ele>1161</ele>
        <time>2022-06-09T21:42:18Z</time>
      </trkpt>
      <trkpt lat="44.50621" lon="5.63568">
        <ele>1161</ele>
        <time>2022-06-09T21:42:20Z</time>
      </trkpt>
      <trkpt lat="44.50625" lon="5.63599">
        <ele>1160</ele>
        <time>2022-06-09T21:42:25Z</time>
      </trkpt>
      <trkpt lat="44.5063" lon="5.63608">
        <ele>1159</ele>
        <time>2022-06-09T21:42:27Z</time>
      </trkpt>
      <trkpt lat="44.50644" lon="5.63621">
        <ele>1155</ele>
        <time>2022-06-09T21:42:31Z</time>
      </trkpt>
      <trkpt lat="44.50651" lon="5.63634">
        <ele>1153</ele>
        <time>2022-06-09T21:42:33Z</time>
      </trkpt>
      <trkpt lat="44.50642" lon="5.63662">
        <ele>1160</ele>
        <time>2022-06-09T21:42:39Z</time>
      </trkpt>
      <trkpt lat="44.50641" lon="5.63691">
        <ele>1164</ele>
        <time>2022-06-09T21:42:43Z</time>
      </trkpt>
      <trkpt lat="44.50643" lon="5.63714">
        <ele>1166</ele>
        <time>2022-06-09T21:42:47Z</time>
      </trkpt>
      <trkpt lat="44.50648" lon="5.63728">
        <ele>1166</ele>
        <time>2022-06-09T21:42:50Z</time>
      </trkpt>
      <trkpt lat="44.50666" lon="5.63747">
        <ele>1162</ele>
        <time>2022-06-09T21:42:55Z</time>
      </trkpt>
      <trkpt lat="44.50665" lon="5.63757">
        <ele>1163</ele>
        <time>2022-06-09T21:42:57Z</time>
      </trkpt>
      <trkpt lat="44.50657" lon="5.63756">
        <ele>1166</ele>
        <time>2022-06-09T21:42:59Z</time>
      </trkpt>
      <trkpt lat="44.50635" lon="5.63734">
        <ele>1172</ele>
        <time>2022-06-09T21:43:05Z</time>
      </trkpt>
      <trkpt lat="44.50632" lon="5.6373">
        <ele>1173</ele>
        <time>2022-06-09T21:43:06Z</time>
      </trkpt>
      <trkpt lat="44.50635" lon="5.63712">
        <ele>1169</ele>
        <time>2022-06-09T21:43:09Z</time>
      </trkpt>
      <trkpt lat="44.50627" lon="5.63694">
        <ele>1170</ele>
        <time>2022-06-09T21:43:13Z</time>
      </trkpt>
      <trkpt lat="44.50622" lon="5.63672">
        <ele>1168</ele>
        <time>2022-06-09T21:43:16Z</time>
      </trkpt>
      <trkpt lat="44.50605" lon="5.63648">
        <ele>1172</ele>
        <time>2022-06-09T21:43:22Z</time>
      </trkpt>
      <trkpt lat="44.50576" lon="5.63614">
        <ele>1181</ele>
        <time>2022-06-09T21:43:31Z</time>
      </trkpt>
      <trkpt lat="44.5057" lon="5.63602">
        <ele>1183</ele>
        <time>2022-06-09T21:43:33Z</time>
      </trkpt>
      <trkpt lat="44.50561" lon="5.63566">
        <ele>1187</ele>
        <time>2022-06-09T21:43:40Z</time>
      </trkpt>
      <trkpt lat="44.50564" lon="5.63537">
        <ele>1187</ele>
        <time>2022-06-09T21:43:45Z</time>
      </trkpt>
      <trkpt lat="44.5059" lon="5.63453">
        <ele>1177</ele>
        <time>2022-06-09T21:44:00Z</time>
      </trkpt>
      <trkpt lat="44.50589" lon="5.63439">
        <ele>1178</ele>
        <time>2022-06-09T21:44:02Z</time>
      </trkpt>
      <trkpt lat="44.50587" lon="5.63436">
        <ele>1179</ele>
        <time>2022-06-09T21:44:03Z</time>
      </trkpt>
      <trkpt lat="44.50573" lon="5.63433">
        <ele>1184</ele>
        <time>2022-06-09T21:44:06Z</time>
      </trkpt>
      <trkpt lat="44.50552" lon="5.63444">
        <ele>1193</ele>
        <time>2022-06-09T21:44:11Z</time>
      </trkpt>
      <trkpt lat="44.50523" lon="5.63448">
        <ele>1205</ele>
        <time>2022-06-09T21:44:18Z</time>
      </trkpt>
      <trkpt lat="44.50516" lon="5.63441">
        <ele>1207</ele>
        <time>2022-06-09T21:44:20Z</time>
      </trkpt>
      <trkpt lat="44.50513" lon="5.63431">
        <ele>1208</ele>
        <time>2022-06-09T21:44:22Z</time>
      </trkpt>
      <trkpt lat="44.50514" lon="5.63404">
        <ele>1207</ele>
        <time>2022-06-09T21:44:26Z</time>
      </trkpt>
      <trkpt lat="44.50519" lon="5.63382">
        <ele>1204</ele>
        <time>2022-06-09T21:44:30Z</time>
      </trkpt>
      <trkpt lat="44.50519" lon="5.63352">
        <ele>1204</ele>
        <time>2022-06-09T21:44:35Z</time>
      </trkpt>
      <trkpt lat="44.50517" lon="5.63342">
        <ele>1205</ele>
        <time>2022-06-09T21:44:37Z</time>
      </trkpt>
      <trkpt lat="44.505" lon="5.63304">
        <ele>1214</ele>
        <time>2022-06-09T21:44:45Z</time>
      </trkpt>
      <trkpt lat="44.50495" lon="5.63254">
        <ele>1217</ele>
        <time>2022-06-09T21:44:53Z</time>
      </trkpt>
      <trkpt lat="44.50495" lon="5.63242">
        <ele>1217</ele>
        <time>2022-06-09T21:44:55Z</time>
      </trkpt>
      <trkpt lat="44.50506" lon="5.63198">
        <ele>1213</ele>
        <time>2022-06-09T21:45:03Z</time>
      </trkpt>
      <trkpt lat="44.50505" lon="5.63175">
        <ele>1214</ele>
        <time>2022-06-09T21:45:07Z</time>
      </trkpt>
      <trkpt lat="44.50503" lon="5.63166">
        <ele>1215</ele>
        <time>2022-06-09T21:45:08Z</time>
      </trkpt>
      <trkpt lat="44.50496" lon="5.63153">
        <ele>1218</ele>
        <time>2022-06-09T21:45:11Z</time>
      </trkpt>
      <trkpt lat="44.50491" lon="5.63129">
        <ele>1221</ele>
        <time>2022-06-09T21:45:15Z</time>
      </trkpt>
      <trkpt lat="44.50491" lon="5.63114">
        <ele>1221</ele>
        <time>2022-06-09T21:45:17Z</time>
      </trkpt>
      <trkpt lat="44.50474" lon="5.63093">
        <ele>1228</ele>
        <time>2022-06-09T21:45:23Z</time>
      </trkpt>
      <trkpt lat="44.50465" lon="5.63071">
        <ele>1234</ele>
        <time>2022-06-09T21:45:27Z</time>
      </trkpt>
      <trkpt lat="44.50467" lon="5.63052">
        <ele>1234</ele>
        <time>2022-06-09T21:45:30Z</time>
      </trkpt>
      <trkpt lat="44.50481" lon="5.63025">
        <ele>1230</ele>
        <time>2022-06-09T21:45:36Z</time>
      </trkpt>
      <trkpt lat="44.50487" lon="5.63005">
        <ele>1229</ele>
        <time>2022-06-09T21:45:39Z</time>
      </trkpt>
      <trkpt lat="44.50493" lon="5.62951">
        <ele>1225</ele>
        <time>2022-06-09T21:45:48Z</time>
      </trkpt>
      <trkpt lat="44.50492" lon="5.6293">
        <ele>1224</ele>
        <time>2022-06-09T21:45:52Z</time>
      </trkpt>
      <trkpt lat="44.5049" lon="5.62926">
        <ele>1225</ele>
        <time>2022-06-09T21:45:53Z</time>
      </trkpt>
      <trkpt lat="44.50477" lon="5.62918">
        <ele>1229</ele>
        <time>2022-06-09T21:45:56Z</time>
      </trkpt>
      <trkpt lat="44.50463" lon="5.62895">
        <ele>1230</ele>
        <time>2022-06-09T21:46:01Z</time>
      </trkpt>
      <trkpt lat="44.50451" lon="5.62889">
        <ele>1234</ele>
        <time>2022-06-09T21:46:04Z</time>
      </trkpt>
      <trkpt lat="44.50426" lon="5.62865">
        <ele>1240</ele>
        <time>2022-06-09T21:46:11Z</time>
      </trkpt>
      <trkpt lat="44.50417" lon="5.62849">
        <ele>1241</ele>
        <time>2022-06-09T21:46:15Z</time>
      </trkpt>
      <trkpt lat="44.50397" lon="5.62828">
        <ele>1244</ele>
        <time>2022-06-09T21:46:20Z</time>
      </trkpt>
      <trkpt lat="44.50385" lon="5.628">
        <ele>1242</ele>
        <time>2022-06-09T21:46:26Z</time>
      </trkpt>
      <trkpt lat="44.50383" lon="5.62773">
        <ele>1237</ele>
        <time>2022-06-09T21:46:30Z</time>
      </trkpt>
      <trkpt lat="44.50378" lon="5.6276">
        <ele>1237</ele>
        <time>2022-06-09T21:46:33Z</time>
      </trkpt>
      <trkpt lat="44.50373" lon="5.62754">
        <ele>1238</ele>
        <time>2022-06-09T21:46:34Z</time>
      </trkpt>
      <trkpt lat="44.50362" lon="5.6275">
        <ele>1242</ele>
        <time>2022-06-09T21:46:37Z</time>
      </trkpt>
      <trkpt lat="44.50333" lon="5.62749">
        <ele>1255</ele>
        <time>2022-06-09T21:46:44Z</time>
      </trkpt>
      <trkpt lat="44.50315" lon="5.62745">
        <ele>1258</ele>
        <time>2022-06-09T21:46:48Z</time>
      </trkpt>
      <trkpt lat="44.5028" lon="5.6275">
        <ele>1266</ele>
        <time>2022-06-09T21:46:56Z</time>
      </trkpt>
      <trkpt lat="44.50272" lon="5.62748">
        <ele>1267</ele>
        <time>2022-06-09T21:46:58Z</time>
      </trkpt>
      <trkpt lat="44.50255" lon="5.62737">
        <ele>1269</ele>
        <time>2022-06-09T21:47:03Z</time>
      </trkpt>
      <trkpt lat="44.50245" lon="5.62716">
        <ele>1270</ele>
        <time>2022-06-09T21:47:07Z</time>
      </trkpt>
      <trkpt lat="44.50238" lon="5.62677">
        <ele>1267</ele>
        <time>2022-06-09T21:47:13Z</time>
      </trkpt>
      <trkpt lat="44.50233" lon="5.62662">
        <ele>1266</ele>
        <time>2022-06-09T21:47:16Z</time>
      </trkpt>
      <trkpt lat="44.50218" lon="5.6265">
        <ele>1269</ele>
        <time>2022-06-09T21:47:20Z</time>
      </trkpt>
      <trkpt lat="44.50207" lon="5.62645">
        <ele>1272</ele>
        <time>2022-06-09T21:47:23Z</time>
      </trkpt>
      <trkpt lat="44.50197" lon="5.62635">
        <ele>1274</ele>
        <time>2022-06-09T21:47:26Z</time>
      </trkpt>
      <trkpt lat="44.50171" lon="5.62585">
        <ele>1275</ele>
        <time>2022-06-09T21:47:36Z</time>
      </trkpt>
      <trkpt lat="44.50166" lon="5.62563">
        <ele>1273</ele>
        <time>2022-06-09T21:47:40Z</time>
      </trkpt>
      <trkpt lat="44.5016" lon="5.6255">
        <ele>1272</ele>
        <time>2022-06-09T21:47:43Z</time>
      </trkpt>
      <trkpt lat="44.50129" lon="5.62523">
        <ele>1275</ele>
        <time>2022-06-09T21:47:51Z</time>
      </trkpt>
      <trkpt lat="44.50116" lon="5.62504">
        <ele>1274</ele>
        <time>2022-06-09T21:47:55Z</time>
      </trkpt>
      <trkpt lat="44.50105" lon="5.62495">
        <ele>1275</ele>
        <time>2022-06-09T21:47:58Z</time>
      </trkpt>
      <trkpt lat="44.50088" lon="5.62489">
        <ele>1279</ele>
        <time>2022-06-09T21:48:03Z</time>
      </trkpt>
      <trkpt lat="44.50077" lon="5.62482">
        <ele>1280</ele>
        <time>2022-06-09T21:48:05Z</time>
      </trkpt>
      <trkpt lat="44.50048" lon="5.62474">
        <ele>1285</ele>
        <time>2022-06-09T21:48:12Z</time>
      </trkpt>
      <trkpt lat="44.50022" lon="5.62447">
        <ele>1286</ele>
        <time>2022-06-09T21:48:20Z</time>
      </trkpt>
      <trkpt lat="44.50004" lon="5.62412">
        <ele>1285</ele>
        <time>2022-06-09T21:48:27Z</time>
      </trkpt>
      <trkpt lat="44.49966" lon="5.62358">
        <ele>1283</ele>
        <time>2022-06-09T21:48:40Z</time>
      </trkpt>
      <trkpt lat="44.49957" lon="5.6235">
        <ele>1284</ele>
        <time>2022-06-09T21:48:42Z</time>
      </trkpt>
      <trkpt lat="44.49934" lon="5.62343">
        <ele>1287</ele>
        <time>2022-06-09T21:48:48Z</time>
      </trkpt>
      <trkpt lat="44.49924" lon="5.62347">
        <ele>1289</ele>
        <time>2022-06-09T21:48:50Z</time>
      </trkpt>
      <trkpt lat="44.49893" lon="5.62346">
        <ele>1291</ele>
        <time>2022-06-09T21:48:57Z</time>
      </trkpt>
      <trkpt lat="44.49875" lon="5.62354">
        <ele>1294</ele>
        <time>2022-06-09T21:49:02Z</time>
      </trkpt>
      <trkpt lat="44.49869" lon="5.62365">
        <ele>1296</ele>
        <time>2022-06-09T21:49:04Z</time>
      </trkpt>
      <trkpt lat="44.49854" lon="5.62378">
        <ele>1298</ele>
        <time>2022-06-09T21:49:08Z</time>
      </trkpt>
      <trkpt lat="44.49824" lon="5.62377">
        <ele>1300</ele>
        <time>2022-06-09T21:49:15Z</time>
      </trkpt>
      <trkpt lat="44.49815" lon="5.62373">
        <ele>1299</ele>
        <time>2022-06-09T21:49:17Z</time>
      </trkpt>
      <trkpt lat="44.49809" lon="5.62373">
        <ele>1299</ele>
        <time>2022-06-09T21:49:19Z</time>
      </trkpt>
      <trkpt lat="44.49789" lon="5.62384">
        <ele>1301</ele>
        <time>2022-06-09T21:49:24Z</time>
      </trkpt>
      <trkpt lat="44.49785" lon="5.62394">
        <ele>1302</ele>
        <time>2022-06-09T21:49:26Z</time>
      </trkpt>
      <trkpt lat="44.49777" lon="5.62398">
        <ele>1303</ele>
        <time>2022-06-09T21:49:28Z</time>
      </trkpt>
      <trkpt lat="44.49763" lon="5.62395">
        <ele>1303</ele>
        <time>2022-06-09T21:49:31Z</time>
      </trkpt>
      <trkpt lat="44.49712" lon="5.62398">
        <ele>1306</ele>
        <time>2022-06-09T21:49:43Z</time>
      </trkpt>
      <trkpt lat="44.49693" lon="5.62388">
        <ele>1306</ele>
        <time>2022-06-09T21:49:48Z</time>
      </trkpt>
      <trkpt lat="44.49667" lon="5.6238">
        <ele>1306</ele>
        <time>2022-06-09T21:49:54Z</time>
      </trkpt>
      <trkpt lat="44.49652" lon="5.62381">
        <ele>1307</ele>
        <time>2022-06-09T21:49:57Z</time>
      </trkpt>
      <trkpt lat="44.49637" lon="5.62375">
        <ele>1306</ele>
        <time>2022-06-09T21:50:01Z</time>
      </trkpt>
      <trkpt lat="44.4962" lon="5.62375">
        <ele>1307</ele>
        <time>2022-06-09T21:50:05Z</time>
      </trkpt>
      <trkpt lat="44.49596" lon="5.62395">
        <ele>1312</ele>
        <time>2022-06-09T21:50:11Z</time>
      </trkpt>
      <trkpt lat="44.4955" lon="5.62405">
        <ele>1318</ele>
        <time>2022-06-09T21:50:22Z</time>
      </trkpt>
      <trkpt lat="44.49539" lon="5.62401">
        <ele>1319</ele>
        <time>2022-06-09T21:50:25Z</time>
      </trkpt>
      <trkpt lat="44.49519" lon="5.62378">
        <ele>1316</ele>
        <time>2022-06-09T21:50:31Z</time>
      </trkpt>
      <trkpt lat="44.49511" lon="5.62372">
        <ele>1316</ele>
        <time>2022-06-09T21:50:33Z</time>
      </trkpt>
      <trkpt lat="44.49445" lon="5.62359">
        <ele>1314</ele>
        <time>2022-06-09T21:50:49Z</time>
      </trkpt>
      <trkpt lat="44.49426" lon="5.62371">
        <ele>1316</ele>
        <time>2022-06-09T21:50:54Z</time>
      </trkpt>
      <trkpt lat="44.49418" lon="5.6238">
        <ele>1318</ele>
        <time>2022-06-09T21:50:56Z</time>
      </trkpt>
      <trkpt lat="44.49394" lon="5.62429">
        <ele>1321</ele>
        <time>2022-06-09T21:51:06Z</time>
      </trkpt>
      <trkpt lat="44.49372" lon="5.62456">
        <ele>1318</ele>
        <time>2022-06-09T21:51:13Z</time>
      </trkpt>
      <trkpt lat="44.49322" lon="5.62486">
        <ele>1311</ele>
        <time>2022-06-09T21:51:25Z</time>
      </trkpt>
      <trkpt lat="44.49298" lon="5.62487">
        <ele>1308</ele>
        <time>2022-06-09T21:51:31Z</time>
      </trkpt>
      <trkpt lat="44.49295" lon="5.62489">
        <ele>1308</ele>
        <time>2022-06-09T21:51:32Z</time>
      </trkpt>
      <trkpt lat="44.49296" lon="5.62484">
        <ele>1308</ele>
        <time>2022-06-09T21:51:33Z</time>
      </trkpt>
      <trkpt lat="44.49286" lon="5.62483">
        <ele>1307</ele>
        <time>2022-06-09T21:51:35Z</time>
      </trkpt>
      <trkpt lat="44.49283" lon="5.62485">
        <ele>1307</ele>
        <time>2022-06-09T21:51:36Z</time>
      </trkpt>
      <trkpt lat="44.49306" lon="5.62494">
        <ele>1309</ele>
        <time>2022-06-09T21:51:41Z</time>
      </trkpt>
      <trkpt lat="44.49332" lon="5.62496">
        <ele>1312</ele>
        <time>2022-06-09T21:51:47Z</time>
      </trkpt>
      <trkpt lat="44.49341" lon="5.62492">
        <ele>1313</ele>
        <time>2022-06-09T21:51:50Z</time>
      </trkpt>
      <trkpt lat="44.49388" lon="5.62486">
        <ele>1321</ele>
        <time>2022-06-09T21:52:01Z</time>
      </trkpt>
      <trkpt lat="44.49396" lon="5.62487">
        <ele>1322</ele>
        <time>2022-06-09T21:52:03Z</time>
      </trkpt>
      <trkpt lat="44.49401" lon="5.62484">
        <ele>1323</ele>
        <time>2022-06-09T21:52:04Z</time>
      </trkpt>
      <trkpt lat="44.49402" lon="5.62479">
        <ele>1323</ele>
        <time>2022-06-09T21:52:05Z</time>
      </trkpt>
      <trkpt lat="44.49409" lon="5.62476">
        <ele>1324</ele>
        <time>2022-06-09T21:52:06Z</time>
      </trkpt>
      <trkpt lat="44.49417" lon="5.6248">
        <ele>1326</ele>
        <time>2022-06-09T21:52:08Z</time>
      </trkpt>
      <trkpt lat="44.49443" lon="5.62502">
        <ele>1329</ele>
        <time>2022-06-09T21:52:15Z</time>
      </trkpt>
      <trkpt lat="44.49448" lon="5.62499">
        <ele>1331</ele>
        <time>2022-06-09T21:52:17Z</time>
      </trkpt>
      <trkpt lat="44.49457" lon="5.62504">
        <ele>1331</ele>
        <time>2022-06-09T21:52:19Z</time>
      </trkpt>
      <trkpt lat="44.49476" lon="5.62502">
        <ele>1335</ele>
        <time>2022-06-09T21:52:23Z</time>
      </trkpt>
      <trkpt lat="44.49507" lon="5.62515">
        <ele>1334</ele>
        <time>2022-06-09T21:52:31Z</time>
      </trkpt>
      <trkpt lat="44.49555" lon="5.62528">
        <ele>1333</ele>
        <time>2022-06-09T21:52:42Z</time>
      </trkpt>
      <trkpt lat="44.49584" lon="5.62543">
        <ele>1334</ele>
        <time>2022-06-09T21:52:50Z</time>
      </trkpt>
      <trkpt lat="44.49601" lon="5.62557">
        <ele>1334</ele>
        <time>2022-06-09T21:52:54Z</time>
      </trkpt>
      <trkpt lat="44.49659" lon="5.62587">
        <ele>1336</ele>
        <time>2022-06-09T21:53:09Z</time>
      </trkpt>
      <trkpt lat="44.49687" lon="5.62611">
        <ele>1329</ele>
        <time>2022-06-09T21:53:16Z</time>
      </trkpt>
      <trkpt lat="44.49704" lon="5.62617">
        <ele>1328</ele>
        <time>2022-06-09T21:53:20Z</time>
      </trkpt>
      <trkpt lat="44.4971" lon="5.62623">
        <ele>1327</ele>
        <time>2022-06-09T21:53:22Z</time>
      </trkpt>
      <trkpt lat="44.4973" lon="5.62624">
        <ele>1328</ele>
        <time>2022-06-09T21:53:27Z</time>
      </trkpt>
      <trkpt lat="44.4976" lon="5.62619">
        <ele>1329</ele>
        <time>2022-06-09T21:53:34Z</time>
      </trkpt>
      <trkpt lat="44.49771" lon="5.62621">
        <ele>1329</ele>
        <time>2022-06-09T21:53:36Z</time>
      </trkpt>
      <trkpt lat="44.49791" lon="5.6263">
        <ele>1329</ele>
        <time>2022-06-09T21:53:41Z</time>
      </trkpt>
      <trkpt lat="44.49798" lon="5.62629">
        <ele>1330</ele>
        <time>2022-06-09T21:53:43Z</time>
      </trkpt>
      <trkpt lat="44.49893" lon="5.62679">
        <ele>1329</ele>
        <time>2022-06-09T21:54:07Z</time>
      </trkpt>
      <trkpt lat="44.49905" lon="5.62692">
        <ele>1329</ele>
        <time>2022-06-09T21:54:10Z</time>
      </trkpt>
      <trkpt lat="44.49907" lon="5.62698">
        <ele>1328</ele>
        <time>2022-06-09T21:54:11Z</time>
      </trkpt>
      <trkpt lat="44.49924" lon="5.62722">
        <ele>1329</ele>
        <time>2022-06-09T21:54:17Z</time>
      </trkpt>
      <trkpt lat="44.49927" lon="5.62732">
        <ele>1329</ele>
        <time>2022-06-09T21:54:19Z</time>
      </trkpt>
      <trkpt lat="44.4994" lon="5.62744">
        <ele>1330</ele>
        <time>2022-06-09T21:54:22Z</time>
      </trkpt>
      <trkpt lat="44.49947" lon="5.62759">
        <ele>1329</ele>
        <time>2022-06-09T21:54:25Z</time>
      </trkpt>
      <trkpt lat="44.49962" lon="5.62775">
        <ele>1330</ele>
        <time>2022-06-09T21:54:30Z</time>
      </trkpt>
      <trkpt lat="44.49968" lon="5.62792">
        <ele>1329</ele>
        <time>2022-06-09T21:54:33Z</time>
      </trkpt>
      <trkpt lat="44.49981" lon="5.62812">
        <ele>1331</ele>
        <time>2022-06-09T21:54:37Z</time>
      </trkpt>
      <trkpt lat="44.49986" lon="5.62817">
        <ele>1332</ele>
        <time>2022-06-09T21:54:39Z</time>
      </trkpt>
      <trkpt lat="44.50009" lon="5.62826">
        <ele>1336</ele>
        <time>2022-06-09T21:54:44Z</time>
      </trkpt>
      <trkpt lat="44.50034" lon="5.62851">
        <ele>1332</ele>
        <time>2022-06-09T21:54:52Z</time>
      </trkpt>
      <trkpt lat="44.50057" lon="5.62868">
        <ele>1330</ele>
        <time>2022-06-09T21:54:58Z</time>
      </trkpt>
      <trkpt lat="44.50067" lon="5.62894">
        <ele>1329</ele>
        <time>2022-06-09T21:55:03Z</time>
      </trkpt>
      <trkpt lat="44.50103" lon="5.62957">
        <ele>1324</ele>
        <time>2022-06-09T21:55:16Z</time>
      </trkpt>
      <trkpt lat="44.50113" lon="5.62972">
        <ele>1324</ele>
        <time>2022-06-09T21:55:20Z</time>
      </trkpt>
      <trkpt lat="44.50122" lon="5.6298">
        <ele>1325</ele>
        <time>2022-06-09T21:55:22Z</time>
      </trkpt>
      <trkpt lat="44.50134" lon="5.63001">
        <ele>1326</ele>
        <time>2022-06-09T21:55:26Z</time>
      </trkpt>
      <trkpt lat="44.50145" lon="5.63024">
        <ele>1328</ele>
        <time>2022-06-09T21:55:31Z</time>
      </trkpt>
      <trkpt lat="44.50161" lon="5.6308">
        <ele>1333</ele>
        <time>2022-06-09T21:55:41Z</time>
      </trkpt>
      <trkpt lat="44.50176" lon="5.63148">
        <ele>1331</ele>
        <time>2022-06-09T21:55:53Z</time>
      </trkpt>
      <trkpt lat="44.50181" lon="5.63191">
        <ele>1327</ele>
        <time>2022-06-09T21:56:00Z</time>
      </trkpt>
      <trkpt lat="44.50208" lon="5.6325">
        <ele>1321</ele>
        <time>2022-06-09T21:56:12Z</time>
      </trkpt>
      <trkpt lat="44.50225" lon="5.63267">
        <ele>1321</ele>
        <time>2022-06-09T21:56:17Z</time>
      </trkpt>
      <trkpt lat="44.50227" lon="5.63284">
        <ele>1319</ele>
        <time>2022-06-09T21:56:20Z</time>
      </trkpt>
      <trkpt lat="44.50236" lon="5.63307">
        <ele>1319</ele>
        <time>2022-06-09T21:56:24Z</time>
      </trkpt>
      <trkpt lat="44.50245" lon="5.63343">
        <ele>1319</ele>
        <time>2022-06-09T21:56:30Z</time>
      </trkpt>
      <trkpt lat="44.50258" lon="5.63381">
        <ele>1316</ele>
        <time>2022-06-09T21:56:37Z</time>
      </trkpt>
      <trkpt lat="44.5026" lon="5.63397">
        <ele>1314</ele>
        <time>2022-06-09T21:56:40Z</time>
      </trkpt>
      <trkpt lat="44.50258" lon="5.6345">
        <ele>1310</ele>
        <time>2022-06-09T21:56:49Z</time>
      </trkpt>
      <trkpt lat="44.50235" lon="5.63536">
        <ele>1301</ele>
        <time>2022-06-09T21:57:04Z</time>
      </trkpt>
      <trkpt lat="44.50226" lon="5.636">
        <ele>1298</ele>
        <time>2022-06-09T21:57:15Z</time>
      </trkpt>
      <trkpt lat="44.50212" lon="5.63619">
        <ele>1293</ele>
        <time>2022-06-09T21:57:20Z</time>
      </trkpt>
      <trkpt lat="44.50211" lon="5.63634">
        <ele>1294</ele>
        <time>2022-06-09T21:57:22Z</time>
      </trkpt>
      <trkpt lat="44.50206" lon="5.6365">
        <ele>1293</ele>
        <time>2022-06-09T21:57:25Z</time>
      </trkpt>
      <trkpt lat="44.50212" lon="5.63672">
        <ele>1294</ele>
        <time>2022-06-09T21:57:29Z</time>
      </trkpt>
      <trkpt lat="44.50219" lon="5.63684">
        <ele>1293</ele>
        <time>2022-06-09T21:57:32Z</time>
      </trkpt>
      <trkpt lat="44.50223" lon="5.63707">
        <ele>1291</ele>
        <time>2022-06-09T21:57:36Z</time>
      </trkpt>
      <trkpt lat="44.50215" lon="5.63816">
        <ele>1278</ele>
        <time>2022-06-09T21:57:54Z</time>
      </trkpt>
      <trkpt lat="44.50219" lon="5.63836">
        <ele>1277</ele>
        <time>2022-06-09T21:57:57Z</time>
      </trkpt>
      <trkpt lat="44.50215" lon="5.63867">
        <ele>1278</ele>
        <time>2022-06-09T21:58:03Z</time>
      </trkpt>
      <trkpt lat="44.50209" lon="5.63881">
        <ele>1279</ele>
        <time>2022-06-09T21:58:05Z</time>
      </trkpt>
      <trkpt lat="44.50198" lon="5.63934">
        <ele>1282</ele>
        <time>2022-06-09T21:58:14Z</time>
      </trkpt>
      <trkpt lat="44.50189" lon="5.63948">
        <ele>1283</ele>
        <time>2022-06-09T21:58:18Z</time>
      </trkpt>
      <trkpt lat="44.50188" lon="5.63974">
        <ele>1286</ele>
        <time>2022-06-09T21:58:22Z</time>
      </trkpt>
      <trkpt lat="44.50185" lon="5.63986">
        <ele>1287</ele>
        <time>2022-06-09T21:58:24Z</time>
      </trkpt>
      <trkpt lat="44.50185" lon="5.63994">
        <ele>1288</ele>
        <time>2022-06-09T21:58:25Z</time>
      </trkpt>
      <trkpt lat="44.50191" lon="5.64012">
        <ele>1291</ele>
        <time>2022-06-09T21:58:29Z</time>
      </trkpt>
      <trkpt lat="44.50208" lon="5.64026">
        <ele>1296</ele>
        <time>2022-06-09T21:58:33Z</time>
      </trkpt>
      <trkpt lat="44.50211" lon="5.64079">
        <ele>1304</ele>
        <time>2022-06-09T21:58:42Z</time>
      </trkpt>
      <trkpt lat="44.50219" lon="5.64092">
        <ele>1307</ele>
        <time>2022-06-09T21:58:45Z</time>
      </trkpt>
      <trkpt lat="44.50222" lon="5.64107">
        <ele>1308</ele>
        <time>2022-06-09T21:58:48Z</time>
      </trkpt>
      <trkpt lat="44.50226" lon="5.64112">
        <ele>1309</ele>
        <time>2022-06-09T21:58:49Z</time>
      </trkpt>
      <trkpt lat="44.50229" lon="5.64133">
        <ele>1310</ele>
        <time>2022-06-09T21:58:52Z</time>
      </trkpt>
      <trkpt lat="44.50227" lon="5.64209">
        <ele>1314</ele>
        <time>2022-06-09T21:59:05Z</time>
      </trkpt>
      <trkpt lat="44.50223" lon="5.64236">
        <ele>1316</ele>
        <time>2022-06-09T21:59:10Z</time>
      </trkpt>
      <trkpt lat="44.50224" lon="5.64269">
        <ele>1321</ele>
        <time>2022-06-09T21:59:15Z</time>
      </trkpt>
      <trkpt lat="44.50218" lon="5.64279">
        <ele>1321</ele>
        <time>2022-06-09T21:59:17Z</time>
      </trkpt>
      <trkpt lat="44.50217" lon="5.64288">
        <ele>1323</ele>
        <time>2022-06-09T21:59:19Z</time>
      </trkpt>
      <trkpt lat="44.50219" lon="5.64319">
        <ele>1329</ele>
        <time>2022-06-09T21:59:24Z</time>
      </trkpt>
      <trkpt lat="44.50216" lon="5.64328">
        <ele>1330</ele>
        <time>2022-06-09T21:59:26Z</time>
      </trkpt>
      <trkpt lat="44.50218" lon="5.64344">
        <ele>1332</ele>
        <time>2022-06-09T21:59:28Z</time>
      </trkpt>
      <trkpt lat="44.50215" lon="5.64356">
        <ele>1334</ele>
        <time>2022-06-09T21:59:31Z</time>
      </trkpt>
      <trkpt lat="44.50212" lon="5.64356">
        <ele>1333</ele>
        <time>2022-06-09T21:59:31Z</time>
      </trkpt>
      <trkpt lat="44.50209" lon="5.64361">
        <ele>1334</ele>
        <time>2022-06-09T21:59:32Z</time>
      </trkpt>
      <trkpt lat="44.50208" lon="5.64377">
        <ele>1337</ele>
        <time>2022-06-09T21:59:35Z</time>
      </trkpt>
      <trkpt lat="44.50199" lon="5.64398">
        <ele>1340</ele>
        <time>2022-06-09T21:59:39Z</time>
      </trkpt>
      <trkpt lat="44.502" lon="5.64409">
        <ele>1342</ele>
        <time>2022-06-09T21:59:41Z</time>
      </trkpt>
      <trkpt lat="44.50194" lon="5.64429">
        <ele>1344</ele>
        <time>2022-06-09T21:59:45Z</time>
      </trkpt>
      <trkpt lat="44.50172" lon="5.64477">
        <ele>1351</ele>
        <time>2022-06-09T21:59:54Z</time>
      </trkpt>
      <trkpt lat="44.50167" lon="5.64482">
        <ele>1353</ele>
        <time>2022-06-09T21:59:55Z</time>
      </trkpt>
      <trkpt lat="44.5015" lon="5.64519">
        <ele>1352</ele>
        <time>2022-06-09T22:00:03Z</time>
      </trkpt>
      <trkpt lat="44.50129" lon="5.6455">
        <ele>1351</ele>
        <time>2022-06-09T22:00:10Z</time>
      </trkpt>
      <trkpt lat="44.50118" lon="5.64572">
        <ele>1352</ele>
        <time>2022-06-09T22:00:14Z</time>
      </trkpt>
      <trkpt lat="44.50111" lon="5.6458">
        <ele>1354</ele>
        <time>2022-06-09T22:00:16Z</time>
      </trkpt>
      <trkpt lat="44.50094" lon="5.64617">
        <ele>1355</ele>
        <time>2022-06-09T22:00:24Z</time>
      </trkpt>
      <trkpt lat="44.5008" lon="5.64636">
        <ele>1357</ele>
        <time>2022-06-09T22:00:28Z</time>
      </trkpt>
      <trkpt lat="44.50071" lon="5.64653">
        <ele>1355</ele>
        <time>2022-06-09T22:00:32Z</time>
      </trkpt>
      <trkpt lat="44.50066" lon="5.64675">
        <ele>1352</ele>
        <time>2022-06-09T22:00:36Z</time>
      </trkpt>
      <trkpt lat="44.50059" lon="5.64682">
        <ele>1351</ele>
        <time>2022-06-09T22:00:38Z</time>
      </trkpt>
      <trkpt lat="44.50059" lon="5.64699">
        <ele>1349</ele>
        <time>2022-06-09T22:00:41Z</time>
      </trkpt>
      <trkpt lat="44.50038" lon="5.64725">
        <ele>1347</ele>
        <time>2022-06-09T22:00:47Z</time>
      </trkpt>
      <trkpt lat="44.50036" lon="5.64736">
        <ele>1347</ele>
        <time>2022-06-09T22:00:49Z</time>
      </trkpt>
      <trkpt lat="44.50028" lon="5.64751">
        <ele>1348</ele>
        <time>2022-06-09T22:00:52Z</time>
      </trkpt>
      <trkpt lat="44.50011" lon="5.6477">
        <ele>1350</ele>
        <time>2022-06-09T22:00:57Z</time>
      </trkpt>
      <trkpt lat="44.5" lon="5.648">
        <ele>1351</ele>
        <time>2022-06-09T22:01:03Z</time>
      </trkpt>
      <trkpt lat="44.49987" lon="5.6482">
        <ele>1345</ele>
        <time>2022-06-09T22:01:07Z</time>
      </trkpt>
      <trkpt lat="44.49978" lon="5.64842">
        <ele>1340</ele>
        <time>2022-06-09T22:01:12Z</time>
      </trkpt>
      <trkpt lat="44.49956" lon="5.64882">
        <ele>1333</ele>
        <time>2022-06-09T22:01:20Z</time>
      </trkpt>
      <trkpt lat="44.49953" lon="5.64896">
        <ele>1332</ele>
        <time>2022-06-09T22:01:22Z</time>
      </trkpt>
      <trkpt lat="44.49941" lon="5.64919">
        <ele>1332</ele>
        <time>2022-06-09T22:01:27Z</time>
      </trkpt>
      <trkpt lat="44.49938" lon="5.64951">
        <ele>1334</ele>
        <time>2022-06-09T22:01:33Z</time>
      </trkpt>
      <trkpt lat="44.49932" lon="5.64955">
        <ele>1335</ele>
        <time>2022-06-09T22:01:34Z</time>
      </trkpt>
      <trkpt lat="44.49929" lon="5.64963">
        <ele>1336</ele>
        <time>2022-06-09T22:01:36Z</time>
      </trkpt>
      <trkpt lat="44.49931" lon="5.64971">
        <ele>1337</ele>
        <time>2022-06-09T22:01:37Z</time>
      </trkpt>
      <trkpt lat="44.49923" lon="5.64993">
        <ele>1340</ele>
        <time>2022-06-09T22:01:41Z</time>
      </trkpt>
      <trkpt lat="44.49922" lon="5.65007">
        <ele>1341</ele>
        <time>2022-06-09T22:01:43Z</time>
      </trkpt>
      <trkpt lat="44.49918" lon="5.65011">
        <ele>1342</ele>
        <time>2022-06-09T22:01:45Z</time>
      </trkpt>
      <trkpt lat="44.49915" lon="5.65035">
        <ele>1342</ele>
        <time>2022-06-09T22:01:49Z</time>
      </trkpt>
      <trkpt lat="44.4991" lon="5.65046">
        <ele>1340</ele>
        <time>2022-06-09T22:01:51Z</time>
      </trkpt>
      <trkpt lat="44.49907" lon="5.65048">
        <ele>1339</ele>
        <time>2022-06-09T22:01:52Z</time>
      </trkpt>
      <trkpt lat="44.49907" lon="5.65053">
        <ele>1340</ele>
        <time>2022-06-09T22:01:52Z</time>
      </trkpt>
      <trkpt lat="44.49902" lon="5.65063">
        <ele>1338</ele>
        <time>2022-06-09T22:01:54Z</time>
      </trkpt>
      <trkpt lat="44.49889" lon="5.65075">
        <ele>1336</ele>
        <time>2022-06-09T22:01:58Z</time>
      </trkpt>
      <trkpt lat="44.49874" lon="5.65099">
        <ele>1332</ele>
        <time>2022-06-09T22:02:03Z</time>
      </trkpt>
      <trkpt lat="44.49877" lon="5.65099">
        <ele>1333</ele>
        <time>2022-06-09T22:02:04Z</time>
      </trkpt>
      <trkpt lat="44.49877" lon="5.65102">
        <ele>1333</ele>
        <time>2022-06-09T22:02:05Z</time>
      </trkpt>
      <trkpt lat="44.49888" lon="5.65109">
        <ele>1334</ele>
        <time>2022-06-09T22:02:07Z</time>
      </trkpt>
      <trkpt lat="44.49896" lon="5.65105">
        <ele>1335</ele>
        <time>2022-06-09T22:02:09Z</time>
      </trkpt>
      <trkpt lat="44.49903" lon="5.65106">
        <ele>1336</ele>
        <time>2022-06-09T22:02:11Z</time>
      </trkpt>
      <trkpt lat="44.4992" lon="5.65099">
        <ele>1339</ele>
        <time>2022-06-09T22:02:15Z</time>
      </trkpt>
      <trkpt lat="44.49926" lon="5.65089">
        <ele>1339</ele>
        <time>2022-06-09T22:02:17Z</time>
      </trkpt>
      <trkpt lat="44.49929" lon="5.65092">
        <ele>1337</ele>
        <time>2022-06-09T22:02:18Z</time>
      </trkpt>
      <trkpt lat="44.49939" lon="5.65084">
        <ele>1336</ele>
        <time>2022-06-09T22:02:21Z</time>
      </trkpt>
      <trkpt lat="44.49944" lon="5.6506">
        <ele>1336</ele>
        <time>2022-06-09T22:02:25Z</time>
      </trkpt>
      <trkpt lat="44.49951" lon="5.65051">
        <ele>1334</ele>
        <time>2022-06-09T22:02:27Z</time>
      </trkpt>
      <trkpt lat="44.49951" lon="5.65028">
        <ele>1335</ele>
        <time>2022-06-09T22:02:31Z</time>
      </trkpt>
      <trkpt lat="44.49962" lon="5.6495">
        <ele>1333</ele>
        <time>2022-06-09T22:02:44Z</time>
      </trkpt>
      <trkpt lat="44.49968" lon="5.64928">
        <ele>1332</ele>
        <time>2022-06-09T22:02:48Z</time>
      </trkpt>
      <trkpt lat="44.49971" lon="5.64923">
        <ele>1332</ele>
        <time>2022-06-09T22:02:49Z</time>
      </trkpt>
      <trkpt lat="44.4998" lon="5.64917">
        <ele>1333</ele>
        <time>2022-06-09T22:02:52Z</time>
      </trkpt>
      <trkpt lat="44.49971" lon="5.64925">
        <ele>1332</ele>
        <time>2022-06-09T22:02:54Z</time>
      </trkpt>
      <trkpt lat="44.49967" lon="5.64923">
        <ele>1332</ele>
        <time>2022-06-09T22:02:55Z</time>
      </trkpt>
      <trkpt lat="44.49961" lon="5.64939">
        <ele>1333</ele>
        <time>2022-06-09T22:02:58Z</time>
      </trkpt>
      <trkpt lat="44.49958" lon="5.6494">
        <ele>1333</ele>
        <time>2022-06-09T22:02:59Z</time>
      </trkpt>
      <trkpt lat="44.49958" lon="5.64979">
        <ele>1334</ele>
        <time>2022-06-09T22:03:05Z</time>
      </trkpt>
      <trkpt lat="44.49949" lon="5.65007">
        <ele>1336</ele>
        <time>2022-06-09T22:03:11Z</time>
      </trkpt>
      <trkpt lat="44.4995" lon="5.65012">
        <ele>1336</ele>
        <time>2022-06-09T22:03:11Z</time>
      </trkpt>
      <trkpt lat="44.49946" lon="5.6503">
        <ele>1336</ele>
        <time>2022-06-09T22:03:15Z</time>
      </trkpt>
      <trkpt lat="44.49947" lon="5.6505">
        <ele>1335</ele>
        <time>2022-06-09T22:03:18Z</time>
      </trkpt>
      <trkpt lat="44.49942" lon="5.65068">
        <ele>1336</ele>
        <time>2022-06-09T22:03:21Z</time>
      </trkpt>
      <trkpt lat="44.49928" lon="5.65088">
        <ele>1338</ele>
        <time>2022-06-09T22:03:26Z</time>
      </trkpt>
      <trkpt lat="44.49909" lon="5.65097">
        <ele>1339</ele>
        <time>2022-06-09T22:03:30Z</time>
      </trkpt>
      <trkpt lat="44.49905" lon="5.65104">
        <ele>1337</ele>
        <time>2022-06-09T22:03:32Z</time>
      </trkpt>
      <trkpt lat="44.49906" lon="5.65114">
        <ele>1336</ele>
        <time>2022-06-09T22:03:34Z</time>
      </trkpt>
      <trkpt lat="44.4992" lon="5.65135">
        <ele>1333</ele>
        <time>2022-06-09T22:03:38Z</time>
      </trkpt>
      <trkpt lat="44.49927" lon="5.65153">
        <ele>1328</ele>
        <time>2022-06-09T22:03:42Z</time>
      </trkpt>
      <trkpt lat="44.49934" lon="5.65185">
        <ele>1318</ele>
        <time>2022-06-09T22:03:47Z</time>
      </trkpt>
      <trkpt lat="44.49931" lon="5.65197">
        <ele>1315</ele>
        <time>2022-06-09T22:03:50Z</time>
      </trkpt>
      <trkpt lat="44.49934" lon="5.6521">
        <ele>1310</ele>
        <time>2022-06-09T22:03:52Z</time>
      </trkpt>
      <trkpt lat="44.49933" lon="5.65222">
        <ele>1306</ele>
        <time>2022-06-09T22:03:54Z</time>
      </trkpt>
      <trkpt lat="44.49935" lon="5.65227">
        <ele>1304</ele>
        <time>2022-06-09T22:03:55Z</time>
      </trkpt>
      <trkpt lat="44.49946" lon="5.65237">
        <ele>1298</ele>
        <time>2022-06-09T22:03:58Z</time>
      </trkpt>
      <trkpt lat="44.49958" lon="5.65241">
        <ele>1295</ele>
        <time>2022-06-09T22:04:01Z</time>
      </trkpt>
      <trkpt lat="44.49971" lon="5.65238">
        <ele>1293</ele>
        <time>2022-06-09T22:04:04Z</time>
      </trkpt>
      <trkpt lat="44.49979" lon="5.65242">
        <ele>1290</ele>
        <time>2022-06-09T22:04:06Z</time>
      </trkpt>
      <trkpt lat="44.49979" lon="5.65247">
        <ele>1289</ele>
        <time>2022-06-09T22:04:07Z</time>
      </trkpt>
      <trkpt lat="44.49976" lon="5.65251">
        <ele>1288</ele>
        <time>2022-06-09T22:04:08Z</time>
      </trkpt>
      <trkpt lat="44.49989" lon="5.65274">
        <ele>1283</ele>
        <time>2022-06-09T22:04:12Z</time>
      </trkpt>
      <trkpt lat="44.50013" lon="5.65305">
        <ele>1274</ele>
        <time>2022-06-09T22:04:20Z</time>
      </trkpt>
      <trkpt lat="44.50019" lon="5.65316">
        <ele>1272</ele>
        <time>2022-06-09T22:04:22Z</time>
      </trkpt>
      <trkpt lat="44.50041" lon="5.6536">
        <ele>1266</ele>
        <time>2022-06-09T22:04:31Z</time>
      </trkpt>
      <trkpt lat="44.50054" lon="5.65399">
        <ele>1265</ele>
        <time>2022-06-09T22:04:39Z</time>
      </trkpt>
      <trkpt lat="44.50074" lon="5.65409">
        <ele>1266</ele>
        <time>2022-06-09T22:04:43Z</time>
      </trkpt>
      <trkpt lat="44.50083" lon="5.65431">
        <ele>1268</ele>
        <time>2022-06-09T22:04:48Z</time>
      </trkpt>
      <trkpt lat="44.50081" lon="5.65436">
        <ele>1268</ele>
        <time>2022-06-09T22:04:49Z</time>
      </trkpt>
      <trkpt lat="44.50087" lon="5.65445">
        <ele>1270</ele>
        <time>2022-06-09T22:04:51Z</time>
      </trkpt>
      <trkpt lat="44.50088" lon="5.65443">
        <ele>1270</ele>
        <time>2022-06-09T22:04:51Z</time>
      </trkpt>
      <trkpt lat="44.5009" lon="5.65444">
        <ele>1270</ele>
        <time>2022-06-09T22:04:52Z</time>
      </trkpt>
      <trkpt lat="44.50093" lon="5.65453">
        <ele>1271</ele>
        <time>2022-06-09T22:04:53Z</time>
      </trkpt>
      <trkpt lat="44.50098" lon="5.65457">
        <ele>1272</ele>
        <time>2022-06-09T22:04:55Z</time>
      </trkpt>
      <trkpt lat="44.50104" lon="5.65468">
        <ele>1275</ele>
        <time>2022-06-09T22:04:57Z</time>
      </trkpt>
      <trkpt lat="44.50112" lon="5.65473">
        <ele>1277</ele>
        <time>2022-06-09T22:04:59Z</time>
      </trkpt>
      <trkpt lat="44.50115" lon="5.65486">
        <ele>1280</ele>
        <time>2022-06-09T22:05:01Z</time>
      </trkpt>
      <trkpt lat="44.50121" lon="5.65497">
        <ele>1283</ele>
        <time>2022-06-09T22:05:04Z</time>
      </trkpt>
      <trkpt lat="44.50125" lon="5.65498">
        <ele>1284</ele>
        <time>2022-06-09T22:05:05Z</time>
      </trkpt>
      <trkpt lat="44.50126" lon="5.65496">
        <ele>1284</ele>
        <time>2022-06-09T22:05:05Z</time>
      </trkpt>
      <trkpt lat="44.50136" lon="5.65504">
        <ele>1288</ele>
        <time>2022-06-09T22:05:08Z</time>
      </trkpt>
      <trkpt lat="44.50138" lon="5.65525">
        <ele>1293</ele>
        <time>2022-06-09T22:05:11Z</time>
      </trkpt>
      <trkpt lat="44.50149" lon="5.65531">
        <ele>1299</ele>
        <time>2022-06-09T22:05:14Z</time>
      </trkpt>
      <trkpt lat="44.50145" lon="5.65534">
        <ele>1298</ele>
        <time>2022-06-09T22:05:15Z</time>
      </trkpt>
      <trkpt lat="44.50149" lon="5.65544">
        <ele>1302</ele>
        <time>2022-06-09T22:05:17Z</time>
      </trkpt>
      <trkpt lat="44.50154" lon="5.65547">
        <ele>1305</ele>
        <time>2022-06-09T22:05:18Z</time>
      </trkpt>
      <trkpt lat="44.5016" lon="5.65544">
        <ele>1306</ele>
        <time>2022-06-09T22:05:20Z</time>
      </trkpt>
      <trkpt lat="44.50155" lon="5.6555">
        <ele>1306</ele>
        <time>2022-06-09T22:05:21Z</time>
      </trkpt>
      <trkpt lat="44.50155" lon="5.65553">
        <ele>1307</ele>
        <time>2022-06-09T22:05:22Z</time>
      </trkpt>
      <trkpt lat="44.50165" lon="5.65561">
        <ele>1314</ele>
        <time>2022-06-09T22:05:24Z</time>
      </trkpt>
      <trkpt lat="44.50163" lon="5.65562">
        <ele>1313</ele>
        <time>2022-06-09T22:05:25Z</time>
      </trkpt>
      <trkpt lat="44.50164" lon="5.6556">
        <ele>1313</ele>
        <time>2022-06-09T22:05:25Z</time>
      </trkpt>
      <trkpt lat="44.50159" lon="5.65557">
        <ele>1310</ele>
        <time>2022-06-09T22:05:27Z</time>
      </trkpt>
      <trkpt lat="44.5016" lon="5.65566">
        <ele>1313</ele>
        <time>2022-06-09T22:05:28Z</time>
      </trkpt>
      <trkpt lat="44.50173" lon="5.65573">
        <ele>1319</ele>
        <time>2022-06-09T22:05:31Z</time>
      </trkpt>
      <trkpt lat="44.50174" lon="5.65585">
        <ele>1323</ele>
        <time>2022-06-09T22:05:33Z</time>
      </trkpt>
      <trkpt lat="44.50207" lon="5.65646">
        <ele>1347</ele>
        <time>2022-06-09T22:05:46Z</time>
      </trkpt>
      <trkpt lat="44.50214" lon="5.65648">
        <ele>1350</ele>
        <time>2022-06-09T22:05:48Z</time>
      </trkpt>
      <trkpt lat="44.50214" lon="5.65659">
        <ele>1353</ele>
        <time>2022-06-09T22:05:50Z</time>
      </trkpt>
      <trkpt lat="44.50225" lon="5.65672">
        <ele>1360</ele>
        <time>2022-06-09T22:05:53Z</time>
      </trkpt>
      <trkpt lat="44.50224" lon="5.65674">
        <ele>1360</ele>
        <time>2022-06-09T22:05:53Z</time>
      </trkpt>
      <trkpt lat="44.50241" lon="5.65699">
        <ele>1371</ele>
        <time>2022-06-09T22:05:59Z</time>
      </trkpt>
      <trkpt lat="44.50237" lon="5.65751">
        <ele>1380</ele>
        <time>2022-06-09T22:06:08Z</time>
      </trkpt>
      <trkpt lat="44.5024" lon="5.65774">
        <ele>1385</ele>
        <time>2022-06-09T22:06:12Z</time>
      </trkpt>
      <trkpt lat="44.50234" lon="5.65789">
        <ele>1386</ele>
        <time>2022-06-09T22:06:15Z</time>
      </trkpt>
      <trkpt lat="44.50235" lon="5.65802">
        <ele>1388</ele>
        <time>2022-06-09T22:06:17Z</time>
      </trkpt>
      <trkpt lat="44.50239" lon="5.65813">
        <ele>1391</ele>
        <time>2022-06-09T22:06:19Z</time>
      </trkpt>
      <trkpt lat="44.50234" lon="5.65871">
        <ele>1396</ele>
        <time>2022-06-09T22:06:29Z</time>
      </trkpt>
      <trkpt lat="44.50238" lon="5.6594">
        <ele>1401</ele>
        <time>2022-06-09T22:06:40Z</time>
      </trkpt>
      <trkpt lat="44.50226" lon="5.66004">
        <ele>1399</ele>
        <time>2022-06-09T22:06:51Z</time>
      </trkpt>
      <trkpt lat="44.50229" lon="5.66055">
        <ele>1404</ele>
        <time>2022-06-09T22:07:00Z</time>
      </trkpt>
      <trkpt lat="44.50224" lon="5.66063">
        <ele>1404</ele>
        <time>2022-06-09T22:07:01Z</time>
      </trkpt>
      <trkpt lat="44.50222" lon="5.66082">
        <ele>1406</ele>
        <time>2022-06-09T22:07:05Z</time>
      </trkpt>
      <trkpt lat="44.50216" lon="5.66106">
        <ele>1407</ele>
        <time>2022-06-09T22:07:09Z</time>
      </trkpt>
      <trkpt lat="44.50204" lon="5.66138">
        <ele>1409</ele>
        <time>2022-06-09T22:07:15Z</time>
      </trkpt>
      <trkpt lat="44.502" lon="5.66161">
        <ele>1410</ele>
        <time>2022-06-09T22:07:19Z</time>
      </trkpt>
      <trkpt lat="44.50193" lon="5.66183">
        <ele>1411</ele>
        <time>2022-06-09T22:07:23Z</time>
      </trkpt>
      <trkpt lat="44.50189" lon="5.66191">
        <ele>1412</ele>
        <time>2022-06-09T22:07:24Z</time>
      </trkpt>
      <trkpt lat="44.50173" lon="5.66208">
        <ele>1414</ele>
        <time>2022-06-09T22:07:29Z</time>
      </trkpt>
      <trkpt lat="44.50162" lon="5.6623">
        <ele>1414</ele>
        <time>2022-06-09T22:07:34Z</time>
      </trkpt>
      <trkpt lat="44.50146" lon="5.66245">
        <ele>1411</ele>
        <time>2022-06-09T22:07:38Z</time>
      </trkpt>
      <trkpt lat="44.50137" lon="5.66276">
        <ele>1405</ele>
        <time>2022-06-09T22:07:44Z</time>
      </trkpt>
      <trkpt lat="44.50144" lon="5.66294">
        <ele>1404</ele>
        <time>2022-06-09T22:07:47Z</time>
      </trkpt>
      <trkpt lat="44.50171" lon="5.66339">
        <ele>1402</ele>
        <time>2022-06-09T22:07:57Z</time>
      </trkpt>
      <trkpt lat="44.50173" lon="5.66346">
        <ele>1402</ele>
        <time>2022-06-09T22:07:58Z</time>
      </trkpt>
      <trkpt lat="44.50176" lon="5.6637">
        <ele>1400</ele>
        <time>2022-06-09T22:08:02Z</time>
      </trkpt>
      <trkpt lat="44.50173" lon="5.66409">
        <ele>1398</ele>
        <time>2022-06-09T22:08:09Z</time>
      </trkpt>
      <trkpt lat="44.50175" lon="5.66422">
        <ele>1398</ele>
        <time>2022-06-09T22:08:11Z</time>
      </trkpt>
      <trkpt lat="44.50183" lon="5.66439">
        <ele>1399</ele>
        <time>2022-06-09T22:08:14Z</time>
      </trkpt>
      <trkpt lat="44.50182" lon="5.66448">
        <ele>1399</ele>
        <time>2022-06-09T22:08:16Z</time>
      </trkpt>
      <trkpt lat="44.50186" lon="5.66463">
        <ele>1399</ele>
        <time>2022-06-09T22:08:18Z</time>
      </trkpt>
      <trkpt lat="44.50198" lon="5.66475">
        <ele>1399</ele>
        <time>2022-06-09T22:08:22Z</time>
      </trkpt>
      <trkpt lat="44.50201" lon="5.66473">
        <ele>1399</ele>
        <time>2022-06-09T22:08:23Z</time>
      </trkpt>
      <trkpt lat="44.50202" lon="5.66461">
        <ele>1400</ele>
        <time>2022-06-09T22:08:25Z</time>
      </trkpt>
      <trkpt lat="44.50206" lon="5.66457">
        <ele>1400</ele>
        <time>2022-06-09T22:08:26Z</time>
      </trkpt>
      <trkpt lat="44.50207" lon="5.6646">
        <ele>1400</ele>
        <time>2022-06-09T22:08:26Z</time>
      </trkpt>
      <trkpt lat="44.50212" lon="5.66458">
        <ele>1400</ele>
        <time>2022-06-09T22:08:28Z</time>
      </trkpt>
      <trkpt lat="44.50228" lon="5.66441">
        <ele>1402</ele>
        <time>2022-06-09T22:08:32Z</time>
      </trkpt>
      <trkpt lat="44.50249" lon="5.66431">
        <ele>1405</ele>
        <time>2022-06-09T22:08:37Z</time>
      </trkpt>
      <trkpt lat="44.50274" lon="5.66426">
        <ele>1400</ele>
        <time>2022-06-09T22:08:43Z</time>
      </trkpt>
      <trkpt lat="44.50284" lon="5.66417">
        <ele>1400</ele>
        <time>2022-06-09T22:08:46Z</time>
      </trkpt>
      <trkpt lat="44.50323" lon="5.66397">
        <ele>1391</ele>
        <time>2022-06-09T22:08:56Z</time>
      </trkpt>
      <trkpt lat="44.50331" lon="5.66397">
        <ele>1389</ele>
        <time>2022-06-09T22:08:58Z</time>
      </trkpt>
      <trkpt lat="44.50339" lon="5.66417">
        <ele>1389</ele>
        <time>2022-06-09T22:09:02Z</time>
      </trkpt>
      <trkpt lat="44.50338" lon="5.66414">
        <ele>1389</ele>
        <time>2022-06-09T22:09:02Z</time>
      </trkpt>
      <trkpt lat="44.50344" lon="5.66421">
        <ele>1386</ele>
        <time>2022-06-09T22:09:04Z</time>
      </trkpt>
      <trkpt lat="44.50363" lon="5.66412">
        <ele>1383</ele>
        <time>2022-06-09T22:09:09Z</time>
      </trkpt>
      <trkpt lat="44.5038" lon="5.66392">
        <ele>1380</ele>
        <time>2022-06-09T22:09:14Z</time>
      </trkpt>
      <trkpt lat="44.5039" lon="5.66389">
        <ele>1379</ele>
        <time>2022-06-09T22:09:16Z</time>
      </trkpt>
      <trkpt lat="44.50401" lon="5.66388">
        <ele>1377</ele>
        <time>2022-06-09T22:09:19Z</time>
      </trkpt>
      <trkpt lat="44.5041" lon="5.66395">
        <ele>1375</ele>
        <time>2022-06-09T22:09:21Z</time>
      </trkpt>
      <trkpt lat="44.50427" lon="5.66403">
        <ele>1369</ele>
        <time>2022-06-09T22:09:25Z</time>
      </trkpt>
      <trkpt lat="44.50446" lon="5.66404">
        <ele>1362</ele>
        <time>2022-06-09T22:09:30Z</time>
      </trkpt>
      <trkpt lat="44.50455" lon="5.66402">
        <ele>1359</ele>
        <time>2022-06-09T22:09:32Z</time>
      </trkpt>
      <trkpt lat="44.50463" lon="5.66393">
        <ele>1359</ele>
        <time>2022-06-09T22:09:34Z</time>
      </trkpt>
      <trkpt lat="44.50468" lon="5.66393">
        <ele>1358</ele>
        <time>2022-06-09T22:09:35Z</time>
      </trkpt>
      <trkpt lat="44.50477" lon="5.66401">
        <ele>1352</ele>
        <time>2022-06-09T22:09:38Z</time>
      </trkpt>
      <trkpt lat="44.50487" lon="5.66404">
        <ele>1348</ele>
        <time>2022-06-09T22:09:40Z</time>
      </trkpt>
      <trkpt lat="44.50509" lon="5.66397">
        <ele>1342</ele>
        <time>2022-06-09T22:09:46Z</time>
      </trkpt>
      <trkpt lat="44.50518" lon="5.66405">
        <ele>1335</ele>
        <time>2022-06-09T22:09:48Z</time>
      </trkpt>
      <trkpt lat="44.50527" lon="5.66397">
        <ele>1334</ele>
        <time>2022-06-09T22:09:51Z</time>
      </trkpt>
      <trkpt lat="44.5053" lon="5.66402">
        <ele>1331</ele>
        <time>2022-06-09T22:09:52Z</time>
      </trkpt>
      <trkpt lat="44.50533" lon="5.66421">
        <ele>1321</ele>
        <time>2022-06-09T22:09:55Z</time>
      </trkpt>
      <trkpt lat="44.50528" lon="5.66429">
        <ele>1319</ele>
        <time>2022-06-09T22:09:57Z</time>
      </trkpt>
      <trkpt lat="44.50521" lon="5.66456">
        <ele>1309</ele>
        <time>2022-06-09T22:10:01Z</time>
      </trkpt>
      <trkpt lat="44.50515" lon="5.66465">
        <ele>1307</ele>
        <time>2022-06-09T22:10:04Z</time>
      </trkpt>
      <trkpt lat="44.50507" lon="5.6649">
        <ele>1298</ele>
        <time>2022-06-09T22:10:08Z</time>
      </trkpt>
      <trkpt lat="44.50506" lon="5.66504">
        <ele>1292</ele>
        <time>2022-06-09T22:10:10Z</time>
      </trkpt>
      <trkpt lat="44.50511" lon="5.66504">
        <ele>1290</ele>
        <time>2022-06-09T22:10:12Z</time>
      </trkpt>
      <trkpt lat="44.5051" lon="5.66516">
        <ele>1285</ele>
        <time>2022-06-09T22:10:14Z</time>
      </trkpt>
      <trkpt lat="44.50505" lon="5.66525">
        <ele>1283</ele>
        <time>2022-06-09T22:10:16Z</time>
      </trkpt>
      <trkpt lat="44.50504" lon="5.6654">
        <ele>1277</ele>
        <time>2022-06-09T22:10:18Z</time>
      </trkpt>
      <trkpt lat="44.50479" lon="5.66579">
        <ele>1268</ele>
        <time>2022-06-09T22:10:27Z</time>
      </trkpt>
      <trkpt lat="44.50473" lon="5.6661">
        <ele>1257</ele>
        <time>2022-06-09T22:10:32Z</time>
      </trkpt>
      <trkpt lat="44.50465" lon="5.66619">
        <ele>1256</ele>
        <time>2022-06-09T22:10:34Z</time>
      </trkpt>
      <trkpt lat="44.50464" lon="5.66625">
        <ele>1254</ele>
        <time>2022-06-09T22:10:36Z</time>
      </trkpt>
      <trkpt lat="44.50453" lon="5.66638">
        <ele>1252</ele>
        <time>2022-06-09T22:10:39Z</time>
      </trkpt>
      <trkpt lat="44.50449" lon="5.66647">
        <ele>1249</ele>
        <time>2022-06-09T22:10:41Z</time>
      </trkpt>
      <trkpt lat="44.50425" lon="5.66662">
        <ele>1250</ele>
        <time>2022-06-09T22:10:47Z</time>
      </trkpt>
      <trkpt lat="44.5042" lon="5.66669">
        <ele>1249</ele>
        <time>2022-06-09T22:10:48Z</time>
      </trkpt>
      <trkpt lat="44.5042" lon="5.66665">
        <ele>1251</ele>
        <time>2022-06-09T22:10:49Z</time>
      </trkpt>
      <trkpt lat="44.50417" lon="5.66667">
        <ele>1251</ele>
        <time>2022-06-09T22:10:50Z</time>
      </trkpt>
      <trkpt lat="44.50384" lon="5.66703">
        <ele>1243</ele>
        <time>2022-06-09T22:11:00Z</time>
      </trkpt>
      <trkpt lat="44.50366" lon="5.66709">
        <ele>1244</ele>
        <time>2022-06-09T22:11:04Z</time>
      </trkpt>
      <trkpt lat="44.50357" lon="5.66721">
        <ele>1241</ele>
        <time>2022-06-09T22:11:07Z</time>
      </trkpt>
      <trkpt lat="44.50353" lon="5.66723">
        <ele>1241</ele>
        <time>2022-06-09T22:11:08Z</time>
      </trkpt>
      <trkpt lat="44.50327" lon="5.66726">
        <ele>1246</ele>
        <time>2022-06-09T22:11:14Z</time>
      </trkpt>
      <trkpt lat="44.50322" lon="5.66729">
        <ele>1246</ele>
        <time>2022-06-09T22:11:15Z</time>
      </trkpt>
      <trkpt lat="44.50312" lon="5.66742">
        <ele>1242</ele>
        <time>2022-06-09T22:11:18Z</time>
      </trkpt>
      <trkpt lat="44.503" lon="5.66747">
        <ele>1242</ele>
        <time>2022-06-09T22:11:21Z</time>
      </trkpt>
      <trkpt lat="44.50286" lon="5.66787">
        <ele>1228</ele>
        <time>2022-06-09T22:11:29Z</time>
      </trkpt>
      <trkpt lat="44.50276" lon="5.66796">
        <ele>1226</ele>
        <time>2022-06-09T22:11:32Z</time>
      </trkpt>
      <trkpt lat="44.50274" lon="5.66801">
        <ele>1225</ele>
        <time>2022-06-09T22:11:32Z</time>
      </trkpt>
      <trkpt lat="44.50265" lon="5.66827">
        <ele>1215</ele>
        <time>2022-06-09T22:11:37Z</time>
      </trkpt>
      <trkpt lat="44.50254" lon="5.66871">
        <ele>1202</ele>
        <time>2022-06-09T22:11:45Z</time>
      </trkpt>
      <trkpt lat="44.50247" lon="5.66936">
        <ele>1185</ele>
        <time>2022-06-09T22:11:56Z</time>
      </trkpt>
      <trkpt lat="44.50246" lon="5.66979">
        <ele>1175</ele>
        <time>2022-06-09T22:12:03Z</time>
      </trkpt>
      <trkpt lat="44.50251" lon="5.6702">
        <ele>1165</ele>
        <time>2022-06-09T22:12:10Z</time>
      </trkpt>
      <trkpt lat="44.50259" lon="5.67057">
        <ele>1156</ele>
        <time>2022-06-09T22:12:17Z</time>
      </trkpt>
      <trkpt lat="44.50282" lon="5.67119">
        <ele>1139</ele>
        <time>2022-06-09T22:12:28Z</time>
      </trkpt>
      <trkpt lat="44.50283" lon="5.67126">
        <ele>1138</ele>
        <time>2022-06-09T22:12:29Z</time>
      </trkpt>
      <trkpt lat="44.50276" lon="5.67147">
        <ele>1139</ele>
        <time>2022-06-09T22:12:33Z</time>
      </trkpt>
      <trkpt lat="44.50276" lon="5.67154">
        <ele>1138</ele>
        <time>2022-06-09T22:12:34Z</time>
      </trkpt>
      <trkpt lat="44.50281" lon="5.67168">
        <ele>1135</ele>
        <time>2022-06-09T22:12:37Z</time>
      </trkpt>
      <trkpt lat="44.50291" lon="5.67178">
        <ele>1130</ele>
        <time>2022-06-09T22:12:40Z</time>
      </trkpt>
      <trkpt lat="44.50299" lon="5.67193">
        <ele>1126</ele>
        <time>2022-06-09T22:12:43Z</time>
      </trkpt>
      <trkpt lat="44.50327" lon="5.67301">
        <ele>1107</ele>
        <time>2022-06-09T22:13:02Z</time>
      </trkpt>
      <trkpt lat="44.50344" lon="5.67345">
        <ele>1098</ele>
        <time>2022-06-09T22:13:10Z</time>
      </trkpt>
      <trkpt lat="44.50366" lon="5.67372">
        <ele>1087</ele>
        <time>2022-06-09T22:13:17Z</time>
      </trkpt>
      <trkpt lat="44.50369" lon="5.67372">
        <ele>1087</ele>
        <time>2022-06-09T22:13:18Z</time>
      </trkpt>
      <trkpt lat="44.50373" lon="5.67365">
        <ele>1089</ele>
        <time>2022-06-09T22:13:19Z</time>
      </trkpt>
      <trkpt lat="44.50384" lon="5.67358">
        <ele>1089</ele>
        <time>2022-06-09T22:13:22Z</time>
      </trkpt>
      <trkpt lat="44.50394" lon="5.67346">
        <ele>1091</ele>
        <time>2022-06-09T22:13:25Z</time>
      </trkpt>
      <trkpt lat="44.50393" lon="5.67322">
        <ele>1095</ele>
        <time>2022-06-09T22:13:29Z</time>
      </trkpt>
      <trkpt lat="44.50398" lon="5.67296">
        <ele>1097</ele>
        <time>2022-06-09T22:13:34Z</time>
      </trkpt>
      <trkpt lat="44.50395" lon="5.67272">
        <ele>1099</ele>
        <time>2022-06-09T22:13:38Z</time>
      </trkpt>
      <trkpt lat="44.5038" lon="5.67245">
        <ele>1104</ele>
        <time>2022-06-09T22:13:44Z</time>
      </trkpt>
      <trkpt lat="44.50369" lon="5.67235">
        <ele>1107</ele>
        <time>2022-06-09T22:13:47Z</time>
      </trkpt>
      <trkpt lat="44.50359" lon="5.67235">
        <ele>1109</ele>
        <time>2022-06-09T22:13:49Z</time>
      </trkpt>
      <trkpt lat="44.5035" lon="5.67224">
        <ele>1111</ele>
        <time>2022-06-09T22:13:52Z</time>
      </trkpt>
      <trkpt lat="44.50358" lon="5.67223">
        <ele>1110</ele>
        <time>2022-06-09T22:13:54Z</time>
      </trkpt>
      <trkpt lat="44.50361" lon="5.67213">
        <ele>1110</ele>
        <time>2022-06-09T22:13:56Z</time>
      </trkpt>
      <trkpt lat="44.50358" lon="5.67197">
        <ele>1112</ele>
        <time>2022-06-09T22:13:58Z</time>
      </trkpt>
      <trkpt lat="44.50361" lon="5.67186">
        <ele>1112</ele>
        <time>2022-06-09T22:14:00Z</time>
      </trkpt>
      <trkpt lat="44.50356" lon="5.67174">
        <ele>1114</ele>
        <time>2022-06-09T22:14:03Z</time>
      </trkpt>
      <trkpt lat="44.50351" lon="5.67169">
        <ele>1115</ele>
        <time>2022-06-09T22:14:04Z</time>
      </trkpt>
      <trkpt lat="44.50353" lon="5.67157">
        <ele>1115</ele>
        <time>2022-06-09T22:14:06Z</time>
      </trkpt>
      <trkpt lat="44.5035" lon="5.67153">
        <ele>1116</ele>
        <time>2022-06-09T22:14:07Z</time>
      </trkpt>
      <trkpt lat="44.50355" lon="5.67152">
        <ele>1115</ele>
        <time>2022-06-09T22:14:08Z</time>
      </trkpt>
      <trkpt lat="44.5036" lon="5.67144">
        <ele>1115</ele>
        <time>2022-06-09T22:14:10Z</time>
      </trkpt>
      <trkpt lat="44.50381" lon="5.671">
        <ele>1115</ele>
        <time>2022-06-09T22:14:19Z</time>
      </trkpt>
      <trkpt lat="44.50418" lon="5.67032">
        <ele>1117</ele>
        <time>2022-06-09T22:14:33Z</time>
      </trkpt>
      <trkpt lat="44.50422" lon="5.67017">
        <ele>1118</ele>
        <time>2022-06-09T22:14:36Z</time>
      </trkpt>
      <trkpt lat="44.50434" lon="5.66997">
        <ele>1119</ele>
        <time>2022-06-09T22:14:40Z</time>
      </trkpt>
      <trkpt lat="44.50443" lon="5.66986">
        <ele>1120</ele>
        <time>2022-06-09T22:14:43Z</time>
      </trkpt>
      <trkpt lat="44.50449" lon="5.66983">
        <ele>1119</ele>
        <time>2022-06-09T22:14:44Z</time>
      </trkpt>
      <trkpt lat="44.50454" lon="5.66985">
        <ele>1118</ele>
        <time>2022-06-09T22:14:46Z</time>
      </trkpt>
      <trkpt lat="44.50463" lon="5.66973">
        <ele>1119</ele>
        <time>2022-06-09T22:14:48Z</time>
      </trkpt>
      <trkpt lat="44.50469" lon="5.66969">
        <ele>1119</ele>
        <time>2022-06-09T22:14:50Z</time>
      </trkpt>
      <trkpt lat="44.50472" lon="5.66953">
        <ele>1123</ele>
        <time>2022-06-09T22:14:53Z</time>
      </trkpt>
      <trkpt lat="44.5049" lon="5.66918">
        <ele>1129</ele>
        <time>2022-06-09T22:15:00Z</time>
      </trkpt>
      <trkpt lat="44.50502" lon="5.66902">
        <ele>1131</ele>
        <time>2022-06-09T22:15:04Z</time>
      </trkpt>
      <trkpt lat="44.5054" lon="5.66871">
        <ele>1133</ele>
        <time>2022-06-09T22:15:14Z</time>
      </trkpt>
      <trkpt lat="44.50559" lon="5.6686">
        <ele>1131</ele>
        <time>2022-06-09T22:15:19Z</time>
      </trkpt>
      <trkpt lat="44.50582" lon="5.66855">
        <ele>1127</ele>
        <time>2022-06-09T22:15:24Z</time>
      </trkpt>
      <trkpt lat="44.50606" lon="5.66839">
        <ele>1121</ele>
        <time>2022-06-09T22:15:30Z</time>
      </trkpt>
      <trkpt lat="44.50635" lon="5.66799">
        <ele>1122</ele>
        <time>2022-06-09T22:15:40Z</time>
      </trkpt>
      <trkpt lat="44.50635" lon="5.66789">
        <ele>1126</ele>
        <time>2022-06-09T22:15:42Z</time>
      </trkpt>
      <trkpt lat="44.50646" lon="5.66778">
        <ele>1125</ele>
        <time>2022-06-09T22:15:45Z</time>
      </trkpt>
      <trkpt lat="44.50651" lon="5.66765">
        <ele>1128</ele>
        <time>2022-06-09T22:15:47Z</time>
      </trkpt>
      <trkpt lat="44.50661" lon="5.6676">
        <ele>1126</ele>
        <time>2022-06-09T22:15:50Z</time>
      </trkpt>
      <trkpt lat="44.50666" lon="5.66754">
        <ele>1126</ele>
        <time>2022-06-09T22:15:51Z</time>
      </trkpt>
      <trkpt lat="44.5067" lon="5.66747">
        <ele>1127</ele>
        <time>2022-06-09T22:15:53Z</time>
      </trkpt>
      <trkpt lat="44.50673" lon="5.6673">
        <ele>1133</ele>
        <time>2022-06-09T22:15:56Z</time>
      </trkpt>
      <trkpt lat="44.5068" lon="5.66713">
        <ele>1137</ele>
        <time>2022-06-09T22:15:59Z</time>
      </trkpt>
      <trkpt lat="44.50712" lon="5.66689">
        <ele>1136</ele>
        <time>2022-06-09T22:16:07Z</time>
      </trkpt>
      <trkpt lat="44.5072" lon="5.66692">
        <ele>1132</ele>
        <time>2022-06-09T22:16:09Z</time>
      </trkpt>
      <trkpt lat="44.50741" lon="5.66688">
        <ele>1126</ele>
        <time>2022-06-09T22:16:14Z</time>
      </trkpt>
      <trkpt lat="44.50744" lon="5.66689">
        <ele>1125</ele>
        <time>2022-06-09T22:16:15Z</time>
      </trkpt>
      <trkpt lat="44.50743" lon="5.66691">
        <ele>1124</ele>
        <time>2022-06-09T22:16:15Z</time>
      </trkpt>
      <trkpt lat="44.50753" lon="5.66683">
        <ele>1124</ele>
        <time>2022-06-09T22:16:18Z</time>
      </trkpt>
      <trkpt lat="44.50761" lon="5.66668">
        <ele>1127</ele>
        <time>2022-06-09T22:16:21Z</time>
      </trkpt>
      <trkpt lat="44.50789" lon="5.66645">
        <ele>1123</ele>
        <time>2022-06-09T22:16:29Z</time>
      </trkpt>
      <trkpt lat="44.50831" lon="5.66601">
        <ele>1118</ele>
        <time>2022-06-09T22:16:41Z</time>
      </trkpt>
      <trkpt lat="44.50851" lon="5.66572">
        <ele>1118</ele>
        <time>2022-06-09T22:16:48Z</time>
      </trkpt>
      <trkpt lat="44.50884" lon="5.66516">
        <ele>1124</ele>
        <time>2022-06-09T22:17:00Z</time>
      </trkpt>
      <trkpt lat="44.50904" lon="5.66494">
        <ele>1125</ele>
        <time>2022-06-09T22:17:06Z</time>
      </trkpt>
      <trkpt lat="44.50913" lon="5.66493">
        <ele>1122</ele>
        <time>2022-06-09T22:17:08Z</time>
      </trkpt>
      <trkpt lat="44.50924" lon="5.66485">
        <ele>1121</ele>
        <time>2022-06-09T22:17:11Z</time>
      </trkpt>
      <trkpt lat="44.50959" lon="5.66438">
        <ele>1120</ele>
        <time>2022-06-09T22:17:22Z</time>
      </trkpt>
      <trkpt lat="44.51001" lon="5.66409">
        <ele>1109</ele>
        <time>2022-06-09T22:17:33Z</time>
      </trkpt>
      <trkpt lat="44.51031" lon="5.66353">
        <ele>1111</ele>
        <time>2022-06-09T22:17:45Z</time>
      </trkpt>
      <trkpt lat="44.51041" lon="5.66343">
        <ele>1108</ele>
        <time>2022-06-09T22:17:48Z</time>
      </trkpt>
      <trkpt lat="44.5107" lon="5.66324">
        <ele>1099</ele>
        <time>2022-06-09T22:17:55Z</time>
      </trkpt>
      <trkpt lat="44.51077" lon="5.66325">
        <ele>1095</ele>
        <time>2022-06-09T22:17:57Z</time>
      </trkpt>
      <trkpt lat="44.51078" lon="5.66337">
        <ele>1091</ele>
        <time>2022-06-09T22:17:59Z</time>
      </trkpt>
      <trkpt lat="44.51072" lon="5.66343">
        <ele>1093</ele>
        <time>2022-06-09T22:18:00Z</time>
      </trkpt>
      <trkpt lat="44.51058" lon="5.66369">
        <ele>1093</ele>
        <time>2022-06-09T22:18:06Z</time>
      </trkpt>
      <trkpt lat="44.5103" lon="5.66449">
        <ele>1085</ele>
        <time>2022-06-09T22:18:21Z</time>
      </trkpt>
      <trkpt lat="44.51018" lon="5.66466">
        <ele>1086</ele>
        <time>2022-06-09T22:18:25Z</time>
      </trkpt>
      <trkpt lat="44.50997" lon="5.66512">
        <ele>1081</ele>
        <time>2022-06-09T22:18:34Z</time>
      </trkpt>
      <trkpt lat="44.50991" lon="5.66533">
        <ele>1079</ele>
        <time>2022-06-09T22:18:38Z</time>
      </trkpt>
      <trkpt lat="44.50988" lon="5.66535">
        <ele>1079</ele>
        <time>2022-06-09T22:18:38Z</time>
      </trkpt>
      <trkpt lat="44.50989" lon="5.66545">
        <ele>1077</ele>
        <time>2022-06-09T22:18:40Z</time>
      </trkpt>
      <trkpt lat="44.50993" lon="5.6655">
        <ele>1074</ele>
        <time>2022-06-09T22:18:41Z</time>
      </trkpt>
      <trkpt lat="44.51003" lon="5.66537">
        <ele>1073</ele>
        <time>2022-06-09T22:18:44Z</time>
      </trkpt>
      <trkpt lat="44.51033" lon="5.66525">
        <ele>1066</ele>
        <time>2022-06-09T22:18:52Z</time>
      </trkpt>
      <trkpt lat="44.51052" lon="5.66522">
        <ele>1060</ele>
        <time>2022-06-09T22:18:56Z</time>
      </trkpt>
      <trkpt lat="44.51073" lon="5.66508">
        <ele>1055</ele>
        <time>2022-06-09T22:19:02Z</time>
      </trkpt>
      <trkpt lat="44.51084" lon="5.66504">
        <ele>1051</ele>
        <time>2022-06-09T22:19:04Z</time>
      </trkpt>
      <trkpt lat="44.5112" lon="5.66507">
        <ele>1042</ele>
        <time>2022-06-09T22:19:13Z</time>
      </trkpt>
      <trkpt lat="44.5113" lon="5.66504">
        <ele>1040</ele>
        <time>2022-06-09T22:19:15Z</time>
      </trkpt>
      <trkpt lat="44.5114" lon="5.66497">
        <ele>1038</ele>
        <time>2022-06-09T22:19:18Z</time>
      </trkpt>
      <trkpt lat="44.51154" lon="5.66472">
        <ele>1037</ele>
        <time>2022-06-09T22:19:23Z</time>
      </trkpt>
      <trkpt lat="44.51165" lon="5.66434">
        <ele>1036</ele>
        <time>2022-06-09T22:19:30Z</time>
      </trkpt>
      <trkpt lat="44.51176" lon="5.66411">
        <ele>1033</ele>
        <time>2022-06-09T22:19:34Z</time>
      </trkpt>
      <trkpt lat="44.51194" lon="5.66384">
        <ele>1028</ele>
        <time>2022-06-09T22:19:41Z</time>
      </trkpt>
      <trkpt lat="44.51198" lon="5.66369">
        <ele>1028</ele>
        <time>2022-06-09T22:19:43Z</time>
      </trkpt>
      <trkpt lat="44.51216" lon="5.6633">
        <ele>1023</ele>
        <time>2022-06-09T22:19:51Z</time>
      </trkpt>
      <trkpt lat="44.51258" lon="5.66286">
        <ele>1008</ele>
        <time>2022-06-09T22:20:03Z</time>
      </trkpt>
      <trkpt lat="44.51268" lon="5.66272">
        <ele>1005</ele>
        <time>2022-06-09T22:20:07Z</time>
      </trkpt>
      <trkpt lat="44.51292" lon="5.66221">
        <ele>999</ele>
        <time>2022-06-09T22:20:17Z</time>
      </trkpt>
      <trkpt lat="44.51301" lon="5.66209">
        <ele>996</ele>
        <time>2022-06-09T22:20:20Z</time>
      </trkpt>
      <trkpt lat="44.51315" lon="5.66179">
        <ele>991</ele>
        <time>2022-06-09T22:20:26Z</time>
      </trkpt>
      <trkpt lat="44.51336" lon="5.66122">
        <ele>986</ele>
        <time>2022-06-09T22:20:36Z</time>
      </trkpt>
      <trkpt lat="44.51344" lon="5.6611">
        <ele>985</ele>
        <time>2022-06-09T22:20:39Z</time>
      </trkpt>
      <trkpt lat="44.51347" lon="5.6611">
        <ele>984</ele>
        <time>2022-06-09T22:20:40Z</time>
      </trkpt>
      <trkpt lat="44.51351" lon="5.66112">
        <ele>983</ele>
        <time>2022-06-09T22:20:41Z</time>
      </trkpt>
      <trkpt lat="44.51353" lon="5.66117">
        <ele>982</ele>
        <time>2022-06-09T22:20:42Z</time>
      </trkpt>
      <trkpt lat="44.51356" lon="5.66148">
        <ele>977</ele>
        <time>2022-06-09T22:20:47Z</time>
      </trkpt>
      <trkpt lat="44.51367" lon="5.66196">
        <ele>968</ele>
        <time>2022-06-09T22:20:55Z</time>
      </trkpt>
      <trkpt lat="44.51373" lon="5.66254">
        <ele>960</ele>
        <time>2022-06-09T22:21:05Z</time>
      </trkpt>
      <trkpt lat="44.51376" lon="5.66318">
        <ele>955</ele>
        <time>2022-06-09T22:21:16Z</time>
      </trkpt>
      <trkpt lat="44.51382" lon="5.66351">
        <ele>952</ele>
        <time>2022-06-09T22:21:21Z</time>
      </trkpt>
      <trkpt lat="44.51389" lon="5.66371">
        <ele>949</ele>
        <time>2022-06-09T22:21:25Z</time>
      </trkpt>
      <trkpt lat="44.51393" lon="5.66397">
        <ele>947</ele>
        <time>2022-06-09T22:21:30Z</time>
      </trkpt>
      <trkpt lat="44.51397" lon="5.66399">
        <ele>946</ele>
        <time>2022-06-09T22:21:31Z</time>
      </trkpt>
      <trkpt lat="44.51403" lon="5.6639">
        <ele>944</ele>
        <time>2022-06-09T22:21:33Z</time>
      </trkpt>
      <trkpt lat="44.51406" lon="5.66351">
        <ele>943</ele>
        <time>2022-06-09T22:21:39Z</time>
      </trkpt>
      <trkpt lat="44.51408" lon="5.66344">
        <ele>942</ele>
        <time>2022-06-09T22:21:40Z</time>
      </trkpt>
      <trkpt lat="44.51416" lon="5.66341">
        <ele>938</ele>
        <time>2022-06-09T22:21:42Z</time>
      </trkpt>
      <trkpt lat="44.51422" lon="5.6635">
        <ele>938</ele>
        <time>2022-06-09T22:21:44Z</time>
      </trkpt>
      <trkpt lat="44.51433" lon="5.66382">
        <ele>936</ele>
        <time>2022-06-09T22:21:50Z</time>
      </trkpt>
      <trkpt lat="44.51461" lon="5.66402">
        <ele>928</ele>
        <time>2022-06-09T22:21:58Z</time>
      </trkpt>
      <trkpt lat="44.5149" lon="5.66418">
        <ele>918</ele>
        <time>2022-06-09T22:22:05Z</time>
      </trkpt>
      <trkpt lat="44.51507" lon="5.66438">
        <ele>914</ele>
        <time>2022-06-09T22:22:10Z</time>
      </trkpt>
      <trkpt lat="44.51519" lon="5.66466">
        <ele>912</ele>
        <time>2022-06-09T22:22:16Z</time>
      </trkpt>
      <trkpt lat="44.51524" lon="5.66485">
        <ele>911</ele>
        <time>2022-06-09T22:22:19Z</time>
      </trkpt>
      <trkpt lat="44.51533" lon="5.665">
        <ele>910</ele>
        <time>2022-06-09T22:22:22Z</time>
      </trkpt>
      <trkpt lat="44.51534" lon="5.66582">
        <ele>901</ele>
        <time>2022-06-09T22:22:36Z</time>
      </trkpt>
      <trkpt lat="44.51538" lon="5.66601">
        <ele>900</ele>
        <time>2022-06-09T22:22:39Z</time>
      </trkpt>
      <trkpt lat="44.51544" lon="5.66618">
        <ele>899</ele>
        <time>2022-06-09T22:22:42Z</time>
      </trkpt>
      <trkpt lat="44.51555" lon="5.66638">
        <ele>896</ele>
        <time>2022-06-09T22:22:46Z</time>
      </trkpt>
      <trkpt lat="44.51578" lon="5.66655">
        <ele>892</ele>
        <time>2022-06-09T22:22:53Z</time>
      </trkpt>
      <trkpt lat="44.51588" lon="5.66669">
        <ele>890</ele>
        <time>2022-06-09T22:22:56Z</time>
      </trkpt>
      <trkpt lat="44.51596" lon="5.667">
        <ele>888</ele>
        <time>2022-06-09T22:23:01Z</time>
      </trkpt>
      <trkpt lat="44.51603" lon="5.66764">
        <ele>881</ele>
        <time>2022-06-09T22:23:12Z</time>
      </trkpt>
      <trkpt lat="44.51612" lon="5.66796">
        <ele>878</ele>
        <time>2022-06-09T22:23:18Z</time>
      </trkpt>
      <trkpt lat="44.51631" lon="5.6682">
        <ele>876</ele>
        <time>2022-06-09T22:23:24Z</time>
      </trkpt>
      <trkpt lat="44.51653" lon="5.66855">
        <ele>872</ele>
        <time>2022-06-09T22:23:32Z</time>
      </trkpt>
      <trkpt lat="44.51678" lon="5.66877">
        <ele>871</ele>
        <time>2022-06-09T22:23:38Z</time>
      </trkpt>
      <trkpt lat="44.5168" lon="5.66884">
        <ele>871</ele>
        <time>2022-06-09T22:23:40Z</time>
      </trkpt>
      <trkpt lat="44.51679" lon="5.66893">
        <ele>870</ele>
        <time>2022-06-09T22:23:41Z</time>
      </trkpt>
      <trkpt lat="44.51672" lon="5.66906">
        <ele>867</ele>
        <time>2022-06-09T22:23:44Z</time>
      </trkpt>
      <trkpt lat="44.51669" lon="5.66927">
        <ele>864</ele>
        <time>2022-06-09T22:23:48Z</time>
      </trkpt>
      <trkpt lat="44.51694" lon="5.66977">
        <ele>865</ele>
        <time>2022-06-09T22:23:58Z</time>
      </trkpt>
      <trkpt lat="44.51698" lon="5.67008">
        <ele>864</ele>
        <time>2022-06-09T22:24:03Z</time>
      </trkpt>
      <trkpt lat="44.51711" lon="5.67043">
        <ele>863</ele>
        <time>2022-06-09T22:24:10Z</time>
      </trkpt>
      <trkpt lat="44.51719" lon="5.67058">
        <ele>863</ele>
        <time>2022-06-09T22:24:13Z</time>
      </trkpt>
      <trkpt lat="44.51726" lon="5.67109">
        <ele>858</ele>
        <time>2022-06-09T22:24:21Z</time>
      </trkpt>
      <trkpt lat="44.51724" lon="5.67133">
        <ele>855</ele>
        <time>2022-06-09T22:24:25Z</time>
      </trkpt>
      <trkpt lat="44.51726" lon="5.67154">
        <ele>853</ele>
        <time>2022-06-09T22:24:29Z</time>
      </trkpt>
      <trkpt lat="44.51747" lon="5.67209">
        <ele>849</ele>
        <time>2022-06-09T22:24:39Z</time>
      </trkpt>
      <trkpt lat="44.51777" lon="5.6732">
        <ele>842</ele>
        <time>2022-06-09T22:24:59Z</time>
      </trkpt>
      <trkpt lat="44.51784" lon="5.67329">
        <ele>841</ele>
        <time>2022-06-09T22:25:01Z</time>
      </trkpt>
      <trkpt lat="44.51817" lon="5.67336">
        <ele>843</ele>
        <time>2022-06-09T22:25:09Z</time>
      </trkpt>
      <trkpt lat="44.51861" lon="5.67378">
        <ele>836</ele>
        <time>2022-06-09T22:25:21Z</time>
      </trkpt>
      <trkpt lat="44.51875" lon="5.67401">
        <ele>832</ele>
        <time>2022-06-09T22:25:26Z</time>
      </trkpt>
      <trkpt lat="44.51889" lon="5.67461">
        <ele>826</ele>
        <time>2022-06-09T22:25:37Z</time>
      </trkpt>
      <trkpt lat="44.51897" lon="5.67483">
        <ele>824</ele>
        <time>2022-06-09T22:25:41Z</time>
      </trkpt>
      <trkpt lat="44.51932" lon="5.67552">
        <ele>818</ele>
        <time>2022-06-09T22:25:55Z</time>
      </trkpt>
      <trkpt lat="44.51965" lon="5.6759">
        <ele>819</ele>
        <time>2022-06-09T22:26:05Z</time>
      </trkpt>
      <trkpt lat="44.51977" lon="5.67625">
        <ele>819</ele>
        <time>2022-06-09T22:26:12Z</time>
      </trkpt>
      <trkpt lat="44.51984" lon="5.67675">
        <ele>817</ele>
        <time>2022-06-09T22:26:20Z</time>
      </trkpt>
      <trkpt lat="44.51985" lon="5.67693">
        <ele>816</ele>
        <time>2022-06-09T22:26:23Z</time>
      </trkpt>
      <trkpt lat="44.51976" lon="5.67729">
        <ele>812</ele>
        <time>2022-06-09T22:26:29Z</time>
      </trkpt>
      <trkpt lat="44.51975" lon="5.67781">
        <ele>809</ele>
        <time>2022-06-09T22:26:38Z</time>
      </trkpt>
      <trkpt lat="44.51976" lon="5.67791">
        <ele>808</ele>
        <time>2022-06-09T22:26:40Z</time>
      </trkpt>
      <trkpt lat="44.51987" lon="5.67823">
        <ele>806</ele>
        <time>2022-06-09T22:26:46Z</time>
      </trkpt>
      <trkpt lat="44.51976" lon="5.67831">
        <ele>806</ele>
        <time>2022-06-09T22:26:49Z</time>
      </trkpt>
      <trkpt lat="44.51956" lon="5.67855">
        <ele>807</ele>
        <time>2022-06-09T22:26:55Z</time>
      </trkpt>
      <trkpt lat="44.5195" lon="5.67875">
        <ele>809</ele>
        <time>2022-06-09T22:26:58Z</time>
      </trkpt>
      <trkpt lat="44.51956" lon="5.67888">
        <ele>809</ele>
        <time>2022-06-09T22:27:01Z</time>
      </trkpt>
      <trkpt lat="44.51968" lon="5.67894">
        <ele>808</ele>
        <time>2022-06-09T22:27:04Z</time>
      </trkpt>
      <trkpt lat="44.51983" lon="5.67909">
        <ele>806</ele>
        <time>2022-06-09T22:27:08Z</time>
      </trkpt>
      <trkpt lat="44.51989" lon="5.67922">
        <ele>805</ele>
        <time>2022-06-09T22:27:11Z</time>
      </trkpt>
      <trkpt lat="44.51998" lon="5.67958">
        <ele>806</ele>
        <time>2022-06-09T22:27:17Z</time>
      </trkpt>
      <trkpt lat="44.52011" lon="5.67989">
        <ele>806</ele>
        <time>2022-06-09T22:27:23Z</time>
      </trkpt>
      <trkpt lat="44.52015" lon="5.68012">
        <ele>806</ele>
        <time>2022-06-09T22:27:27Z</time>
      </trkpt>
      <trkpt lat="44.52014" lon="5.68023">
        <ele>806</ele>
        <time>2022-06-09T22:27:29Z</time>
      </trkpt>
      <trkpt lat="44.52012" lon="5.68036">
        <ele>806</ele>
        <time>2022-06-09T22:27:31Z</time>
      </trkpt>
      <trkpt lat="44.52001" lon="5.68062">
        <ele>806</ele>
        <time>2022-06-09T22:27:36Z</time>
      </trkpt>
      <trkpt lat="44.51999" lon="5.68073">
        <ele>806</ele>
        <time>2022-06-09T22:27:38Z</time>
      </trkpt>
      <trkpt lat="44.52" lon="5.68086">
        <ele>806</ele>
        <time>2022-06-09T22:27:40Z</time>
      </trkpt>
      <trkpt lat="44.5202" lon="5.68128">
        <ele>805</ele>
        <time>2022-06-09T22:27:49Z</time>
      </trkpt>
      <trkpt lat="44.52038" lon="5.68151">
        <ele>804</ele>
        <time>2022-06-09T22:27:54Z</time>
      </trkpt>
      <trkpt lat="44.52087" lon="5.68198">
        <ele>799</ele>
        <time>2022-06-09T22:28:08Z</time>
      </trkpt>
      <trkpt lat="44.52122" lon="5.68285">
        <ele>797</ele>
        <time>2022-06-09T22:28:25Z</time>
      </trkpt>
      <trkpt lat="44.52134" lon="5.68308">
        <ele>795</ele>
        <time>2022-06-09T22:28:30Z</time>
      </trkpt>
      <trkpt lat="44.52164" lon="5.68354">
        <ele>791</ele>
        <time>2022-06-09T22:28:40Z</time>
      </trkpt>
      <trkpt lat="44.5217" lon="5.68361">
        <ele>790</ele>
        <time>2022-06-09T22:28:42Z</time>
      </trkpt>
      <trkpt lat="44.52205" lon="5.68386">
        <ele>787</ele>
        <time>2022-06-09T22:28:51Z</time>
      </trkpt>
      <trkpt lat="44.52224" lon="5.68434">
        <ele>785</ele>
        <time>2022-06-09T22:29:00Z</time>
      </trkpt>
      <trkpt lat="44.52253" lon="5.68469">
        <ele>783</ele>
        <time>2022-06-09T22:29:09Z</time>
      </trkpt>
      <trkpt lat="44.52258" lon="5.68478">
        <ele>782</ele>
        <time>2022-06-09T22:29:11Z</time>
      </trkpt>
      <trkpt lat="44.52273" lon="5.68537">
        <ele>781</ele>
        <time>2022-06-09T22:29:21Z</time>
      </trkpt>
      <trkpt lat="44.52271" lon="5.68554">
        <ele>781</ele>
        <time>2022-06-09T22:29:24Z</time>
      </trkpt>
      <trkpt lat="44.5223" lon="5.68598">
        <ele>783</ele>
        <time>2022-06-09T22:29:36Z</time>
      </trkpt>
      <trkpt lat="44.5222" lon="5.68615">
        <ele>783</ele>
        <time>2022-06-09T22:29:40Z</time>
      </trkpt>
      <trkpt lat="44.52215" lon="5.68639">
        <ele>783</ele>
        <time>2022-06-09T22:29:44Z</time>
      </trkpt>
      <trkpt lat="44.52207" lon="5.68709">
        <ele>781</ele>
        <time>2022-06-09T22:29:56Z</time>
      </trkpt>
      <trkpt lat="44.52202" lon="5.6873">
        <ele>780</ele>
        <time>2022-06-09T22:30:00Z</time>
      </trkpt>
      <trkpt lat="44.52188" lon="5.68763">
        <ele>779</ele>
        <time>2022-06-09T22:30:06Z</time>
      </trkpt>
      <trkpt lat="44.5216" lon="5.688">
        <ele>779</ele>
        <time>2022-06-09T22:30:15Z</time>
      </trkpt>
      <trkpt lat="44.52098" lon="5.68859">
        <ele>780</ele>
        <time>2022-06-09T22:30:32Z</time>
      </trkpt>
      <trkpt lat="44.52072" lon="5.68892">
        <ele>779</ele>
        <time>2022-06-09T22:30:41Z</time>
      </trkpt>
      <trkpt lat="44.52051" lon="5.68926">
        <ele>778</ele>
        <time>2022-06-09T22:30:48Z</time>
      </trkpt>
      <trkpt lat="44.52022" lon="5.68987">
        <ele>776</ele>
        <time>2022-06-09T22:31:00Z</time>
      </trkpt>
      <trkpt lat="44.52014" lon="5.68999">
        <ele>775</ele>
        <time>2022-06-09T22:31:03Z</time>
      </trkpt>
      <trkpt lat="44.51968" lon="5.69054">
        <ele>773</ele>
        <time>2022-06-09T22:31:17Z</time>
      </trkpt>
      <trkpt lat="44.51939" lon="5.69082">
        <ele>771</ele>
        <time>2022-06-09T22:31:25Z</time>
      </trkpt>
      <trkpt lat="44.51904" lon="5.69103">
        <ele>770</ele>
        <time>2022-06-09T22:31:34Z</time>
      </trkpt>
      <trkpt lat="44.51845" lon="5.69125">
        <ele>769</ele>
        <time>2022-06-09T22:31:49Z</time>
      </trkpt>
      <trkpt lat="44.51821" lon="5.69141">
        <ele>768</ele>
        <time>2022-06-09T22:31:55Z</time>
      </trkpt>
      <trkpt lat="44.51816" lon="5.69151">
        <ele>768</ele>
        <time>2022-06-09T22:31:57Z</time>
      </trkpt>
      <trkpt lat="44.51815" lon="5.69171">
        <ele>767</ele>
        <time>2022-06-09T22:32:00Z</time>
      </trkpt>
      <trkpt lat="44.51824" lon="5.69224">
        <ele>765</ele>
        <time>2022-06-09T22:32:09Z</time>
      </trkpt>
      <trkpt lat="44.5183" lon="5.69371">
        <ele>762</ele>
        <time>2022-06-09T22:32:34Z</time>
      </trkpt>
      <trkpt lat="44.51833" lon="5.69398">
        <ele>761</ele>
        <time>2022-06-09T22:32:38Z</time>
      </trkpt>
      <trkpt lat="44.51837" lon="5.69414">
        <ele>761</ele>
        <time>2022-06-09T22:32:41Z</time>
      </trkpt>
      <trkpt lat="44.51864" lon="5.69486">
        <ele>762</ele>
        <time>2022-06-09T22:32:55Z</time>
      </trkpt>
      <trkpt lat="44.51882" lon="5.69515">
        <ele>763</ele>
        <time>2022-06-09T22:33:01Z</time>
      </trkpt>
      <trkpt lat="44.51889" lon="5.69537">
        <ele>763</ele>
        <time>2022-06-09T22:33:05Z</time>
      </trkpt>
      <trkpt lat="44.51887" lon="5.69555">
        <ele>763</ele>
        <time>2022-06-09T22:33:08Z</time>
      </trkpt>
      <trkpt lat="44.5188" lon="5.69567">
        <ele>763</ele>
        <time>2022-06-09T22:33:11Z</time>
      </trkpt>
      <trkpt lat="44.51869" lon="5.69606">
        <ele>763</ele>
        <time>2022-06-09T22:33:18Z</time>
      </trkpt>
      <trkpt lat="44.5187" lon="5.6964">
        <ele>763</ele>
        <time>2022-06-09T22:33:23Z</time>
      </trkpt>
      <trkpt lat="44.5188" lon="5.69683">
        <ele>764</ele>
        <time>2022-06-09T22:33:31Z</time>
      </trkpt>
      <trkpt lat="44.51888" lon="5.697">
        <ele>766</ele>
        <time>2022-06-09T22:33:34Z</time>
      </trkpt>
      <trkpt lat="44.51896" lon="5.69705">
        <ele>767</ele>
        <time>2022-06-09T22:33:36Z</time>
      </trkpt>
      <trkpt lat="44.51922" lon="5.69712">
        <ele>769</ele>
        <time>2022-06-09T22:33:43Z</time>
      </trkpt>
      <trkpt lat="44.51931" lon="5.69711">
        <ele>769</ele>
        <time>2022-06-09T22:33:45Z</time>
      </trkpt>
      <trkpt lat="44.51949" lon="5.69714">
        <ele>770</ele>
        <time>2022-06-09T22:33:49Z</time>
      </trkpt>
      <trkpt lat="44.51957" lon="5.69712">
        <ele>770</ele>
        <time>2022-06-09T22:33:51Z</time>
      </trkpt>
      <trkpt lat="44.51989" lon="5.69725">
        <ele>771</ele>
        <time>2022-06-09T22:33:59Z</time>
      </trkpt>
      <trkpt lat="44.52014" lon="5.69745">
        <ele>773</ele>
        <time>2022-06-09T22:34:05Z</time>
      </trkpt>
      <trkpt lat="44.52025" lon="5.69766">
        <ele>773</ele>
        <time>2022-06-09T22:34:10Z</time>
      </trkpt>
      <trkpt lat="44.52027" lon="5.69787">
        <ele>774</ele>
        <time>2022-06-09T22:34:13Z</time>
      </trkpt>
      <trkpt lat="44.52014" lon="5.69805">
        <ele>775</ele>
        <time>2022-06-09T22:34:17Z</time>
      </trkpt>
      <trkpt lat="44.52011" lon="5.69813">
        <ele>775</ele>
        <time>2022-06-09T22:34:19Z</time>
      </trkpt>
      <trkpt lat="44.52007" lon="5.69843">
        <ele>776</ele>
        <time>2022-06-09T22:34:24Z</time>
      </trkpt>
      <trkpt lat="44.52017" lon="5.69889">
        <ele>775</ele>
        <time>2022-06-09T22:34:32Z</time>
      </trkpt>
      <trkpt lat="44.52008" lon="5.69892">
        <ele>775</ele>
        <time>2022-06-09T22:34:34Z</time>
      </trkpt>
      <trkpt lat="44.5199" lon="5.69893">
        <ele>774</ele>
        <time>2022-06-09T22:34:38Z</time>
      </trkpt>
      <trkpt lat="44.51976" lon="5.69891">
        <ele>774</ele>
        <time>2022-06-09T22:34:42Z</time>
      </trkpt>
      <trkpt lat="44.5197" lon="5.69853">
        <ele>775</ele>
        <time>2022-06-09T22:34:48Z</time>
      </trkpt>
      <trkpt lat="44.51973" lon="5.69848">
        <ele>775</ele>
        <time>2022-06-09T22:34:49Z</time>
      </trkpt>
      <trkpt lat="44.51977" lon="5.69849">
        <ele>775</ele>
        <time>2022-06-09T22:34:50Z</time>
      </trkpt>
      <trkpt lat="44.51979" lon="5.69847">
        <ele>775</ele>
        <time>2022-06-09T22:34:51Z</time>
      </trkpt>
      <trkpt lat="44.51978" lon="5.69841">
        <ele>776</ele>
        <time>2022-06-09T22:34:52Z</time>
      </trkpt>
      <trkpt lat="44.51977" lon="5.69844">
        <ele>775</ele>
        <time>2022-06-09T22:34:52Z</time>
      </trkpt>
    </trkseg>
  </trk>
</gpx>